<?xml version="1.0" encoding="UTF-8" standalone="no" ?>
<gpx xmlns="http://www.topografix.com/GPX/1/1" xmlns:xsi="http://www.w3.org/2001/XMLSchema-instance" xsi:schemaLocation="http://www.topografix.com/GPX/1/1 http://www.topografix.com/GPX/1/1/gpx.xsd" version="1.1" creator="VisuGPX - https://www.visugpx.com">
  <metadata>
    <name>reco entrainement tignes 2011</name>
    <desc><![CDATA[Parcours sur Tignes. ]]></desc>
  </metadata>
  <wpt lat="38.85555" lon="-94.79902">
    <ele>3.01</ele>
    <name><![CDATA[GARMIN]]></name>
  </wpt>
  <wpt lat="50.98288" lon="-1.4639">
    <ele>3.01</ele>
    <name><![CDATA[GRMEUR]]></name>
  </wpt>
  <wpt lat="25.06178" lon="121.64027">
    <ele>3.01</ele>
    <name><![CDATA[GRMTWN]]></name>
  </wpt>
  <trk>
    <name><![CDATA[ACTIVE LOG: 26 JUN 2011 12:12]]></name>
    <trkseg>
      <trkpt lat="45.48318" lon="6.89349">
        <ele>2678.37</ele>
        <time>2011-06-26T10:12:11Z</time>
      </trkpt>
      <trkpt lat="45.48313" lon="6.89347">
        <ele>2676.45</ele>
        <time>2011-06-26T10:12:16Z</time>
      </trkpt>
      <trkpt lat="45.48317" lon="6.8934">
        <ele>2675.49</ele>
        <time>2011-06-26T10:12:20Z</time>
      </trkpt>
      <trkpt lat="45.48317" lon="6.89344">
        <ele>2675.49</ele>
        <time>2011-06-26T10:12:23Z</time>
      </trkpt>
      <trkpt lat="45.48315" lon="6.8936">
        <ele>2672.12</ele>
        <time>2011-06-26T10:12:32Z</time>
      </trkpt>
      <trkpt lat="45.48317" lon="6.89361">
        <ele>2671.16</ele>
        <time>2011-06-26T10:12:35Z</time>
      </trkpt>
      <trkpt lat="45.48321" lon="6.89358">
        <ele>2669.72</ele>
        <time>2011-06-26T10:12:39Z</time>
      </trkpt>
      <trkpt lat="45.48325" lon="6.89358">
        <ele>2666.83</ele>
        <time>2011-06-26T10:12:46Z</time>
      </trkpt>
      <trkpt lat="45.48334" lon="6.8935">
        <ele>2664.43</ele>
        <time>2011-06-26T10:12:55Z</time>
      </trkpt>
      <trkpt lat="45.48341" lon="6.89348">
        <ele>2662.99</ele>
        <time>2011-06-26T10:13:03Z</time>
      </trkpt>
      <trkpt lat="45.48346" lon="6.89337">
        <ele>2660.11</ele>
        <time>2011-06-26T10:13:16Z</time>
      </trkpt>
      <trkpt lat="45.48347" lon="6.89334">
        <ele>2660.59</ele>
        <time>2011-06-26T10:13:30Z</time>
      </trkpt>
      <trkpt lat="45.48348" lon="6.89334">
        <ele>2661.07</ele>
        <time>2011-06-26T10:13:36Z</time>
      </trkpt>
      <trkpt lat="45.48349" lon="6.89333">
        <ele>2662.03</ele>
        <time>2011-06-26T10:13:54Z</time>
      </trkpt>
      <trkpt lat="45.48349" lon="6.8933">
        <ele>2660.11</ele>
        <time>2011-06-26T10:13:57Z</time>
      </trkpt>
      <trkpt lat="45.48351" lon="6.89325">
        <ele>2659.14</ele>
        <time>2011-06-26T10:14:02Z</time>
      </trkpt>
      <trkpt lat="45.48349" lon="6.89318">
        <ele>2659.62</ele>
        <time>2011-06-26T10:14:09Z</time>
      </trkpt>
      <trkpt lat="45.48354" lon="6.89301">
        <ele>2657.22</ele>
        <time>2011-06-26T10:14:19Z</time>
      </trkpt>
      <trkpt lat="45.48346" lon="6.89274">
        <ele>2657.7</ele>
        <time>2011-06-26T10:14:31Z</time>
      </trkpt>
      <trkpt lat="45.48346" lon="6.89251">
        <ele>2654.34</ele>
        <time>2011-06-26T10:14:42Z</time>
      </trkpt>
      <trkpt lat="45.48346" lon="6.89245">
        <ele>2654.82</ele>
        <time>2011-06-26T10:14:44Z</time>
      </trkpt>
      <trkpt lat="45.4834" lon="6.89215">
        <ele>2654.34</ele>
        <time>2011-06-26T10:14:56Z</time>
      </trkpt>
      <trkpt lat="45.48337" lon="6.89207">
        <ele>2656.74</ele>
        <time>2011-06-26T10:15:02Z</time>
      </trkpt>
      <trkpt lat="45.48337" lon="6.89206">
        <ele>2655.78</ele>
        <time>2011-06-26T10:15:06Z</time>
      </trkpt>
      <trkpt lat="45.48337" lon="6.89201">
        <ele>2655.78</ele>
        <time>2011-06-26T10:15:10Z</time>
      </trkpt>
      <trkpt lat="45.48339" lon="6.89189">
        <ele>2654.34</ele>
        <time>2011-06-26T10:15:15Z</time>
      </trkpt>
      <trkpt lat="45.48339" lon="6.89174">
        <ele>2652.9</ele>
        <time>2011-06-26T10:15:22Z</time>
      </trkpt>
      <trkpt lat="45.48339" lon="6.89171">
        <ele>2654.34</ele>
        <time>2011-06-26T10:15:39Z</time>
      </trkpt>
      <trkpt lat="45.48337" lon="6.89164">
        <ele>2650.97</ele>
        <time>2011-06-26T10:16:03Z</time>
      </trkpt>
      <trkpt lat="45.48338" lon="6.89149">
        <ele>2648.09</ele>
        <time>2011-06-26T10:16:10Z</time>
      </trkpt>
      <trkpt lat="45.48343" lon="6.89129">
        <ele>2645.69</ele>
        <time>2011-06-26T10:16:19Z</time>
      </trkpt>
      <trkpt lat="45.48347" lon="6.89116">
        <ele>2644.24</ele>
        <time>2011-06-26T10:16:24Z</time>
      </trkpt>
      <trkpt lat="45.48347" lon="6.89106">
        <ele>2644.24</ele>
        <time>2011-06-26T10:16:28Z</time>
      </trkpt>
      <trkpt lat="45.48343" lon="6.89095">
        <ele>2639.44</ele>
        <time>2011-06-26T10:16:34Z</time>
      </trkpt>
      <trkpt lat="45.48337" lon="6.89078">
        <ele>2634.15</ele>
        <time>2011-06-26T10:16:45Z</time>
      </trkpt>
      <trkpt lat="45.48336" lon="6.89076">
        <ele>2634.63</ele>
        <time>2011-06-26T10:16:46Z</time>
      </trkpt>
      <trkpt lat="45.48336" lon="6.89068">
        <ele>2637.03</ele>
        <time>2011-06-26T10:17:02Z</time>
      </trkpt>
      <trkpt lat="45.48336" lon="6.89068">
        <ele>2637.03</ele>
        <time>2011-06-26T10:17:03Z</time>
      </trkpt>
      <trkpt lat="45.48337" lon="6.89069">
        <ele>2636.55</ele>
        <time>2011-06-26T10:17:16Z</time>
      </trkpt>
      <trkpt lat="45.48339" lon="6.89045">
        <ele>2639.92</ele>
        <time>2011-06-26T10:17:30Z</time>
      </trkpt>
      <trkpt lat="45.48339" lon="6.89027">
        <ele>2644.24</ele>
        <time>2011-06-26T10:17:45Z</time>
      </trkpt>
      <trkpt lat="45.48337" lon="6.89027">
        <ele>2647.61</ele>
        <time>2011-06-26T10:18:26Z</time>
      </trkpt>
      <trkpt lat="45.48338" lon="6.89025">
        <ele>2644.24</ele>
        <time>2011-06-26T10:18:29Z</time>
      </trkpt>
      <trkpt lat="45.48339" lon="6.89021">
        <ele>2647.61</ele>
        <time>2011-06-26T10:18:32Z</time>
      </trkpt>
      <trkpt lat="45.48339" lon="6.89012">
        <ele>2650.97</ele>
        <time>2011-06-26T10:18:40Z</time>
      </trkpt>
      <trkpt lat="45.4834" lon="6.89011">
        <ele>2650.97</ele>
        <time>2011-06-26T10:18:41Z</time>
      </trkpt>
      <trkpt lat="45.48339" lon="6.89006">
        <ele>2650.97</ele>
        <time>2011-06-26T10:18:53Z</time>
      </trkpt>
      <trkpt lat="45.4834" lon="6.89006">
        <ele>2651.93</ele>
        <time>2011-06-26T10:18:54Z</time>
      </trkpt>
      <trkpt lat="45.48339" lon="6.89007">
        <ele>2650.97</ele>
        <time>2011-06-26T10:18:57Z</time>
      </trkpt>
      <trkpt lat="45.4834" lon="6.89009">
        <ele>2652.9</ele>
        <time>2011-06-26T10:18:59Z</time>
      </trkpt>
      <trkpt lat="45.48339" lon="6.89008">
        <ele>2653.86</ele>
        <time>2011-06-26T10:19:23Z</time>
      </trkpt>
      <trkpt lat="45.48339" lon="6.89009">
        <ele>2654.82</ele>
        <time>2011-06-26T10:19:26Z</time>
      </trkpt>
      <trkpt lat="45.48344" lon="6.89017">
        <ele>2654.34</ele>
        <time>2011-06-26T10:19:38Z</time>
      </trkpt>
      <trkpt lat="45.48345" lon="6.89016">
        <ele>2656.74</ele>
        <time>2011-06-26T10:19:39Z</time>
      </trkpt>
      <trkpt lat="45.48347" lon="6.89012">
        <ele>2659.14</ele>
        <time>2011-06-26T10:19:46Z</time>
      </trkpt>
      <trkpt lat="45.4835" lon="6.8901">
        <ele>2659.62</ele>
        <time>2011-06-26T10:19:56Z</time>
      </trkpt>
      <trkpt lat="45.48352" lon="6.8901">
        <ele>2662.99</ele>
        <time>2011-06-26T10:20:03Z</time>
      </trkpt>
      <trkpt lat="45.48352" lon="6.89008">
        <ele>2664.43</ele>
        <time>2011-06-26T10:20:16Z</time>
      </trkpt>
      <trkpt lat="45.48352" lon="6.89008">
        <ele>2664.43</ele>
        <time>2011-06-26T10:20:23Z</time>
      </trkpt>
      <trkpt lat="45.48352" lon="6.89008">
        <ele>2661.07</ele>
        <time>2011-06-26T10:20:29Z</time>
      </trkpt>
      <trkpt lat="45.48352" lon="6.89008">
        <ele>2664.43</ele>
        <time>2011-06-26T10:20:30Z</time>
      </trkpt>
      <trkpt lat="45.48352" lon="6.89008">
        <ele>2661.07</ele>
        <time>2011-06-26T10:20:35Z</time>
      </trkpt>
      <trkpt lat="45.48352" lon="6.89008">
        <ele>2664.43</ele>
        <time>2011-06-26T10:20:43Z</time>
      </trkpt>
      <trkpt lat="45.48352" lon="6.89008">
        <ele>2664.43</ele>
        <time>2011-06-26T10:20:47Z</time>
      </trkpt>
      <trkpt lat="45.48352" lon="6.89008">
        <ele>2662.99</ele>
        <time>2011-06-26T10:20:56Z</time>
      </trkpt>
      <trkpt lat="45.48353" lon="6.89005">
        <ele>2666.35</ele>
        <time>2011-06-26T10:21:18Z</time>
      </trkpt>
      <trkpt lat="45.48352" lon="6.89002">
        <ele>2669.24</ele>
        <time>2011-06-26T10:21:20Z</time>
      </trkpt>
      <trkpt lat="45.48354" lon="6.89">
        <ele>2667.31</ele>
        <time>2011-06-26T10:21:31Z</time>
      </trkpt>
      <trkpt lat="45.48358" lon="6.88999">
        <ele>2669.72</ele>
        <time>2011-06-26T10:21:41Z</time>
      </trkpt>
      <trkpt lat="45.48358" lon="6.88998">
        <ele>2666.83</ele>
        <time>2011-06-26T10:21:42Z</time>
      </trkpt>
      <trkpt lat="45.48362" lon="6.8899">
        <ele>2671.16</ele>
        <time>2011-06-26T10:21:49Z</time>
      </trkpt>
      <trkpt lat="45.48366" lon="6.88982">
        <ele>2673.08</ele>
        <time>2011-06-26T10:21:56Z</time>
      </trkpt>
      <trkpt lat="45.48369" lon="6.88973">
        <ele>2673.08</ele>
        <time>2011-06-26T10:22:02Z</time>
      </trkpt>
      <trkpt lat="45.48374" lon="6.88968">
        <ele>2672.12</ele>
        <time>2011-06-26T10:22:07Z</time>
      </trkpt>
      <trkpt lat="45.48377" lon="6.88962">
        <ele>2673.56</ele>
        <time>2011-06-26T10:22:12Z</time>
      </trkpt>
      <trkpt lat="45.48379" lon="6.88961">
        <ele>2672.12</ele>
        <time>2011-06-26T10:22:14Z</time>
      </trkpt>
      <trkpt lat="45.48397" lon="6.8895">
        <ele>2673.56</ele>
        <time>2011-06-26T10:22:29Z</time>
      </trkpt>
      <trkpt lat="45.48398" lon="6.88949">
        <ele>2669.72</ele>
        <time>2011-06-26T10:22:32Z</time>
      </trkpt>
      <trkpt lat="45.48398" lon="6.88949">
        <ele>2675.01</ele>
        <time>2011-06-26T10:22:33Z</time>
      </trkpt>
      <trkpt lat="45.484" lon="6.88947">
        <ele>2672.12</ele>
        <time>2011-06-26T10:22:38Z</time>
      </trkpt>
      <trkpt lat="45.48407" lon="6.88938">
        <ele>2673.08</ele>
        <time>2011-06-26T10:22:43Z</time>
      </trkpt>
      <trkpt lat="45.48415" lon="6.88921">
        <ele>2671.16</ele>
        <time>2011-06-26T10:22:50Z</time>
      </trkpt>
      <trkpt lat="45.48417" lon="6.88903">
        <ele>2670.2</ele>
        <time>2011-06-26T10:22:58Z</time>
      </trkpt>
      <trkpt lat="45.48419" lon="6.88891">
        <ele>2672.12</ele>
        <time>2011-06-26T10:23:05Z</time>
      </trkpt>
      <trkpt lat="45.48414" lon="6.88882">
        <ele>2670.68</ele>
        <time>2011-06-26T10:23:10Z</time>
      </trkpt>
      <trkpt lat="45.48411" lon="6.88874">
        <ele>2669.72</ele>
        <time>2011-06-26T10:23:14Z</time>
      </trkpt>
      <trkpt lat="45.48406" lon="6.88868">
        <ele>2669.72</ele>
        <time>2011-06-26T10:23:17Z</time>
      </trkpt>
      <trkpt lat="45.484" lon="6.88858">
        <ele>2664.91</ele>
        <time>2011-06-26T10:23:23Z</time>
      </trkpt>
      <trkpt lat="45.484" lon="6.88855">
        <ele>2665.39</ele>
        <time>2011-06-26T10:23:24Z</time>
      </trkpt>
      <trkpt lat="45.484" lon="6.88849">
        <ele>2663.47</ele>
        <time>2011-06-26T10:23:27Z</time>
      </trkpt>
      <trkpt lat="45.48403" lon="6.88835">
        <ele>2660.59</ele>
        <time>2011-06-26T10:23:34Z</time>
      </trkpt>
      <trkpt lat="45.48407" lon="6.88815">
        <ele>2656.74</ele>
        <time>2011-06-26T10:23:43Z</time>
      </trkpt>
      <trkpt lat="45.4841" lon="6.88801">
        <ele>2653.38</ele>
        <time>2011-06-26T10:23:49Z</time>
      </trkpt>
      <trkpt lat="45.48411" lon="6.88799">
        <ele>2652.9</ele>
        <time>2011-06-26T10:23:50Z</time>
      </trkpt>
      <trkpt lat="45.48412" lon="6.88795">
        <ele>2652.42</ele>
        <time>2011-06-26T10:23:52Z</time>
      </trkpt>
      <trkpt lat="45.48411" lon="6.88785">
        <ele>2652.9</ele>
        <time>2011-06-26T10:23:56Z</time>
      </trkpt>
      <trkpt lat="45.48405" lon="6.88785">
        <ele>2650.49</ele>
        <time>2011-06-26T10:24:13Z</time>
      </trkpt>
      <trkpt lat="45.48404" lon="6.88784">
        <ele>2650.97</ele>
        <time>2011-06-26T10:24:37Z</time>
      </trkpt>
      <trkpt lat="45.48403" lon="6.88784">
        <ele>2651.93</ele>
        <time>2011-06-26T10:24:39Z</time>
      </trkpt>
      <trkpt lat="45.48399" lon="6.88785">
        <ele>2649.53</ele>
        <time>2011-06-26T10:24:42Z</time>
      </trkpt>
      <trkpt lat="45.48394" lon="6.88789">
        <ele>2646.17</ele>
        <time>2011-06-26T10:24:46Z</time>
      </trkpt>
      <trkpt lat="45.48389" lon="6.88789">
        <ele>2646.65</ele>
        <time>2011-06-26T10:24:49Z</time>
      </trkpt>
      <trkpt lat="45.48379" lon="6.88789">
        <ele>2644.24</ele>
        <time>2011-06-26T10:24:56Z</time>
      </trkpt>
      <trkpt lat="45.48373" lon="6.88791">
        <ele>2641.36</ele>
        <time>2011-06-26T10:25:00Z</time>
      </trkpt>
      <trkpt lat="45.48372" lon="6.88791">
        <ele>2645.21</ele>
        <time>2011-06-26T10:25:01Z</time>
      </trkpt>
      <trkpt lat="45.48371" lon="6.88791">
        <ele>2641.36</ele>
        <time>2011-06-26T10:25:02Z</time>
      </trkpt>
      <trkpt lat="45.48365" lon="6.88791">
        <ele>2640.4</ele>
        <time>2011-06-26T10:25:08Z</time>
      </trkpt>
      <trkpt lat="45.48361" lon="6.8879">
        <ele>2639.44</ele>
        <time>2011-06-26T10:25:12Z</time>
      </trkpt>
      <trkpt lat="45.48359" lon="6.88789">
        <ele>2638.48</ele>
        <time>2011-06-26T10:25:14Z</time>
      </trkpt>
      <trkpt lat="45.48356" lon="6.88788">
        <ele>2637.51</ele>
        <time>2011-06-26T10:25:18Z</time>
      </trkpt>
      <trkpt lat="45.48352" lon="6.88789">
        <ele>2635.11</ele>
        <time>2011-06-26T10:25:23Z</time>
      </trkpt>
      <trkpt lat="45.48347" lon="6.88787">
        <ele>2632.71</ele>
        <time>2011-06-26T10:25:27Z</time>
      </trkpt>
      <trkpt lat="45.48345" lon="6.88786">
        <ele>2634.15</ele>
        <time>2011-06-26T10:25:29Z</time>
      </trkpt>
      <trkpt lat="45.48344" lon="6.88785">
        <ele>2631.75</ele>
        <time>2011-06-26T10:25:31Z</time>
      </trkpt>
      <trkpt lat="45.48335" lon="6.88785">
        <ele>2631.75</ele>
        <time>2011-06-26T10:25:39Z</time>
      </trkpt>
      <trkpt lat="45.48331" lon="6.88786">
        <ele>2628.86</ele>
        <time>2011-06-26T10:25:42Z</time>
      </trkpt>
      <trkpt lat="45.48329" lon="6.88788">
        <ele>2628.86</ele>
        <time>2011-06-26T10:25:44Z</time>
      </trkpt>
      <trkpt lat="45.48324" lon="6.88788">
        <ele>2629.82</ele>
        <time>2011-06-26T10:25:49Z</time>
      </trkpt>
      <trkpt lat="45.48322" lon="6.88788">
        <ele>2627.42</ele>
        <time>2011-06-26T10:25:51Z</time>
      </trkpt>
      <trkpt lat="45.48319" lon="6.88789">
        <ele>2628.38</ele>
        <time>2011-06-26T10:25:54Z</time>
      </trkpt>
      <trkpt lat="45.48318" lon="6.8879">
        <ele>2625.02</ele>
        <time>2011-06-26T10:25:55Z</time>
      </trkpt>
      <trkpt lat="45.48314" lon="6.88791">
        <ele>2625.5</ele>
        <time>2011-06-26T10:25:58Z</time>
      </trkpt>
      <trkpt lat="45.48309" lon="6.88792">
        <ele>2624.54</ele>
        <time>2011-06-26T10:26:03Z</time>
      </trkpt>
      <trkpt lat="45.48308" lon="6.88792">
        <ele>2623.58</ele>
        <time>2011-06-26T10:26:04Z</time>
      </trkpt>
      <trkpt lat="45.48297" lon="6.88793">
        <ele>2620.69</ele>
        <time>2011-06-26T10:26:15Z</time>
      </trkpt>
      <trkpt lat="45.48296" lon="6.88794">
        <ele>2620.69</ele>
        <time>2011-06-26T10:26:16Z</time>
      </trkpt>
      <trkpt lat="45.48288" lon="6.88797">
        <ele>2616.85</ele>
        <time>2011-06-26T10:26:23Z</time>
      </trkpt>
      <trkpt lat="45.48276" lon="6.88782">
        <ele>2616.37</ele>
        <time>2011-06-26T10:26:34Z</time>
      </trkpt>
      <trkpt lat="45.48283" lon="6.88773">
        <ele>2613</ele>
        <time>2011-06-26T10:26:39Z</time>
      </trkpt>
      <trkpt lat="45.48292" lon="6.88756">
        <ele>2609.16</ele>
        <time>2011-06-26T10:26:50Z</time>
      </trkpt>
      <trkpt lat="45.48293" lon="6.88754">
        <ele>2610.12</ele>
        <time>2011-06-26T10:26:51Z</time>
      </trkpt>
      <trkpt lat="45.48296" lon="6.88745">
        <ele>2607.71</ele>
        <time>2011-06-26T10:26:56Z</time>
      </trkpt>
      <trkpt lat="45.48299" lon="6.88731">
        <ele>2603.87</ele>
        <time>2011-06-26T10:27:03Z</time>
      </trkpt>
      <trkpt lat="45.48301" lon="6.88723">
        <ele>2602.91</ele>
        <time>2011-06-26T10:27:07Z</time>
      </trkpt>
      <trkpt lat="45.48303" lon="6.88719">
        <ele>2600.5</ele>
        <time>2011-06-26T10:27:10Z</time>
      </trkpt>
      <trkpt lat="45.48306" lon="6.8871">
        <ele>2600.02</ele>
        <time>2011-06-26T10:27:15Z</time>
      </trkpt>
      <trkpt lat="45.48307" lon="6.88705">
        <ele>2598.58</ele>
        <time>2011-06-26T10:27:18Z</time>
      </trkpt>
      <trkpt lat="45.48308" lon="6.88696">
        <ele>2595.7</ele>
        <time>2011-06-26T10:27:22Z</time>
      </trkpt>
      <trkpt lat="45.48308" lon="6.88679">
        <ele>2592.33</ele>
        <time>2011-06-26T10:27:30Z</time>
      </trkpt>
      <trkpt lat="45.48307" lon="6.88677">
        <ele>2595.22</ele>
        <time>2011-06-26T10:27:31Z</time>
      </trkpt>
      <trkpt lat="45.48305" lon="6.88669">
        <ele>2590.41</ele>
        <time>2011-06-26T10:27:35Z</time>
      </trkpt>
      <trkpt lat="45.48301" lon="6.88659">
        <ele>2590.89</ele>
        <time>2011-06-26T10:27:40Z</time>
      </trkpt>
      <trkpt lat="45.48299" lon="6.88654">
        <ele>2588.01</ele>
        <time>2011-06-26T10:27:42Z</time>
      </trkpt>
      <trkpt lat="45.48298" lon="6.8865">
        <ele>2588.49</ele>
        <time>2011-06-26T10:27:44Z</time>
      </trkpt>
      <trkpt lat="45.48292" lon="6.88643">
        <ele>2588.97</ele>
        <time>2011-06-26T10:27:49Z</time>
      </trkpt>
      <trkpt lat="45.48288" lon="6.8864">
        <ele>2586.56</ele>
        <time>2011-06-26T10:27:52Z</time>
      </trkpt>
      <trkpt lat="45.48279" lon="6.88639">
        <ele>2585.6</ele>
        <time>2011-06-26T10:27:56Z</time>
      </trkpt>
      <trkpt lat="45.48271" lon="6.88635">
        <ele>2582.72</ele>
        <time>2011-06-26T10:28:01Z</time>
      </trkpt>
      <trkpt lat="45.4826" lon="6.88621">
        <ele>2580.32</ele>
        <time>2011-06-26T10:28:10Z</time>
      </trkpt>
      <trkpt lat="45.48255" lon="6.88615">
        <ele>2577.43</ele>
        <time>2011-06-26T10:28:14Z</time>
      </trkpt>
      <trkpt lat="45.48252" lon="6.88612">
        <ele>2577.43</ele>
        <time>2011-06-26T10:28:16Z</time>
      </trkpt>
      <trkpt lat="45.4824" lon="6.88592">
        <ele>2571.18</ele>
        <time>2011-06-26T10:28:27Z</time>
      </trkpt>
      <trkpt lat="45.48239" lon="6.88589">
        <ele>2574.55</ele>
        <time>2011-06-26T10:28:28Z</time>
      </trkpt>
      <trkpt lat="45.48236" lon="6.88583">
        <ele>2571.18</ele>
        <time>2011-06-26T10:28:31Z</time>
      </trkpt>
      <trkpt lat="45.48234" lon="6.88579">
        <ele>2572.63</ele>
        <time>2011-06-26T10:28:33Z</time>
      </trkpt>
      <trkpt lat="45.48228" lon="6.88549">
        <ele>2569.26</ele>
        <time>2011-06-26T10:28:44Z</time>
      </trkpt>
      <trkpt lat="45.48228" lon="6.88546">
        <ele>2568.78</ele>
        <time>2011-06-26T10:28:45Z</time>
      </trkpt>
      <trkpt lat="45.48229" lon="6.88509">
        <ele>2567.82</ele>
        <time>2011-06-26T10:28:58Z</time>
      </trkpt>
      <trkpt lat="45.48226" lon="6.88493">
        <ele>2565.9</ele>
        <time>2011-06-26T10:29:04Z</time>
      </trkpt>
      <trkpt lat="45.48225" lon="6.88491">
        <ele>2567.82</ele>
        <time>2011-06-26T10:29:05Z</time>
      </trkpt>
      <trkpt lat="45.48221" lon="6.88486">
        <ele>2565.9</ele>
        <time>2011-06-26T10:29:08Z</time>
      </trkpt>
      <trkpt lat="45.48216" lon="6.88483">
        <ele>2562.53</ele>
        <time>2011-06-26T10:29:13Z</time>
      </trkpt>
      <trkpt lat="45.48216" lon="6.88484">
        <ele>2565.9</ele>
        <time>2011-06-26T10:29:18Z</time>
      </trkpt>
      <trkpt lat="45.4821" lon="6.88491">
        <ele>2562.05</ele>
        <time>2011-06-26T10:29:25Z</time>
      </trkpt>
      <trkpt lat="45.48207" lon="6.88494">
        <ele>2563.01</ele>
        <time>2011-06-26T10:29:26Z</time>
      </trkpt>
      <trkpt lat="45.48202" lon="6.88501">
        <ele>2558.69</ele>
        <time>2011-06-26T10:29:29Z</time>
      </trkpt>
      <trkpt lat="45.482" lon="6.88505">
        <ele>2562.05</ele>
        <time>2011-06-26T10:29:31Z</time>
      </trkpt>
      <trkpt lat="45.48196" lon="6.8851">
        <ele>2558.69</ele>
        <time>2011-06-26T10:29:34Z</time>
      </trkpt>
      <trkpt lat="45.48195" lon="6.88512">
        <ele>2560.13</ele>
        <time>2011-06-26T10:29:35Z</time>
      </trkpt>
      <trkpt lat="45.48191" lon="6.88516">
        <ele>2557.73</ele>
        <time>2011-06-26T10:29:38Z</time>
      </trkpt>
      <trkpt lat="45.48188" lon="6.88518">
        <ele>2556.28</ele>
        <time>2011-06-26T10:29:40Z</time>
      </trkpt>
      <trkpt lat="45.48181" lon="6.88526">
        <ele>2552.44</ele>
        <time>2011-06-26T10:29:45Z</time>
      </trkpt>
      <trkpt lat="45.4818" lon="6.88528">
        <ele>2552.44</ele>
        <time>2011-06-26T10:29:46Z</time>
      </trkpt>
      <trkpt lat="45.48174" lon="6.88536">
        <ele>2549.07</ele>
        <time>2011-06-26T10:29:50Z</time>
      </trkpt>
      <trkpt lat="45.48173" lon="6.88538">
        <ele>2549.07</ele>
        <time>2011-06-26T10:29:51Z</time>
      </trkpt>
      <trkpt lat="45.48163" lon="6.88561">
        <ele>2546.19</ele>
        <time>2011-06-26T10:30:00Z</time>
      </trkpt>
      <trkpt lat="45.48162" lon="6.88563">
        <ele>2547.15</ele>
        <time>2011-06-26T10:30:01Z</time>
      </trkpt>
      <trkpt lat="45.48152" lon="6.88582">
        <ele>2543.79</ele>
        <time>2011-06-26T10:30:11Z</time>
      </trkpt>
      <trkpt lat="45.48149" lon="6.88586">
        <ele>2543.31</ele>
        <time>2011-06-26T10:30:14Z</time>
      </trkpt>
      <trkpt lat="45.48139" lon="6.88596">
        <ele>2539.46</ele>
        <time>2011-06-26T10:30:22Z</time>
      </trkpt>
      <trkpt lat="45.48138" lon="6.88597">
        <ele>2539.46</ele>
        <time>2011-06-26T10:30:23Z</time>
      </trkpt>
      <trkpt lat="45.48127" lon="6.88609">
        <ele>2535.61</ele>
        <time>2011-06-26T10:30:33Z</time>
      </trkpt>
      <trkpt lat="45.48126" lon="6.8861">
        <ele>2539.46</ele>
        <time>2011-06-26T10:30:34Z</time>
      </trkpt>
      <trkpt lat="45.48125" lon="6.88612">
        <ele>2537.54</ele>
        <time>2011-06-26T10:30:35Z</time>
      </trkpt>
      <trkpt lat="45.4812" lon="6.88618">
        <ele>2534.17</ele>
        <time>2011-06-26T10:30:39Z</time>
      </trkpt>
      <trkpt lat="45.48115" lon="6.88623">
        <ele>2532.73</ele>
        <time>2011-06-26T10:30:44Z</time>
      </trkpt>
      <trkpt lat="45.48109" lon="6.88628">
        <ele>2530.81</ele>
        <time>2011-06-26T10:30:49Z</time>
      </trkpt>
      <trkpt lat="45.48096" lon="6.88635">
        <ele>2528.4</ele>
        <time>2011-06-26T10:30:57Z</time>
      </trkpt>
      <trkpt lat="45.48085" lon="6.8864">
        <ele>2525.04</ele>
        <time>2011-06-26T10:31:05Z</time>
      </trkpt>
      <trkpt lat="45.48073" lon="6.88645">
        <ele>2518.31</ele>
        <time>2011-06-26T10:31:13Z</time>
      </trkpt>
      <trkpt lat="45.48072" lon="6.88645">
        <ele>2519.27</ele>
        <time>2011-06-26T10:31:14Z</time>
      </trkpt>
      <trkpt lat="45.48056" lon="6.88645">
        <ele>2515.43</ele>
        <time>2011-06-26T10:31:23Z</time>
      </trkpt>
      <trkpt lat="45.48039" lon="6.88639">
        <ele>2511.1</ele>
        <time>2011-06-26T10:31:31Z</time>
      </trkpt>
      <trkpt lat="45.48033" lon="6.88635">
        <ele>2514.95</ele>
        <time>2011-06-26T10:31:34Z</time>
      </trkpt>
      <trkpt lat="45.48032" lon="6.88633">
        <ele>2510.62</ele>
        <time>2011-06-26T10:31:35Z</time>
      </trkpt>
      <trkpt lat="45.48031" lon="6.88632">
        <ele>2512.06</ele>
        <time>2011-06-26T10:31:36Z</time>
      </trkpt>
      <trkpt lat="45.48016" lon="6.8863">
        <ele>2515.43</ele>
        <time>2011-06-26T10:31:47Z</time>
      </trkpt>
      <trkpt lat="45.48015" lon="6.8863">
        <ele>2512.06</ele>
        <time>2011-06-26T10:31:48Z</time>
      </trkpt>
      <trkpt lat="45.48014" lon="6.8863">
        <ele>2512.06</ele>
        <time>2011-06-26T10:31:49Z</time>
      </trkpt>
      <trkpt lat="45.48001" lon="6.88632">
        <ele>2514.47</ele>
        <time>2011-06-26T10:31:57Z</time>
      </trkpt>
      <trkpt lat="45.48" lon="6.88632">
        <ele>2510.62</ele>
        <time>2011-06-26T10:31:58Z</time>
      </trkpt>
      <trkpt lat="45.47998" lon="6.88633">
        <ele>2513.02</ele>
        <time>2011-06-26T10:31:59Z</time>
      </trkpt>
      <trkpt lat="45.4799" lon="6.88636">
        <ele>2518.31</ele>
        <time>2011-06-26T10:32:06Z</time>
      </trkpt>
      <trkpt lat="45.47989" lon="6.88637">
        <ele>2514.47</ele>
        <time>2011-06-26T10:32:07Z</time>
      </trkpt>
      <trkpt lat="45.47975" lon="6.88657">
        <ele>2513.5</ele>
        <time>2011-06-26T10:32:21Z</time>
      </trkpt>
      <trkpt lat="45.47973" lon="6.88663">
        <ele>2515.43</ele>
        <time>2011-06-26T10:32:24Z</time>
      </trkpt>
      <trkpt lat="45.4797" lon="6.88677">
        <ele>2510.14</ele>
        <time>2011-06-26T10:32:31Z</time>
      </trkpt>
      <trkpt lat="45.47969" lon="6.88679">
        <ele>2512.54</ele>
        <time>2011-06-26T10:32:32Z</time>
      </trkpt>
      <trkpt lat="45.47957" lon="6.88695">
        <ele>2512.06</ele>
        <time>2011-06-26T10:32:39Z</time>
      </trkpt>
      <trkpt lat="45.47943" lon="6.88708">
        <ele>2509.18</ele>
        <time>2011-06-26T10:32:46Z</time>
      </trkpt>
      <trkpt lat="45.47941" lon="6.88709">
        <ele>2512.06</ele>
        <time>2011-06-26T10:32:47Z</time>
      </trkpt>
      <trkpt lat="45.47939" lon="6.88713">
        <ele>2507.26</ele>
        <time>2011-06-26T10:32:49Z</time>
      </trkpt>
      <trkpt lat="45.47938" lon="6.88714">
        <ele>2510.62</ele>
        <time>2011-06-26T10:32:50Z</time>
      </trkpt>
      <trkpt lat="45.47934" lon="6.88719">
        <ele>2507.26</ele>
        <time>2011-06-26T10:32:53Z</time>
      </trkpt>
      <trkpt lat="45.47924" lon="6.88732">
        <ele>2507.74</ele>
        <time>2011-06-26T10:32:58Z</time>
      </trkpt>
      <trkpt lat="45.47909" lon="6.88747">
        <ele>2504.37</ele>
        <time>2011-06-26T10:33:06Z</time>
      </trkpt>
      <trkpt lat="45.47897" lon="6.88761">
        <ele>2499.08</ele>
        <time>2011-06-26T10:33:13Z</time>
      </trkpt>
      <trkpt lat="45.47895" lon="6.88764">
        <ele>2500.53</ele>
        <time>2011-06-26T10:33:14Z</time>
      </trkpt>
      <trkpt lat="45.47887" lon="6.88778">
        <ele>2497.16</ele>
        <time>2011-06-26T10:33:19Z</time>
      </trkpt>
      <trkpt lat="45.47885" lon="6.88781">
        <ele>2500.05</ele>
        <time>2011-06-26T10:33:20Z</time>
      </trkpt>
      <trkpt lat="45.47867" lon="6.88806">
        <ele>2498.12</ele>
        <time>2011-06-26T10:33:29Z</time>
      </trkpt>
      <trkpt lat="45.47855" lon="6.88819">
        <ele>2496.68</ele>
        <time>2011-06-26T10:33:35Z</time>
      </trkpt>
      <trkpt lat="45.47822" lon="6.88842">
        <ele>2498.12</ele>
        <time>2011-06-26T10:33:48Z</time>
      </trkpt>
      <trkpt lat="45.47816" lon="6.88843">
        <ele>2496.2</ele>
        <time>2011-06-26T10:33:50Z</time>
      </trkpt>
      <trkpt lat="45.47813" lon="6.88843">
        <ele>2499.57</ele>
        <time>2011-06-26T10:33:51Z</time>
      </trkpt>
      <trkpt lat="45.47808" lon="6.88844">
        <ele>2494.28</ele>
        <time>2011-06-26T10:33:53Z</time>
      </trkpt>
      <trkpt lat="45.47805" lon="6.88845">
        <ele>2496.2</ele>
        <time>2011-06-26T10:33:54Z</time>
      </trkpt>
      <trkpt lat="45.47794" lon="6.88849">
        <ele>2492.36</ele>
        <time>2011-06-26T10:33:59Z</time>
      </trkpt>
      <trkpt lat="45.4779" lon="6.88855">
        <ele>2491.87</ele>
        <time>2011-06-26T10:34:10Z</time>
      </trkpt>
      <trkpt lat="45.47787" lon="6.88863">
        <ele>2490.91</ele>
        <time>2011-06-26T10:34:19Z</time>
      </trkpt>
      <trkpt lat="45.47785" lon="6.88879">
        <ele>2487.07</ele>
        <time>2011-06-26T10:34:23Z</time>
      </trkpt>
      <trkpt lat="45.47785" lon="6.88898">
        <ele>2488.03</ele>
        <time>2011-06-26T10:34:28Z</time>
      </trkpt>
      <trkpt lat="45.47782" lon="6.88918">
        <ele>2485.15</ele>
        <time>2011-06-26T10:34:34Z</time>
      </trkpt>
      <trkpt lat="45.47764" lon="6.88941">
        <ele>2486.59</ele>
        <time>2011-06-26T10:34:43Z</time>
      </trkpt>
      <trkpt lat="45.47747" lon="6.88937">
        <ele>2481.78</ele>
        <time>2011-06-26T10:34:49Z</time>
      </trkpt>
      <trkpt lat="45.47723" lon="6.88929">
        <ele>2478.9</ele>
        <time>2011-06-26T10:34:58Z</time>
      </trkpt>
      <trkpt lat="45.4772" lon="6.88929">
        <ele>2480.82</ele>
        <time>2011-06-26T10:34:59Z</time>
      </trkpt>
      <trkpt lat="45.47706" lon="6.8893">
        <ele>2474.57</ele>
        <time>2011-06-26T10:35:05Z</time>
      </trkpt>
      <trkpt lat="45.47703" lon="6.8893">
        <ele>2478.9</ele>
        <time>2011-06-26T10:35:06Z</time>
      </trkpt>
      <trkpt lat="45.47694" lon="6.88931">
        <ele>2469.76</ele>
        <time>2011-06-26T10:35:10Z</time>
      </trkpt>
      <trkpt lat="45.47691" lon="6.88931">
        <ele>2474.09</ele>
        <time>2011-06-26T10:35:11Z</time>
      </trkpt>
      <trkpt lat="45.47687" lon="6.8893">
        <ele>2475.05</ele>
        <time>2011-06-26T10:35:13Z</time>
      </trkpt>
      <trkpt lat="45.47685" lon="6.8893">
        <ele>2471.69</ele>
        <time>2011-06-26T10:35:14Z</time>
      </trkpt>
      <trkpt lat="45.47683" lon="6.8893">
        <ele>2472.17</ele>
        <time>2011-06-26T10:35:15Z</time>
      </trkpt>
      <trkpt lat="45.47675" lon="6.88929">
        <ele>2468.8</ele>
        <time>2011-06-26T10:35:19Z</time>
      </trkpt>
      <trkpt lat="45.47666" lon="6.88927">
        <ele>2466.88</ele>
        <time>2011-06-26T10:35:24Z</time>
      </trkpt>
      <trkpt lat="45.47662" lon="6.88925">
        <ele>2462.07</ele>
        <time>2011-06-26T10:35:26Z</time>
      </trkpt>
      <trkpt lat="45.4766" lon="6.88924">
        <ele>2464</ele>
        <time>2011-06-26T10:35:27Z</time>
      </trkpt>
      <trkpt lat="45.47653" lon="6.88921">
        <ele>2462.55</ele>
        <time>2011-06-26T10:35:31Z</time>
      </trkpt>
      <trkpt lat="45.47641" lon="6.88916">
        <ele>2457.27</ele>
        <time>2011-06-26T10:35:37Z</time>
      </trkpt>
      <trkpt lat="45.4764" lon="6.88915">
        <ele>2458.23</ele>
        <time>2011-06-26T10:35:38Z</time>
      </trkpt>
      <trkpt lat="45.47638" lon="6.88914">
        <ele>2458.23</ele>
        <time>2011-06-26T10:35:39Z</time>
      </trkpt>
      <trkpt lat="45.47627" lon="6.88896">
        <ele>2453.42</ele>
        <time>2011-06-26T10:35:48Z</time>
      </trkpt>
      <trkpt lat="45.47626" lon="6.88893">
        <ele>2448.62</ele>
        <time>2011-06-26T10:35:49Z</time>
      </trkpt>
      <trkpt lat="45.47625" lon="6.88889">
        <ele>2455.82</ele>
        <time>2011-06-26T10:35:50Z</time>
      </trkpt>
      <trkpt lat="45.47624" lon="6.88885">
        <ele>2451.98</ele>
        <time>2011-06-26T10:35:51Z</time>
      </trkpt>
      <trkpt lat="45.47624" lon="6.88881">
        <ele>2451.5</ele>
        <time>2011-06-26T10:35:52Z</time>
      </trkpt>
      <trkpt lat="45.47619" lon="6.88872">
        <ele>2449.1</ele>
        <time>2011-06-26T10:35:56Z</time>
      </trkpt>
      <trkpt lat="45.47615" lon="6.88867">
        <ele>2445.73</ele>
        <time>2011-06-26T10:35:59Z</time>
      </trkpt>
      <trkpt lat="45.47609" lon="6.88859">
        <ele>2446.21</ele>
        <time>2011-06-26T10:36:04Z</time>
      </trkpt>
      <trkpt lat="45.47592" lon="6.88832">
        <ele>2441.41</ele>
        <time>2011-06-26T10:36:15Z</time>
      </trkpt>
      <trkpt lat="45.4759" lon="6.88828">
        <ele>2439.48</ele>
        <time>2011-06-26T10:36:17Z</time>
      </trkpt>
      <trkpt lat="45.47582" lon="6.88817">
        <ele>2435.16</ele>
        <time>2011-06-26T10:36:23Z</time>
      </trkpt>
      <trkpt lat="45.4758" lon="6.88814">
        <ele>2436.12</ele>
        <time>2011-06-26T10:36:24Z</time>
      </trkpt>
      <trkpt lat="45.47577" lon="6.88811">
        <ele>2436.6</ele>
        <time>2011-06-26T10:36:26Z</time>
      </trkpt>
      <trkpt lat="45.47576" lon="6.88809">
        <ele>2433.71</ele>
        <time>2011-06-26T10:36:27Z</time>
      </trkpt>
      <trkpt lat="45.47575" lon="6.88807">
        <ele>2437.56</ele>
        <time>2011-06-26T10:36:28Z</time>
      </trkpt>
      <trkpt lat="45.47571" lon="6.88803">
        <ele>2432.27</ele>
        <time>2011-06-26T10:36:31Z</time>
      </trkpt>
      <trkpt lat="45.4757" lon="6.88802">
        <ele>2433.23</ele>
        <time>2011-06-26T10:36:32Z</time>
      </trkpt>
      <trkpt lat="45.47569" lon="6.888">
        <ele>2432.75</ele>
        <time>2011-06-26T10:36:34Z</time>
      </trkpt>
      <trkpt lat="45.47565" lon="6.88798">
        <ele>2432.27</ele>
        <time>2011-06-26T10:36:37Z</time>
      </trkpt>
      <trkpt lat="45.47555" lon="6.88794">
        <ele>2429.39</ele>
        <time>2011-06-26T10:36:44Z</time>
      </trkpt>
      <trkpt lat="45.47547" lon="6.88785">
        <ele>2425.54</ele>
        <time>2011-06-26T10:36:49Z</time>
      </trkpt>
      <trkpt lat="45.47543" lon="6.88782">
        <ele>2428.43</ele>
        <time>2011-06-26T10:36:51Z</time>
      </trkpt>
      <trkpt lat="45.47535" lon="6.88777">
        <ele>2425.06</ele>
        <time>2011-06-26T10:36:55Z</time>
      </trkpt>
      <trkpt lat="45.4752" lon="6.88768">
        <ele>2428.43</ele>
        <time>2011-06-26T10:37:03Z</time>
      </trkpt>
      <trkpt lat="45.47518" lon="6.88767">
        <ele>2425.06</ele>
        <time>2011-06-26T10:37:04Z</time>
      </trkpt>
      <trkpt lat="45.47517" lon="6.88767">
        <ele>2428.91</ele>
        <time>2011-06-26T10:37:05Z</time>
      </trkpt>
      <trkpt lat="45.47511" lon="6.88763">
        <ele>2425.06</ele>
        <time>2011-06-26T10:37:08Z</time>
      </trkpt>
      <trkpt lat="45.47509" lon="6.88761">
        <ele>2428.43</ele>
        <time>2011-06-26T10:37:09Z</time>
      </trkpt>
      <trkpt lat="45.47504" lon="6.88758">
        <ele>2425.06</ele>
        <time>2011-06-26T10:37:11Z</time>
      </trkpt>
      <trkpt lat="45.47502" lon="6.88756">
        <ele>2425.06</ele>
        <time>2011-06-26T10:37:12Z</time>
      </trkpt>
      <trkpt lat="45.47497" lon="6.88755">
        <ele>2426.5</ele>
        <time>2011-06-26T10:37:14Z</time>
      </trkpt>
      <trkpt lat="45.47494" lon="6.88755">
        <ele>2430.83</ele>
        <time>2011-06-26T10:37:15Z</time>
      </trkpt>
      <trkpt lat="45.47491" lon="6.88755">
        <ele>2425.06</ele>
        <time>2011-06-26T10:37:16Z</time>
      </trkpt>
      <trkpt lat="45.47482" lon="6.88758">
        <ele>2429.39</ele>
        <time>2011-06-26T10:37:20Z</time>
      </trkpt>
      <trkpt lat="45.4748" lon="6.88759">
        <ele>2424.58</ele>
        <time>2011-06-26T10:37:21Z</time>
      </trkpt>
      <trkpt lat="45.47474" lon="6.88761">
        <ele>2426.02</ele>
        <time>2011-06-26T10:37:24Z</time>
      </trkpt>
      <trkpt lat="45.47467" lon="6.88762">
        <ele>2424.58</ele>
        <time>2011-06-26T10:37:27Z</time>
      </trkpt>
      <trkpt lat="45.47457" lon="6.88765">
        <ele>2421.22</ele>
        <time>2011-06-26T10:37:31Z</time>
      </trkpt>
      <trkpt lat="45.47454" lon="6.88765">
        <ele>2421.22</ele>
        <time>2011-06-26T10:37:32Z</time>
      </trkpt>
      <trkpt lat="45.47443" lon="6.88767">
        <ele>2417.85</ele>
        <time>2011-06-26T10:37:37Z</time>
      </trkpt>
      <trkpt lat="45.47426" lon="6.88769">
        <ele>2414.97</ele>
        <time>2011-06-26T10:37:44Z</time>
      </trkpt>
      <trkpt lat="45.47416" lon="6.88775">
        <ele>2417.85</ele>
        <time>2011-06-26T10:37:49Z</time>
      </trkpt>
      <trkpt lat="45.47414" lon="6.88777">
        <ele>2414.49</ele>
        <time>2011-06-26T10:37:50Z</time>
      </trkpt>
      <trkpt lat="45.47413" lon="6.88779">
        <ele>2415.45</ele>
        <time>2011-06-26T10:37:51Z</time>
      </trkpt>
      <trkpt lat="45.47403" lon="6.8879">
        <ele>2420.74</ele>
        <time>2011-06-26T10:37:57Z</time>
      </trkpt>
      <trkpt lat="45.47401" lon="6.88792">
        <ele>2415.45</ele>
        <time>2011-06-26T10:37:58Z</time>
      </trkpt>
      <trkpt lat="45.4739" lon="6.88799">
        <ele>2413.53</ele>
        <time>2011-06-26T10:38:04Z</time>
      </trkpt>
      <trkpt lat="45.47387" lon="6.88802">
        <ele>2411.12</ele>
        <time>2011-06-26T10:38:06Z</time>
      </trkpt>
      <trkpt lat="45.47368" lon="6.88817">
        <ele>2407.28</ele>
        <time>2011-06-26T10:38:15Z</time>
      </trkpt>
      <trkpt lat="45.47363" lon="6.88819">
        <ele>2412.09</ele>
        <time>2011-06-26T10:38:17Z</time>
      </trkpt>
      <trkpt lat="45.47361" lon="6.8882">
        <ele>2404.88</ele>
        <time>2011-06-26T10:38:18Z</time>
      </trkpt>
      <trkpt lat="45.47359" lon="6.88821">
        <ele>2406.8</ele>
        <time>2011-06-26T10:38:19Z</time>
      </trkpt>
      <trkpt lat="45.47345" lon="6.88837">
        <ele>2410.16</ele>
        <time>2011-06-26T10:38:26Z</time>
      </trkpt>
      <trkpt lat="45.47338" lon="6.88846">
        <ele>2407.28</ele>
        <time>2011-06-26T10:38:30Z</time>
      </trkpt>
      <trkpt lat="45.47321" lon="6.8887">
        <ele>2402.47</ele>
        <time>2011-06-26T10:38:40Z</time>
      </trkpt>
      <trkpt lat="45.47316" lon="6.88878">
        <ele>2406.32</ele>
        <time>2011-06-26T10:38:43Z</time>
      </trkpt>
      <trkpt lat="45.47309" lon="6.88891">
        <ele>2401.99</ele>
        <time>2011-06-26T10:38:48Z</time>
      </trkpt>
      <trkpt lat="45.47307" lon="6.88893">
        <ele>2403.91</ele>
        <time>2011-06-26T10:38:49Z</time>
      </trkpt>
      <trkpt lat="45.47305" lon="6.88896">
        <ele>2399.59</ele>
        <time>2011-06-26T10:38:50Z</time>
      </trkpt>
      <trkpt lat="45.47302" lon="6.88901">
        <ele>2404.88</ele>
        <time>2011-06-26T10:38:52Z</time>
      </trkpt>
      <trkpt lat="45.47301" lon="6.88903">
        <ele>2397.67</ele>
        <time>2011-06-26T10:38:53Z</time>
      </trkpt>
      <trkpt lat="45.47299" lon="6.88906">
        <ele>2406.32</ele>
        <time>2011-06-26T10:38:54Z</time>
      </trkpt>
      <trkpt lat="45.47297" lon="6.88913">
        <ele>2403.91</ele>
        <time>2011-06-26T10:38:56Z</time>
      </trkpt>
      <trkpt lat="45.4729" lon="6.88925">
        <ele>2401.51</ele>
        <time>2011-06-26T10:39:01Z</time>
      </trkpt>
      <trkpt lat="45.47285" lon="6.88927">
        <ele>2400.55</ele>
        <time>2011-06-26T10:39:03Z</time>
      </trkpt>
      <trkpt lat="45.47279" lon="6.88928">
        <ele>2404.88</ele>
        <time>2011-06-26T10:39:05Z</time>
      </trkpt>
      <trkpt lat="45.47277" lon="6.88928">
        <ele>2401.03</ele>
        <time>2011-06-26T10:39:06Z</time>
      </trkpt>
      <trkpt lat="45.47264" lon="6.88932">
        <ele>2398.15</ele>
        <time>2011-06-26T10:39:11Z</time>
      </trkpt>
      <trkpt lat="45.47253" lon="6.88935">
        <ele>2401.51</ele>
        <time>2011-06-26T10:39:15Z</time>
      </trkpt>
      <trkpt lat="45.4725" lon="6.88936">
        <ele>2397.18</ele>
        <time>2011-06-26T10:39:16Z</time>
      </trkpt>
      <trkpt lat="45.47247" lon="6.88936">
        <ele>2401.03</ele>
        <time>2011-06-26T10:39:17Z</time>
      </trkpt>
      <trkpt lat="45.47236" lon="6.88939">
        <ele>2395.74</ele>
        <time>2011-06-26T10:39:21Z</time>
      </trkpt>
      <trkpt lat="45.47233" lon="6.88939">
        <ele>2400.55</ele>
        <time>2011-06-26T10:39:22Z</time>
      </trkpt>
      <trkpt lat="45.47227" lon="6.88939">
        <ele>2397.18</ele>
        <time>2011-06-26T10:39:24Z</time>
      </trkpt>
      <trkpt lat="45.47225" lon="6.88939">
        <ele>2400.55</ele>
        <time>2011-06-26T10:39:25Z</time>
      </trkpt>
      <trkpt lat="45.47222" lon="6.88939">
        <ele>2397.18</ele>
        <time>2011-06-26T10:39:26Z</time>
      </trkpt>
      <trkpt lat="45.47198" lon="6.88936">
        <ele>2393.34</ele>
        <time>2011-06-26T10:39:35Z</time>
      </trkpt>
      <trkpt lat="45.47195" lon="6.88936">
        <ele>2394.78</ele>
        <time>2011-06-26T10:39:36Z</time>
      </trkpt>
      <trkpt lat="45.47193" lon="6.88935">
        <ele>2397.67</ele>
        <time>2011-06-26T10:39:37Z</time>
      </trkpt>
      <trkpt lat="45.47191" lon="6.88935">
        <ele>2396.22</ele>
        <time>2011-06-26T10:39:38Z</time>
      </trkpt>
      <trkpt lat="45.47186" lon="6.88936">
        <ele>2394.3</ele>
        <time>2011-06-26T10:39:40Z</time>
      </trkpt>
      <trkpt lat="45.47181" lon="6.88936">
        <ele>2390.46</ele>
        <time>2011-06-26T10:39:42Z</time>
      </trkpt>
      <trkpt lat="45.47174" lon="6.88938">
        <ele>2394.3</ele>
        <time>2011-06-26T10:39:45Z</time>
      </trkpt>
      <trkpt lat="45.47171" lon="6.88938">
        <ele>2390.46</ele>
        <time>2011-06-26T10:39:46Z</time>
      </trkpt>
      <trkpt lat="45.47164" lon="6.88938">
        <ele>2388.53</ele>
        <time>2011-06-26T10:39:49Z</time>
      </trkpt>
      <trkpt lat="45.4715" lon="6.88941">
        <ele>2385.65</ele>
        <time>2011-06-26T10:39:55Z</time>
      </trkpt>
      <trkpt lat="45.47118" lon="6.88949">
        <ele>2385.65</ele>
        <time>2011-06-26T10:40:06Z</time>
      </trkpt>
      <trkpt lat="45.47115" lon="6.88949">
        <ele>2389.97</ele>
        <time>2011-06-26T10:40:07Z</time>
      </trkpt>
      <trkpt lat="45.47113" lon="6.8895">
        <ele>2385.17</ele>
        <time>2011-06-26T10:40:08Z</time>
      </trkpt>
      <trkpt lat="45.47085" lon="6.88961">
        <ele>2384.21</ele>
        <time>2011-06-26T10:40:18Z</time>
      </trkpt>
      <trkpt lat="45.4708" lon="6.88963">
        <ele>2388.05</ele>
        <time>2011-06-26T10:40:20Z</time>
      </trkpt>
      <trkpt lat="45.47077" lon="6.88964">
        <ele>2384.69</ele>
        <time>2011-06-26T10:40:21Z</time>
      </trkpt>
      <trkpt lat="45.47065" lon="6.88971">
        <ele>2384.21</ele>
        <time>2011-06-26T10:40:26Z</time>
      </trkpt>
      <trkpt lat="45.47053" lon="6.88975">
        <ele>2383.25</ele>
        <time>2011-06-26T10:40:31Z</time>
      </trkpt>
      <trkpt lat="45.47043" lon="6.88978">
        <ele>2389.01</ele>
        <time>2011-06-26T10:40:35Z</time>
      </trkpt>
      <trkpt lat="45.47041" lon="6.88978">
        <ele>2383.73</ele>
        <time>2011-06-26T10:40:36Z</time>
      </trkpt>
      <trkpt lat="45.47031" lon="6.88979">
        <ele>2381.8</ele>
        <time>2011-06-26T10:40:40Z</time>
      </trkpt>
      <trkpt lat="45.4702" lon="6.88979">
        <ele>2376.04</ele>
        <time>2011-06-26T10:40:44Z</time>
      </trkpt>
      <trkpt lat="45.47017" lon="6.88979">
        <ele>2379.88</ele>
        <time>2011-06-26T10:40:45Z</time>
      </trkpt>
      <trkpt lat="45.47009" lon="6.8898">
        <ele>2380.36</ele>
        <time>2011-06-26T10:40:48Z</time>
      </trkpt>
      <trkpt lat="45.47002" lon="6.88981">
        <ele>2376.52</ele>
        <time>2011-06-26T10:40:51Z</time>
      </trkpt>
      <trkpt lat="45.46996" lon="6.88982">
        <ele>2380.36</ele>
        <time>2011-06-26T10:40:53Z</time>
      </trkpt>
      <trkpt lat="45.46989" lon="6.88985">
        <ele>2375.07</ele>
        <time>2011-06-26T10:40:56Z</time>
      </trkpt>
      <trkpt lat="45.46986" lon="6.88986">
        <ele>2371.23</ele>
        <time>2011-06-26T10:40:57Z</time>
      </trkpt>
      <trkpt lat="45.46984" lon="6.88986">
        <ele>2377</ele>
        <time>2011-06-26T10:40:58Z</time>
      </trkpt>
      <trkpt lat="45.46982" lon="6.88986">
        <ele>2377</ele>
        <time>2011-06-26T10:40:59Z</time>
      </trkpt>
      <trkpt lat="45.4698" lon="6.88986">
        <ele>2373.15</ele>
        <time>2011-06-26T10:41:00Z</time>
      </trkpt>
      <trkpt lat="45.46959" lon="6.88973">
        <ele>2373.15</ele>
        <time>2011-06-26T10:41:10Z</time>
      </trkpt>
      <trkpt lat="45.46936" lon="6.88949">
        <ele>2375.07</ele>
        <time>2011-06-26T10:41:22Z</time>
      </trkpt>
      <trkpt lat="45.46934" lon="6.88946">
        <ele>2371.23</ele>
        <time>2011-06-26T10:41:23Z</time>
      </trkpt>
      <trkpt lat="45.46933" lon="6.88944">
        <ele>2374.59</ele>
        <time>2011-06-26T10:41:24Z</time>
      </trkpt>
      <trkpt lat="45.46931" lon="6.88941">
        <ele>2370.75</ele>
        <time>2011-06-26T10:41:25Z</time>
      </trkpt>
      <trkpt lat="45.46929" lon="6.88939">
        <ele>2377.48</ele>
        <time>2011-06-26T10:41:26Z</time>
      </trkpt>
      <trkpt lat="45.46928" lon="6.88936">
        <ele>2372.19</ele>
        <time>2011-06-26T10:41:27Z</time>
      </trkpt>
      <trkpt lat="45.46925" lon="6.88931">
        <ele>2375.07</ele>
        <time>2011-06-26T10:41:29Z</time>
      </trkpt>
      <trkpt lat="45.46923" lon="6.88929">
        <ele>2370.75</ele>
        <time>2011-06-26T10:41:30Z</time>
      </trkpt>
      <trkpt lat="45.46921" lon="6.88927">
        <ele>2375.55</ele>
        <time>2011-06-26T10:41:31Z</time>
      </trkpt>
      <trkpt lat="45.46918" lon="6.88921">
        <ele>2371.71</ele>
        <time>2011-06-26T10:41:33Z</time>
      </trkpt>
      <trkpt lat="45.46917" lon="6.88919">
        <ele>2376.52</ele>
        <time>2011-06-26T10:41:34Z</time>
      </trkpt>
      <trkpt lat="45.46912" lon="6.88911">
        <ele>2374.11</ele>
        <time>2011-06-26T10:41:37Z</time>
      </trkpt>
      <trkpt lat="45.46909" lon="6.88906">
        <ele>2371.23</ele>
        <time>2011-06-26T10:41:39Z</time>
      </trkpt>
      <trkpt lat="45.46908" lon="6.88903">
        <ele>2375.55</ele>
        <time>2011-06-26T10:41:40Z</time>
      </trkpt>
      <trkpt lat="45.46906" lon="6.88901">
        <ele>2372.19</ele>
        <time>2011-06-26T10:41:41Z</time>
      </trkpt>
      <trkpt lat="45.46881" lon="6.88871">
        <ele>2372.67</ele>
        <time>2011-06-26T10:41:55Z</time>
      </trkpt>
      <trkpt lat="45.46866" lon="6.88865">
        <ele>2374.11</ele>
        <time>2011-06-26T10:42:01Z</time>
      </trkpt>
      <trkpt lat="45.46859" lon="6.8886">
        <ele>2371.23</ele>
        <time>2011-06-26T10:42:04Z</time>
      </trkpt>
      <trkpt lat="45.46857" lon="6.88859">
        <ele>2375.07</ele>
        <time>2011-06-26T10:42:05Z</time>
      </trkpt>
      <trkpt lat="45.46844" lon="6.88853">
        <ele>2370.75</ele>
        <time>2011-06-26T10:42:10Z</time>
      </trkpt>
      <trkpt lat="45.46842" lon="6.88852">
        <ele>2370.75</ele>
        <time>2011-06-26T10:42:11Z</time>
      </trkpt>
      <trkpt lat="45.46832" lon="6.88849">
        <ele>2374.11</ele>
        <time>2011-06-26T10:42:15Z</time>
      </trkpt>
      <trkpt lat="45.4683" lon="6.88847">
        <ele>2371.23</ele>
        <time>2011-06-26T10:42:16Z</time>
      </trkpt>
      <trkpt lat="45.46827" lon="6.88846">
        <ele>2371.23</ele>
        <time>2011-06-26T10:42:17Z</time>
      </trkpt>
      <trkpt lat="45.4682" lon="6.88843">
        <ele>2372.67</ele>
        <time>2011-06-26T10:42:20Z</time>
      </trkpt>
      <trkpt lat="45.46814" lon="6.88841">
        <ele>2370.75</ele>
        <time>2011-06-26T10:42:22Z</time>
      </trkpt>
      <trkpt lat="45.46797" lon="6.88838">
        <ele>2374.59</ele>
        <time>2011-06-26T10:42:28Z</time>
      </trkpt>
      <trkpt lat="45.46792" lon="6.88839">
        <ele>2371.23</ele>
        <time>2011-06-26T10:42:30Z</time>
      </trkpt>
      <trkpt lat="45.46789" lon="6.88839">
        <ele>2371.71</ele>
        <time>2011-06-26T10:42:31Z</time>
      </trkpt>
      <trkpt lat="45.46765" lon="6.88841">
        <ele>2374.59</ele>
        <time>2011-06-26T10:42:40Z</time>
      </trkpt>
      <trkpt lat="45.46762" lon="6.88841">
        <ele>2371.71</ele>
        <time>2011-06-26T10:42:41Z</time>
      </trkpt>
      <trkpt lat="45.46759" lon="6.88841">
        <ele>2372.19</ele>
        <time>2011-06-26T10:42:42Z</time>
      </trkpt>
      <trkpt lat="45.46752" lon="6.88843">
        <ele>2371.71</ele>
        <time>2011-06-26T10:42:45Z</time>
      </trkpt>
      <trkpt lat="45.46748" lon="6.88848">
        <ele>2370.75</ele>
        <time>2011-06-26T10:42:47Z</time>
      </trkpt>
      <trkpt lat="45.46746" lon="6.8885">
        <ele>2372.19</ele>
        <time>2011-06-26T10:42:48Z</time>
      </trkpt>
      <trkpt lat="45.46736" lon="6.88853">
        <ele>2370.27</ele>
        <time>2011-06-26T10:42:52Z</time>
      </trkpt>
      <trkpt lat="45.46732" lon="6.88849">
        <ele>2370.75</ele>
        <time>2011-06-26T10:42:54Z</time>
      </trkpt>
      <trkpt lat="45.46729" lon="6.88846">
        <ele>2375.07</ele>
        <time>2011-06-26T10:42:55Z</time>
      </trkpt>
      <trkpt lat="45.46727" lon="6.88844">
        <ele>2371.23</ele>
        <time>2011-06-26T10:42:56Z</time>
      </trkpt>
      <trkpt lat="45.46724" lon="6.88838">
        <ele>2377</ele>
        <time>2011-06-26T10:42:58Z</time>
      </trkpt>
      <trkpt lat="45.46723" lon="6.88836">
        <ele>2370.27</ele>
        <time>2011-06-26T10:42:59Z</time>
      </trkpt>
      <trkpt lat="45.46722" lon="6.88835">
        <ele>2369.31</ele>
        <time>2011-06-26T10:43:06Z</time>
      </trkpt>
      <trkpt lat="45.46722" lon="6.88836">
        <ele>2365.94</ele>
        <time>2011-06-26T10:43:08Z</time>
      </trkpt>
      <trkpt lat="45.46722" lon="6.88836">
        <ele>2369.79</ele>
        <time>2011-06-26T10:43:09Z</time>
      </trkpt>
      <trkpt lat="45.46722" lon="6.88836">
        <ele>2373.15</ele>
        <time>2011-06-26T10:43:10Z</time>
      </trkpt>
      <trkpt lat="45.46722" lon="6.88836">
        <ele>2371.71</ele>
        <time>2011-06-26T10:43:11Z</time>
      </trkpt>
      <trkpt lat="45.46722" lon="6.88836">
        <ele>2369.31</ele>
        <time>2011-06-26T10:43:13Z</time>
      </trkpt>
      <trkpt lat="45.46722" lon="6.88835">
        <ele>2374.11</ele>
        <time>2011-06-26T10:43:25Z</time>
      </trkpt>
      <trkpt lat="45.46722" lon="6.88835">
        <ele>2370.75</ele>
        <time>2011-06-26T10:43:26Z</time>
      </trkpt>
      <trkpt lat="45.4672" lon="6.88832">
        <ele>2366.9</ele>
        <time>2011-06-26T10:43:28Z</time>
      </trkpt>
      <trkpt lat="45.46719" lon="6.88831">
        <ele>2367.86</ele>
        <time>2011-06-26T10:43:29Z</time>
      </trkpt>
      <trkpt lat="45.46717" lon="6.88828">
        <ele>2369.31</ele>
        <time>2011-06-26T10:43:31Z</time>
      </trkpt>
      <trkpt lat="45.46715" lon="6.88826">
        <ele>2366.9</ele>
        <time>2011-06-26T10:43:33Z</time>
      </trkpt>
      <trkpt lat="45.46715" lon="6.88825">
        <ele>2369.79</ele>
        <time>2011-06-26T10:43:38Z</time>
      </trkpt>
      <trkpt lat="45.46714" lon="6.88824">
        <ele>2370.75</ele>
        <time>2011-06-26T10:43:40Z</time>
      </trkpt>
      <trkpt lat="45.46706" lon="6.88818">
        <ele>2372.19</ele>
        <time>2011-06-26T10:43:44Z</time>
      </trkpt>
      <trkpt lat="45.46694" lon="6.8881">
        <ele>2370.27</ele>
        <time>2011-06-26T10:43:49Z</time>
      </trkpt>
      <trkpt lat="45.46691" lon="6.88808">
        <ele>2366.9</ele>
        <time>2011-06-26T10:43:51Z</time>
      </trkpt>
      <trkpt lat="45.46689" lon="6.88808">
        <ele>2371.71</ele>
        <time>2011-06-26T10:43:52Z</time>
      </trkpt>
      <trkpt lat="45.46688" lon="6.88808">
        <ele>2371.71</ele>
        <time>2011-06-26T10:43:53Z</time>
      </trkpt>
      <trkpt lat="45.46669" lon="6.88808">
        <ele>2370.27</ele>
        <time>2011-06-26T10:44:01Z</time>
      </trkpt>
      <trkpt lat="45.46666" lon="6.88804">
        <ele>2373.15</ele>
        <time>2011-06-26T10:44:04Z</time>
      </trkpt>
      <trkpt lat="45.46666" lon="6.88803">
        <ele>2371.71</ele>
        <time>2011-06-26T10:44:05Z</time>
      </trkpt>
      <trkpt lat="45.46666" lon="6.888">
        <ele>2374.11</ele>
        <time>2011-06-26T10:44:07Z</time>
      </trkpt>
      <trkpt lat="45.46665" lon="6.88798">
        <ele>2373.15</ele>
        <time>2011-06-26T10:44:10Z</time>
      </trkpt>
      <trkpt lat="45.46663" lon="6.88799">
        <ele>2374.11</ele>
        <time>2011-06-26T10:44:12Z</time>
      </trkpt>
      <trkpt lat="45.46658" lon="6.88802">
        <ele>2377.96</ele>
        <time>2011-06-26T10:44:16Z</time>
      </trkpt>
      <trkpt lat="45.46656" lon="6.88805">
        <ele>2382.28</ele>
        <time>2011-06-26T10:44:19Z</time>
      </trkpt>
      <trkpt lat="45.46655" lon="6.88805">
        <ele>2377.48</ele>
        <time>2011-06-26T10:44:20Z</time>
      </trkpt>
      <trkpt lat="45.46653" lon="6.88806">
        <ele>2377.96</ele>
        <time>2011-06-26T10:44:22Z</time>
      </trkpt>
      <trkpt lat="45.46649" lon="6.8881">
        <ele>2381.8</ele>
        <time>2011-06-26T10:44:28Z</time>
      </trkpt>
      <trkpt lat="45.46645" lon="6.88809">
        <ele>2377.48</ele>
        <time>2011-06-26T10:44:33Z</time>
      </trkpt>
      <trkpt lat="45.46645" lon="6.88809">
        <ele>2381.32</ele>
        <time>2011-06-26T10:44:34Z</time>
      </trkpt>
      <trkpt lat="45.46642" lon="6.88811">
        <ele>2386.13</ele>
        <time>2011-06-26T10:44:41Z</time>
      </trkpt>
      <trkpt lat="45.46641" lon="6.88812">
        <ele>2381.32</ele>
        <time>2011-06-26T10:44:42Z</time>
      </trkpt>
      <trkpt lat="45.4664" lon="6.88812">
        <ele>2385.65</ele>
        <time>2011-06-26T10:44:44Z</time>
      </trkpt>
      <trkpt lat="45.4664" lon="6.88813">
        <ele>2385.65</ele>
        <time>2011-06-26T10:44:45Z</time>
      </trkpt>
      <trkpt lat="45.46637" lon="6.88815">
        <ele>2389.01</ele>
        <time>2011-06-26T10:44:50Z</time>
      </trkpt>
      <trkpt lat="45.46636" lon="6.88815">
        <ele>2384.69</ele>
        <time>2011-06-26T10:44:51Z</time>
      </trkpt>
      <trkpt lat="45.46633" lon="6.88817">
        <ele>2388.05</ele>
        <time>2011-06-26T10:44:57Z</time>
      </trkpt>
      <trkpt lat="45.46632" lon="6.88817">
        <ele>2388.05</ele>
        <time>2011-06-26T10:44:58Z</time>
      </trkpt>
      <trkpt lat="45.46631" lon="6.88818">
        <ele>2385.17</ele>
        <time>2011-06-26T10:45:00Z</time>
      </trkpt>
      <trkpt lat="45.4663" lon="6.88819">
        <ele>2389.49</ele>
        <time>2011-06-26T10:45:01Z</time>
      </trkpt>
      <trkpt lat="45.46622" lon="6.88825">
        <ele>2390.46</ele>
        <time>2011-06-26T10:45:12Z</time>
      </trkpt>
      <trkpt lat="45.46618" lon="6.88827">
        <ele>2391.42</ele>
        <time>2011-06-26T10:45:19Z</time>
      </trkpt>
      <trkpt lat="45.46611" lon="6.88833">
        <ele>2394.3</ele>
        <time>2011-06-26T10:45:29Z</time>
      </trkpt>
      <trkpt lat="45.46609" lon="6.88834">
        <ele>2396.7</ele>
        <time>2011-06-26T10:45:31Z</time>
      </trkpt>
      <trkpt lat="45.46608" lon="6.88837">
        <ele>2397.18</ele>
        <time>2011-06-26T10:45:34Z</time>
      </trkpt>
      <trkpt lat="45.46603" lon="6.88844">
        <ele>2397.18</ele>
        <time>2011-06-26T10:45:41Z</time>
      </trkpt>
      <trkpt lat="45.466" lon="6.88845">
        <ele>2399.59</ele>
        <time>2011-06-26T10:45:45Z</time>
      </trkpt>
      <trkpt lat="45.46599" lon="6.88845">
        <ele>2398.15</ele>
        <time>2011-06-26T10:45:46Z</time>
      </trkpt>
      <trkpt lat="45.46588" lon="6.88849">
        <ele>2404.88</ele>
        <time>2011-06-26T10:45:55Z</time>
      </trkpt>
      <trkpt lat="45.46587" lon="6.88849">
        <ele>2400.55</ele>
        <time>2011-06-26T10:45:56Z</time>
      </trkpt>
      <trkpt lat="45.46586" lon="6.88849">
        <ele>2401.99</ele>
        <time>2011-06-26T10:45:57Z</time>
      </trkpt>
      <trkpt lat="45.46583" lon="6.88849">
        <ele>2403.43</ele>
        <time>2011-06-26T10:45:59Z</time>
      </trkpt>
      <trkpt lat="45.46582" lon="6.8885">
        <ele>2403.43</ele>
        <time>2011-06-26T10:46:00Z</time>
      </trkpt>
      <trkpt lat="45.46581" lon="6.8885">
        <ele>2399.11</ele>
        <time>2011-06-26T10:46:01Z</time>
      </trkpt>
      <trkpt lat="45.46579" lon="6.88851">
        <ele>2401.03</ele>
        <time>2011-06-26T10:46:02Z</time>
      </trkpt>
      <trkpt lat="45.46575" lon="6.88854">
        <ele>2397.18</ele>
        <time>2011-06-26T10:46:05Z</time>
      </trkpt>
      <trkpt lat="45.46571" lon="6.88856">
        <ele>2400.55</ele>
        <time>2011-06-26T10:46:07Z</time>
      </trkpt>
      <trkpt lat="45.46569" lon="6.88858">
        <ele>2404.88</ele>
        <time>2011-06-26T10:46:08Z</time>
      </trkpt>
      <trkpt lat="45.46567" lon="6.88859">
        <ele>2398.15</ele>
        <time>2011-06-26T10:46:09Z</time>
      </trkpt>
      <trkpt lat="45.46562" lon="6.88862">
        <ele>2401.99</ele>
        <time>2011-06-26T10:46:11Z</time>
      </trkpt>
      <trkpt lat="45.46559" lon="6.88863">
        <ele>2397.67</ele>
        <time>2011-06-26T10:46:12Z</time>
      </trkpt>
      <trkpt lat="45.46552" lon="6.88866">
        <ele>2399.59</ele>
        <time>2011-06-26T10:46:15Z</time>
      </trkpt>
      <trkpt lat="45.4654" lon="6.88872">
        <ele>2393.82</ele>
        <time>2011-06-26T10:46:20Z</time>
      </trkpt>
      <trkpt lat="45.46537" lon="6.88872">
        <ele>2393.82</ele>
        <time>2011-06-26T10:46:21Z</time>
      </trkpt>
      <trkpt lat="45.4651" lon="6.88881">
        <ele>2390.46</ele>
        <time>2011-06-26T10:46:30Z</time>
      </trkpt>
      <trkpt lat="45.465" lon="6.88884">
        <ele>2393.34</ele>
        <time>2011-06-26T10:46:33Z</time>
      </trkpt>
      <trkpt lat="45.4649" lon="6.88887">
        <ele>2389.49</ele>
        <time>2011-06-26T10:46:37Z</time>
      </trkpt>
      <trkpt lat="45.46488" lon="6.88887">
        <ele>2393.82</ele>
        <time>2011-06-26T10:46:38Z</time>
      </trkpt>
      <trkpt lat="45.46484" lon="6.88887">
        <ele>2389.49</ele>
        <time>2011-06-26T10:46:40Z</time>
      </trkpt>
      <trkpt lat="45.46482" lon="6.88886">
        <ele>2394.3</ele>
        <time>2011-06-26T10:46:41Z</time>
      </trkpt>
      <trkpt lat="45.46473" lon="6.88884">
        <ele>2389.49</ele>
        <time>2011-06-26T10:46:45Z</time>
      </trkpt>
      <trkpt lat="45.46461" lon="6.8888">
        <ele>2386.13</ele>
        <time>2011-06-26T10:46:50Z</time>
      </trkpt>
      <trkpt lat="45.46458" lon="6.88879">
        <ele>2388.53</ele>
        <time>2011-06-26T10:46:51Z</time>
      </trkpt>
      <trkpt lat="45.46456" lon="6.88879">
        <ele>2385.65</ele>
        <time>2011-06-26T10:46:52Z</time>
      </trkpt>
      <trkpt lat="45.46452" lon="6.8888">
        <ele>2385.17</ele>
        <time>2011-06-26T10:46:54Z</time>
      </trkpt>
      <trkpt lat="45.46441" lon="6.8888">
        <ele>2386.13</ele>
        <time>2011-06-26T10:46:58Z</time>
      </trkpt>
      <trkpt lat="45.46432" lon="6.88882">
        <ele>2383.73</ele>
        <time>2011-06-26T10:47:01Z</time>
      </trkpt>
      <trkpt lat="45.46428" lon="6.88885">
        <ele>2379.88</ele>
        <time>2011-06-26T10:47:03Z</time>
      </trkpt>
      <trkpt lat="45.46426" lon="6.88886">
        <ele>2383.73</ele>
        <time>2011-06-26T10:47:04Z</time>
      </trkpt>
      <trkpt lat="45.46419" lon="6.88894">
        <ele>2382.28</ele>
        <time>2011-06-26T10:47:12Z</time>
      </trkpt>
      <trkpt lat="45.4642" lon="6.88895">
        <ele>2379.4</ele>
        <time>2011-06-26T10:47:14Z</time>
      </trkpt>
      <trkpt lat="45.46421" lon="6.88898">
        <ele>2380.36</ele>
        <time>2011-06-26T10:47:16Z</time>
      </trkpt>
      <trkpt lat="45.46423" lon="6.88903">
        <ele>2380.84</ele>
        <time>2011-06-26T10:47:19Z</time>
      </trkpt>
      <trkpt lat="45.46424" lon="6.88907">
        <ele>2377</ele>
        <time>2011-06-26T10:47:21Z</time>
      </trkpt>
      <trkpt lat="45.46421" lon="6.88917">
        <ele>2374.11</ele>
        <time>2011-06-26T10:47:26Z</time>
      </trkpt>
      <trkpt lat="45.46425" lon="6.88917">
        <ele>2373.63</ele>
        <time>2011-06-26T10:47:30Z</time>
      </trkpt>
      <trkpt lat="45.4643" lon="6.88915">
        <ele>2373.15</ele>
        <time>2011-06-26T10:47:33Z</time>
      </trkpt>
      <trkpt lat="45.46435" lon="6.88919">
        <ele>2368.83</ele>
        <time>2011-06-26T10:47:37Z</time>
      </trkpt>
      <trkpt lat="45.46437" lon="6.88923">
        <ele>2368.35</ele>
        <time>2011-06-26T10:47:39Z</time>
      </trkpt>
      <trkpt lat="45.46439" lon="6.88933">
        <ele>2364.98</ele>
        <time>2011-06-26T10:47:46Z</time>
      </trkpt>
      <trkpt lat="45.46439" lon="6.88934">
        <ele>2365.94</ele>
        <time>2011-06-26T10:47:48Z</time>
      </trkpt>
      <trkpt lat="45.46437" lon="6.88943">
        <ele>2364.5</ele>
        <time>2011-06-26T10:47:53Z</time>
      </trkpt>
      <trkpt lat="45.46437" lon="6.88947">
        <ele>2362.58</ele>
        <time>2011-06-26T10:47:55Z</time>
      </trkpt>
      <trkpt lat="45.46437" lon="6.8895">
        <ele>2359.69</ele>
        <time>2011-06-26T10:47:56Z</time>
      </trkpt>
      <trkpt lat="45.46437" lon="6.88952">
        <ele>2359.69</ele>
        <time>2011-06-26T10:47:57Z</time>
      </trkpt>
      <trkpt lat="45.46437" lon="6.88957">
        <ele>2360.65</ele>
        <time>2011-06-26T10:47:59Z</time>
      </trkpt>
      <trkpt lat="45.46434" lon="6.88964">
        <ele>2353.93</ele>
        <time>2011-06-26T10:48:03Z</time>
      </trkpt>
      <trkpt lat="45.46432" lon="6.88964">
        <ele>2354.41</ele>
        <time>2011-06-26T10:48:04Z</time>
      </trkpt>
      <trkpt lat="45.4643" lon="6.88963">
        <ele>2356.33</ele>
        <time>2011-06-26T10:48:05Z</time>
      </trkpt>
      <trkpt lat="45.46428" lon="6.88964">
        <ele>2352.48</ele>
        <time>2011-06-26T10:48:08Z</time>
      </trkpt>
      <trkpt lat="45.46432" lon="6.88978">
        <ele>2350.56</ele>
        <time>2011-06-26T10:48:13Z</time>
      </trkpt>
      <trkpt lat="45.4644" lon="6.88995">
        <ele>2345.75</ele>
        <time>2011-06-26T10:48:19Z</time>
      </trkpt>
      <trkpt lat="45.46442" lon="6.89005">
        <ele>2342.87</ele>
        <time>2011-06-26T10:48:23Z</time>
      </trkpt>
      <trkpt lat="45.46444" lon="6.89017">
        <ele>2340.47</ele>
        <time>2011-06-26T10:48:28Z</time>
      </trkpt>
      <trkpt lat="45.46447" lon="6.89028">
        <ele>2337.58</ele>
        <time>2011-06-26T10:48:33Z</time>
      </trkpt>
      <trkpt lat="45.46449" lon="6.89042">
        <ele>2334.22</ele>
        <time>2011-06-26T10:48:38Z</time>
      </trkpt>
      <trkpt lat="45.4645" lon="6.89045">
        <ele>2333.26</ele>
        <time>2011-06-26T10:48:39Z</time>
      </trkpt>
      <trkpt lat="45.46451" lon="6.89054">
        <ele>2332.3</ele>
        <time>2011-06-26T10:48:43Z</time>
      </trkpt>
      <trkpt lat="45.46448" lon="6.89053">
        <ele>2331.81</ele>
        <time>2011-06-26T10:48:45Z</time>
      </trkpt>
      <trkpt lat="45.46443" lon="6.89049">
        <ele>2330.37</ele>
        <time>2011-06-26T10:48:47Z</time>
      </trkpt>
      <trkpt lat="45.46432" lon="6.89039">
        <ele>2328.45</ele>
        <time>2011-06-26T10:48:52Z</time>
      </trkpt>
      <trkpt lat="45.46414" lon="6.89031">
        <ele>2325.57</ele>
        <time>2011-06-26T10:49:00Z</time>
      </trkpt>
      <trkpt lat="45.46409" lon="6.8903">
        <ele>2326.05</ele>
        <time>2011-06-26T10:49:02Z</time>
      </trkpt>
      <trkpt lat="45.464" lon="6.89037">
        <ele>2321.24</ele>
        <time>2011-06-26T10:49:08Z</time>
      </trkpt>
      <trkpt lat="45.464" lon="6.8904">
        <ele>2319.8</ele>
        <time>2011-06-26T10:49:09Z</time>
      </trkpt>
      <trkpt lat="45.4641" lon="6.89049">
        <ele>2317.4</ele>
        <time>2011-06-26T10:49:14Z</time>
      </trkpt>
      <trkpt lat="45.46421" lon="6.89061">
        <ele>2315.47</ele>
        <time>2011-06-26T10:49:19Z</time>
      </trkpt>
      <trkpt lat="45.46422" lon="6.89064">
        <ele>2314.51</ele>
        <time>2011-06-26T10:49:21Z</time>
      </trkpt>
      <trkpt lat="45.46415" lon="6.89064">
        <ele>2312.59</ele>
        <time>2011-06-26T10:49:24Z</time>
      </trkpt>
      <trkpt lat="45.46403" lon="6.89062">
        <ele>2310.19</ele>
        <time>2011-06-26T10:49:29Z</time>
      </trkpt>
      <trkpt lat="45.46392" lon="6.89069">
        <ele>2307.78</ele>
        <time>2011-06-26T10:49:35Z</time>
      </trkpt>
      <trkpt lat="45.464" lon="6.89073">
        <ele>2306.34</ele>
        <time>2011-06-26T10:49:40Z</time>
      </trkpt>
      <trkpt lat="45.4641" lon="6.8909">
        <ele>2302.98</ele>
        <time>2011-06-26T10:49:49Z</time>
      </trkpt>
      <trkpt lat="45.4641" lon="6.89092">
        <ele>2302.49</ele>
        <time>2011-06-26T10:49:50Z</time>
      </trkpt>
      <trkpt lat="45.4641" lon="6.89095">
        <ele>2302.01</ele>
        <time>2011-06-26T10:49:52Z</time>
      </trkpt>
      <trkpt lat="45.4641" lon="6.89105">
        <ele>2299.61</ele>
        <time>2011-06-26T10:49:56Z</time>
      </trkpt>
      <trkpt lat="45.46407" lon="6.89118">
        <ele>2294.8</ele>
        <time>2011-06-26T10:50:01Z</time>
      </trkpt>
      <trkpt lat="45.46406" lon="6.8912">
        <ele>2293.36</ele>
        <time>2011-06-26T10:50:02Z</time>
      </trkpt>
      <trkpt lat="45.46402" lon="6.8913">
        <ele>2291.92</ele>
        <time>2011-06-26T10:50:07Z</time>
      </trkpt>
      <trkpt lat="45.46399" lon="6.89137">
        <ele>2290.48</ele>
        <time>2011-06-26T10:50:10Z</time>
      </trkpt>
      <trkpt lat="45.46396" lon="6.89148">
        <ele>2286.63</ele>
        <time>2011-06-26T10:50:15Z</time>
      </trkpt>
      <trkpt lat="45.46393" lon="6.89159">
        <ele>2282.79</ele>
        <time>2011-06-26T10:50:20Z</time>
      </trkpt>
      <trkpt lat="45.4639" lon="6.89167">
        <ele>2282.31</ele>
        <time>2011-06-26T10:50:23Z</time>
      </trkpt>
      <trkpt lat="45.46388" lon="6.89177">
        <ele>2278.94</ele>
        <time>2011-06-26T10:50:27Z</time>
      </trkpt>
      <trkpt lat="45.46385" lon="6.89183">
        <ele>2276.54</ele>
        <time>2011-06-26T10:50:30Z</time>
      </trkpt>
      <trkpt lat="45.46383" lon="6.8919">
        <ele>2274.14</ele>
        <time>2011-06-26T10:50:33Z</time>
      </trkpt>
      <trkpt lat="45.46377" lon="6.89204">
        <ele>2270.77</ele>
        <time>2011-06-26T10:50:40Z</time>
      </trkpt>
      <trkpt lat="45.46375" lon="6.8921">
        <ele>2269.33</ele>
        <time>2011-06-26T10:50:43Z</time>
      </trkpt>
      <trkpt lat="45.46372" lon="6.89216">
        <ele>2266.45</ele>
        <time>2011-06-26T10:50:46Z</time>
      </trkpt>
      <trkpt lat="45.46371" lon="6.89225">
        <ele>2264.52</ele>
        <time>2011-06-26T10:50:50Z</time>
      </trkpt>
      <trkpt lat="45.4637" lon="6.89231">
        <ele>2263.08</ele>
        <time>2011-06-26T10:50:53Z</time>
      </trkpt>
      <trkpt lat="45.46369" lon="6.89237">
        <ele>2261.16</ele>
        <time>2011-06-26T10:50:56Z</time>
      </trkpt>
      <trkpt lat="45.46369" lon="6.89253">
        <ele>2257.31</ele>
        <time>2011-06-26T10:51:02Z</time>
      </trkpt>
      <trkpt lat="45.46368" lon="6.89264">
        <ele>2255.87</ele>
        <time>2011-06-26T10:51:06Z</time>
      </trkpt>
      <trkpt lat="45.46366" lon="6.89269">
        <ele>2255.39</ele>
        <time>2011-06-26T10:51:08Z</time>
      </trkpt>
      <trkpt lat="45.46362" lon="6.89285">
        <ele>2251.06</ele>
        <time>2011-06-26T10:51:15Z</time>
      </trkpt>
      <trkpt lat="45.4636" lon="6.89301">
        <ele>2248.18</ele>
        <time>2011-06-26T10:51:21Z</time>
      </trkpt>
      <trkpt lat="45.46354" lon="6.89318">
        <ele>2244.33</ele>
        <time>2011-06-26T10:51:28Z</time>
      </trkpt>
      <trkpt lat="45.46349" lon="6.89329">
        <ele>2241.45</ele>
        <time>2011-06-26T10:51:33Z</time>
      </trkpt>
      <trkpt lat="45.46348" lon="6.89331">
        <ele>2241.93</ele>
        <time>2011-06-26T10:51:34Z</time>
      </trkpt>
      <trkpt lat="45.46345" lon="6.8934">
        <ele>2238.09</ele>
        <time>2011-06-26T10:51:38Z</time>
      </trkpt>
      <trkpt lat="45.46341" lon="6.89347">
        <ele>2236.64</ele>
        <time>2011-06-26T10:51:41Z</time>
      </trkpt>
      <trkpt lat="45.46337" lon="6.89355">
        <ele>2234.72</ele>
        <time>2011-06-26T10:51:44Z</time>
      </trkpt>
      <trkpt lat="45.46332" lon="6.89366">
        <ele>2231.84</ele>
        <time>2011-06-26T10:51:48Z</time>
      </trkpt>
      <trkpt lat="45.46326" lon="6.89379">
        <ele>2227.99</ele>
        <time>2011-06-26T10:51:53Z</time>
      </trkpt>
      <trkpt lat="45.46326" lon="6.89382">
        <ele>2228.95</ele>
        <time>2011-06-26T10:51:54Z</time>
      </trkpt>
      <trkpt lat="45.46324" lon="6.89402">
        <ele>2227.99</ele>
        <time>2011-06-26T10:52:00Z</time>
      </trkpt>
      <trkpt lat="45.46324" lon="6.89411">
        <ele>2225.11</ele>
        <time>2011-06-26T10:52:04Z</time>
      </trkpt>
      <trkpt lat="45.4632" lon="6.89419">
        <ele>2222.71</ele>
        <time>2011-06-26T10:52:08Z</time>
      </trkpt>
      <trkpt lat="45.46317" lon="6.89422">
        <ele>2221.74</ele>
        <time>2011-06-26T10:52:10Z</time>
      </trkpt>
      <trkpt lat="45.46312" lon="6.89429">
        <ele>2220.3</ele>
        <time>2011-06-26T10:52:14Z</time>
      </trkpt>
      <trkpt lat="45.46307" lon="6.89433">
        <ele>2217.9</ele>
        <time>2011-06-26T10:52:17Z</time>
      </trkpt>
      <trkpt lat="45.46298" lon="6.89437">
        <ele>2216.46</ele>
        <time>2011-06-26T10:52:21Z</time>
      </trkpt>
      <trkpt lat="45.46294" lon="6.89447">
        <ele>2214.05</ele>
        <time>2011-06-26T10:52:27Z</time>
      </trkpt>
      <trkpt lat="45.46291" lon="6.89453">
        <ele>2211.65</ele>
        <time>2011-06-26T10:52:30Z</time>
      </trkpt>
      <trkpt lat="45.46287" lon="6.89463">
        <ele>2209.73</ele>
        <time>2011-06-26T10:52:34Z</time>
      </trkpt>
      <trkpt lat="45.46282" lon="6.8947">
        <ele>2207.81</ele>
        <time>2011-06-26T10:52:37Z</time>
      </trkpt>
      <trkpt lat="45.46277" lon="6.89473">
        <ele>2206.36</ele>
        <time>2011-06-26T10:52:39Z</time>
      </trkpt>
      <trkpt lat="45.46268" lon="6.89479">
        <ele>2205.4</ele>
        <time>2011-06-26T10:52:42Z</time>
      </trkpt>
      <trkpt lat="45.46254" lon="6.89491">
        <ele>2203.96</ele>
        <time>2011-06-26T10:52:47Z</time>
      </trkpt>
      <trkpt lat="45.46248" lon="6.89495">
        <ele>2203.48</ele>
        <time>2011-06-26T10:52:49Z</time>
      </trkpt>
      <trkpt lat="45.46237" lon="6.89505">
        <ele>2200.11</ele>
        <time>2011-06-26T10:52:53Z</time>
      </trkpt>
      <trkpt lat="45.46233" lon="6.89509">
        <ele>2199.63</ele>
        <time>2011-06-26T10:52:55Z</time>
      </trkpt>
      <trkpt lat="45.46227" lon="6.89516">
        <ele>2196.27</ele>
        <time>2011-06-26T10:52:58Z</time>
      </trkpt>
      <trkpt lat="45.46225" lon="6.89517">
        <ele>2196.27</ele>
        <time>2011-06-26T10:52:59Z</time>
      </trkpt>
      <trkpt lat="45.46225" lon="6.89518">
        <ele>2197.23</ele>
        <time>2011-06-26T10:53:04Z</time>
      </trkpt>
      <trkpt lat="45.46228" lon="6.89525">
        <ele>2195.79</ele>
        <time>2011-06-26T10:53:08Z</time>
      </trkpt>
      <trkpt lat="45.4623" lon="6.8953">
        <ele>2194.35</ele>
        <time>2011-06-26T10:53:10Z</time>
      </trkpt>
      <trkpt lat="45.46238" lon="6.89535">
        <ele>2193.39</ele>
        <time>2011-06-26T10:53:15Z</time>
      </trkpt>
      <trkpt lat="45.46258" lon="6.89543">
        <ele>2190.02</ele>
        <time>2011-06-26T10:53:23Z</time>
      </trkpt>
      <trkpt lat="45.4626" lon="6.8957">
        <ele>2188.58</ele>
        <time>2011-06-26T10:53:30Z</time>
      </trkpt>
      <trkpt lat="45.46269" lon="6.89598">
        <ele>2186.18</ele>
        <time>2011-06-26T10:53:39Z</time>
      </trkpt>
      <trkpt lat="45.46276" lon="6.89604">
        <ele>2183.77</ele>
        <time>2011-06-26T10:53:43Z</time>
      </trkpt>
      <trkpt lat="45.46281" lon="6.89609">
        <ele>2181.85</ele>
        <time>2011-06-26T10:53:47Z</time>
      </trkpt>
      <trkpt lat="45.46291" lon="6.89613">
        <ele>2178.97</ele>
        <time>2011-06-26T10:53:54Z</time>
      </trkpt>
      <trkpt lat="45.46302" lon="6.89621">
        <ele>2177.52</ele>
        <time>2011-06-26T10:53:59Z</time>
      </trkpt>
      <trkpt lat="45.46315" lon="6.89633">
        <ele>2174.64</ele>
        <time>2011-06-26T10:54:05Z</time>
      </trkpt>
      <trkpt lat="45.4632" lon="6.89637">
        <ele>2176.08</ele>
        <time>2011-06-26T10:54:10Z</time>
      </trkpt>
      <trkpt lat="45.4632" lon="6.89637">
        <ele>2176.56</ele>
        <time>2011-06-26T10:54:11Z</time>
      </trkpt>
      <trkpt lat="45.46322" lon="6.89636">
        <ele>2173.68</ele>
        <time>2011-06-26T10:54:13Z</time>
      </trkpt>
      <trkpt lat="45.46325" lon="6.89637">
        <ele>2175.6</ele>
        <time>2011-06-26T10:54:15Z</time>
      </trkpt>
      <trkpt lat="45.46358" lon="6.89658">
        <ele>2175.12</ele>
        <time>2011-06-26T10:54:27Z</time>
      </trkpt>
      <trkpt lat="45.46363" lon="6.89661">
        <ele>2174.16</ele>
        <time>2011-06-26T10:54:29Z</time>
      </trkpt>
      <trkpt lat="45.4638" lon="6.89678">
        <ele>2171.76</ele>
        <time>2011-06-26T10:54:36Z</time>
      </trkpt>
      <trkpt lat="45.46403" lon="6.89697">
        <ele>2168.87</ele>
        <time>2011-06-26T10:54:46Z</time>
      </trkpt>
      <trkpt lat="45.4642" lon="6.8971">
        <ele>2165.51</ele>
        <time>2011-06-26T10:54:56Z</time>
      </trkpt>
      <trkpt lat="45.46432" lon="6.89718">
        <ele>2165.51</ele>
        <time>2011-06-26T10:55:02Z</time>
      </trkpt>
      <trkpt lat="45.46447" lon="6.89728">
        <ele>2161.66</ele>
        <time>2011-06-26T10:55:09Z</time>
      </trkpt>
      <trkpt lat="45.4645" lon="6.8973">
        <ele>2161.18</ele>
        <time>2011-06-26T10:55:11Z</time>
      </trkpt>
      <trkpt lat="45.46454" lon="6.89732">
        <ele>2160.7</ele>
        <time>2011-06-26T10:55:13Z</time>
      </trkpt>
      <trkpt lat="45.46462" lon="6.89737">
        <ele>2158.78</ele>
        <time>2011-06-26T10:55:17Z</time>
      </trkpt>
      <trkpt lat="45.46474" lon="6.89746">
        <ele>2155.89</ele>
        <time>2011-06-26T10:55:24Z</time>
      </trkpt>
      <trkpt lat="45.46487" lon="6.89756">
        <ele>2152.05</ele>
        <time>2011-06-26T10:55:32Z</time>
      </trkpt>
      <trkpt lat="45.46496" lon="6.8976">
        <ele>2153.01</ele>
        <time>2011-06-26T10:55:36Z</time>
      </trkpt>
      <trkpt lat="45.46508" lon="6.89771">
        <ele>2149.65</ele>
        <time>2011-06-26T10:55:42Z</time>
      </trkpt>
      <trkpt lat="45.46509" lon="6.89775">
        <ele>2147.24</ele>
        <time>2011-06-26T10:55:45Z</time>
      </trkpt>
      <trkpt lat="45.46508" lon="6.89777">
        <ele>2147.72</ele>
        <time>2011-06-26T10:55:46Z</time>
      </trkpt>
      <trkpt lat="45.46502" lon="6.89783">
        <ele>2145.32</ele>
        <time>2011-06-26T10:55:51Z</time>
      </trkpt>
      <trkpt lat="45.46509" lon="6.89788">
        <ele>2143.4</ele>
        <time>2011-06-26T10:55:57Z</time>
      </trkpt>
      <trkpt lat="45.46516" lon="6.89793">
        <ele>2141.95</ele>
        <time>2011-06-26T10:56:00Z</time>
      </trkpt>
      <trkpt lat="45.4652" lon="6.89796">
        <ele>2140.51</ele>
        <time>2011-06-26T10:56:02Z</time>
      </trkpt>
      <trkpt lat="45.4654" lon="6.89807">
        <ele>2138.59</ele>
        <time>2011-06-26T10:56:11Z</time>
      </trkpt>
      <trkpt lat="45.46571" lon="6.89825">
        <ele>2134.74</ele>
        <time>2011-06-26T10:56:22Z</time>
      </trkpt>
      <trkpt lat="45.46573" lon="6.89825">
        <ele>2135.23</ele>
        <time>2011-06-26T10:56:23Z</time>
      </trkpt>
      <trkpt lat="45.46581" lon="6.89826">
        <ele>2132.34</ele>
        <time>2011-06-26T10:56:27Z</time>
      </trkpt>
      <trkpt lat="45.46588" lon="6.89832">
        <ele>2129.46</ele>
        <time>2011-06-26T10:56:31Z</time>
      </trkpt>
      <trkpt lat="45.46597" lon="6.89845">
        <ele>2129.46</ele>
        <time>2011-06-26T10:56:36Z</time>
      </trkpt>
      <trkpt lat="45.46602" lon="6.89851">
        <ele>2127.05</ele>
        <time>2011-06-26T10:56:39Z</time>
      </trkpt>
      <trkpt lat="45.46603" lon="6.89857">
        <ele>2124.65</ele>
        <time>2011-06-26T10:56:42Z</time>
      </trkpt>
      <trkpt lat="45.46604" lon="6.89862">
        <ele>2123.69</ele>
        <time>2011-06-26T10:56:44Z</time>
      </trkpt>
      <trkpt lat="45.46599" lon="6.89873">
        <ele>2119.84</ele>
        <time>2011-06-26T10:56:48Z</time>
      </trkpt>
      <trkpt lat="45.466" lon="6.89882">
        <ele>2116</ele>
        <time>2011-06-26T10:56:54Z</time>
      </trkpt>
      <trkpt lat="45.46609" lon="6.89891">
        <ele>2113.6</ele>
        <time>2011-06-26T10:56:58Z</time>
      </trkpt>
      <trkpt lat="45.46611" lon="6.899">
        <ele>2114.56</ele>
        <time>2011-06-26T10:57:02Z</time>
      </trkpt>
      <trkpt lat="45.46609" lon="6.89908">
        <ele>2111.19</ele>
        <time>2011-06-26T10:57:05Z</time>
      </trkpt>
      <trkpt lat="45.46619" lon="6.89944">
        <ele>2109.27</ele>
        <time>2011-06-26T10:57:12Z</time>
      </trkpt>
      <trkpt lat="45.46621" lon="6.8996">
        <ele>2104.46</ele>
        <time>2011-06-26T10:57:18Z</time>
      </trkpt>
      <trkpt lat="45.46619" lon="6.89967">
        <ele>2103.02</ele>
        <time>2011-06-26T10:57:22Z</time>
      </trkpt>
      <trkpt lat="45.46619" lon="6.89971">
        <ele>2101.1</ele>
        <time>2011-06-26T10:57:24Z</time>
      </trkpt>
      <trkpt lat="45.4662" lon="6.89975">
        <ele>2102.06</ele>
        <time>2011-06-26T10:57:27Z</time>
      </trkpt>
      <trkpt lat="45.46612" lon="6.89985">
        <ele>2100.14</ele>
        <time>2011-06-26T10:57:35Z</time>
      </trkpt>
      <trkpt lat="45.46607" lon="6.89983">
        <ele>2100.62</ele>
        <time>2011-06-26T10:57:37Z</time>
      </trkpt>
      <trkpt lat="45.46603" lon="6.89978">
        <ele>2099.66</ele>
        <time>2011-06-26T10:57:39Z</time>
      </trkpt>
      <trkpt lat="45.4659" lon="6.89971">
        <ele>2100.14</ele>
        <time>2011-06-26T10:57:45Z</time>
      </trkpt>
      <trkpt lat="45.46573" lon="6.89938">
        <ele>2101.58</ele>
        <time>2011-06-26T10:57:58Z</time>
      </trkpt>
      <trkpt lat="45.46552" lon="6.89908">
        <ele>2102.54</ele>
        <time>2011-06-26T10:58:09Z</time>
      </trkpt>
      <trkpt lat="45.46525" lon="6.8989">
        <ele>2101.1</ele>
        <time>2011-06-26T10:58:20Z</time>
      </trkpt>
      <trkpt lat="45.46486" lon="6.89876">
        <ele>2101.58</ele>
        <time>2011-06-26T10:58:35Z</time>
      </trkpt>
      <trkpt lat="45.46467" lon="6.8988">
        <ele>2101.1</ele>
        <time>2011-06-26T10:58:42Z</time>
      </trkpt>
      <trkpt lat="45.46461" lon="6.89886">
        <ele>2099.18</ele>
        <time>2011-06-26T10:58:45Z</time>
      </trkpt>
      <trkpt lat="45.46459" lon="6.89889">
        <ele>2099.18</ele>
        <time>2011-06-26T10:58:46Z</time>
      </trkpt>
      <trkpt lat="45.46455" lon="6.89896">
        <ele>2097.73</ele>
        <time>2011-06-26T10:58:48Z</time>
      </trkpt>
      <trkpt lat="45.46451" lon="6.89904">
        <ele>2098.21</ele>
        <time>2011-06-26T10:58:50Z</time>
      </trkpt>
      <trkpt lat="45.46421" lon="6.89933">
        <ele>2097.73</ele>
        <time>2011-06-26T10:59:02Z</time>
      </trkpt>
      <trkpt lat="45.46389" lon="6.89948">
        <ele>2098.7</ele>
        <time>2011-06-26T10:59:13Z</time>
      </trkpt>
      <trkpt lat="45.46366" lon="6.89972">
        <ele>2098.7</ele>
        <time>2011-06-26T10:59:23Z</time>
      </trkpt>
      <trkpt lat="45.46342" lon="6.90003">
        <ele>2095.81</ele>
        <time>2011-06-26T10:59:36Z</time>
      </trkpt>
      <trkpt lat="45.46335" lon="6.90013">
        <ele>2098.7</ele>
        <time>2011-06-26T10:59:40Z</time>
      </trkpt>
      <trkpt lat="45.46329" lon="6.90025">
        <ele>2097.73</ele>
        <time>2011-06-26T10:59:44Z</time>
      </trkpt>
      <trkpt lat="45.46313" lon="6.90061">
        <ele>2096.77</ele>
        <time>2011-06-26T10:59:56Z</time>
      </trkpt>
      <trkpt lat="45.46298" lon="6.90083">
        <ele>2101.1</ele>
        <time>2011-06-26T11:00:05Z</time>
      </trkpt>
      <trkpt lat="45.46295" lon="6.9009">
        <ele>2098.21</ele>
        <time>2011-06-26T11:00:08Z</time>
      </trkpt>
      <trkpt lat="45.46295" lon="6.901">
        <ele>2097.73</ele>
        <time>2011-06-26T11:00:12Z</time>
      </trkpt>
      <trkpt lat="45.46296" lon="6.90106">
        <ele>2101.58</ele>
        <time>2011-06-26T11:00:14Z</time>
      </trkpt>
      <trkpt lat="45.46296" lon="6.90109">
        <ele>2099.18</ele>
        <time>2011-06-26T11:00:15Z</time>
      </trkpt>
      <trkpt lat="45.46295" lon="6.90116">
        <ele>2095.81</ele>
        <time>2011-06-26T11:00:17Z</time>
      </trkpt>
      <trkpt lat="45.46292" lon="6.90124">
        <ele>2099.18</ele>
        <time>2011-06-26T11:00:19Z</time>
      </trkpt>
      <trkpt lat="45.46291" lon="6.90136">
        <ele>2096.29</ele>
        <time>2011-06-26T11:00:22Z</time>
      </trkpt>
      <trkpt lat="45.46292" lon="6.90147">
        <ele>2100.14</ele>
        <time>2011-06-26T11:00:25Z</time>
      </trkpt>
      <trkpt lat="45.46297" lon="6.90164">
        <ele>2096.77</ele>
        <time>2011-06-26T11:00:30Z</time>
      </trkpt>
      <trkpt lat="45.46307" lon="6.9018">
        <ele>2100.14</ele>
        <time>2011-06-26T11:00:36Z</time>
      </trkpt>
      <trkpt lat="45.46317" lon="6.90194">
        <ele>2096.77</ele>
        <time>2011-06-26T11:00:41Z</time>
      </trkpt>
      <trkpt lat="45.46322" lon="6.90202">
        <ele>2098.7</ele>
        <time>2011-06-26T11:00:44Z</time>
      </trkpt>
      <trkpt lat="45.46328" lon="6.90221">
        <ele>2097.73</ele>
        <time>2011-06-26T11:00:49Z</time>
      </trkpt>
      <trkpt lat="45.46329" lon="6.90231">
        <ele>2094.85</ele>
        <time>2011-06-26T11:00:52Z</time>
      </trkpt>
      <trkpt lat="45.4633" lon="6.90234">
        <ele>2098.7</ele>
        <time>2011-06-26T11:00:53Z</time>
      </trkpt>
      <trkpt lat="45.46333" lon="6.90244">
        <ele>2095.81</ele>
        <time>2011-06-26T11:00:57Z</time>
      </trkpt>
      <trkpt lat="45.46336" lon="6.90252">
        <ele>2099.66</ele>
        <time>2011-06-26T11:01:00Z</time>
      </trkpt>
      <trkpt lat="45.46337" lon="6.90254">
        <ele>2099.18</ele>
        <time>2011-06-26T11:01:01Z</time>
      </trkpt>
      <trkpt lat="45.46339" lon="6.9026">
        <ele>2097.73</ele>
        <time>2011-06-26T11:01:03Z</time>
      </trkpt>
      <trkpt lat="45.46341" lon="6.90266">
        <ele>2094.37</ele>
        <time>2011-06-26T11:01:05Z</time>
      </trkpt>
      <trkpt lat="45.46342" lon="6.90269">
        <ele>2096.29</ele>
        <time>2011-06-26T11:01:06Z</time>
      </trkpt>
      <trkpt lat="45.46343" lon="6.90278">
        <ele>2100.14</ele>
        <time>2011-06-26T11:01:09Z</time>
      </trkpt>
      <trkpt lat="45.46351" lon="6.90314">
        <ele>2099.66</ele>
        <time>2011-06-26T11:01:21Z</time>
      </trkpt>
      <trkpt lat="45.46363" lon="6.90356">
        <ele>2096.77</ele>
        <time>2011-06-26T11:01:34Z</time>
      </trkpt>
      <trkpt lat="45.46363" lon="6.90359">
        <ele>2098.21</ele>
        <time>2011-06-26T11:01:35Z</time>
      </trkpt>
      <trkpt lat="45.46362" lon="6.9039">
        <ele>2102.06</ele>
        <time>2011-06-26T11:01:45Z</time>
      </trkpt>
      <trkpt lat="45.46361" lon="6.90395">
        <ele>2102.54</ele>
        <time>2011-06-26T11:01:47Z</time>
      </trkpt>
      <trkpt lat="45.46361" lon="6.904">
        <ele>2102.06</ele>
        <time>2011-06-26T11:01:49Z</time>
      </trkpt>
      <trkpt lat="45.46364" lon="6.90425">
        <ele>2104.46</ele>
        <time>2011-06-26T11:01:58Z</time>
      </trkpt>
      <trkpt lat="45.46367" lon="6.90442">
        <ele>2102.06</ele>
        <time>2011-06-26T11:02:04Z</time>
      </trkpt>
      <trkpt lat="45.46369" lon="6.90446">
        <ele>2103.98</ele>
        <time>2011-06-26T11:02:06Z</time>
      </trkpt>
      <trkpt lat="45.46371" lon="6.90465">
        <ele>2105.91</ele>
        <time>2011-06-26T11:02:13Z</time>
      </trkpt>
      <trkpt lat="45.46374" lon="6.90478">
        <ele>2104.46</ele>
        <time>2011-06-26T11:02:18Z</time>
      </trkpt>
      <trkpt lat="45.46379" lon="6.90496">
        <ele>2108.31</ele>
        <time>2011-06-26T11:02:24Z</time>
      </trkpt>
      <trkpt lat="45.4638" lon="6.90498">
        <ele>2104.46</ele>
        <time>2011-06-26T11:02:25Z</time>
      </trkpt>
      <trkpt lat="45.4639" lon="6.9051">
        <ele>2103.98</ele>
        <time>2011-06-26T11:02:31Z</time>
      </trkpt>
      <trkpt lat="45.46402" lon="6.90519">
        <ele>2099.66</ele>
        <time>2011-06-26T11:02:37Z</time>
      </trkpt>
      <trkpt lat="45.46404" lon="6.90521">
        <ele>2101.58</ele>
        <time>2011-06-26T11:02:38Z</time>
      </trkpt>
      <trkpt lat="45.46411" lon="6.90525">
        <ele>2104.94</ele>
        <time>2011-06-26T11:02:41Z</time>
      </trkpt>
      <trkpt lat="45.46412" lon="6.90527">
        <ele>2101.58</ele>
        <time>2011-06-26T11:02:42Z</time>
      </trkpt>
      <trkpt lat="45.4643" lon="6.90553">
        <ele>2101.58</ele>
        <time>2011-06-26T11:02:54Z</time>
      </trkpt>
      <trkpt lat="45.46431" lon="6.9056">
        <ele>2098.21</ele>
        <time>2011-06-26T11:02:56Z</time>
      </trkpt>
      <trkpt lat="45.46432" lon="6.90576">
        <ele>2094.85</ele>
        <time>2011-06-26T11:03:01Z</time>
      </trkpt>
      <trkpt lat="45.46431" lon="6.90579">
        <ele>2101.58</ele>
        <time>2011-06-26T11:03:02Z</time>
      </trkpt>
      <trkpt lat="45.46431" lon="6.90582">
        <ele>2100.14</ele>
        <time>2011-06-26T11:03:03Z</time>
      </trkpt>
      <trkpt lat="45.4643" lon="6.90587">
        <ele>2099.18</ele>
        <time>2011-06-26T11:03:05Z</time>
      </trkpt>
      <trkpt lat="45.46427" lon="6.90597">
        <ele>2095.81</ele>
        <time>2011-06-26T11:03:09Z</time>
      </trkpt>
      <trkpt lat="45.46426" lon="6.90599">
        <ele>2097.73</ele>
        <time>2011-06-26T11:03:10Z</time>
      </trkpt>
      <trkpt lat="45.46422" lon="6.90613">
        <ele>2100.62</ele>
        <time>2011-06-26T11:03:14Z</time>
      </trkpt>
      <trkpt lat="45.46421" lon="6.90617">
        <ele>2098.21</ele>
        <time>2011-06-26T11:03:15Z</time>
      </trkpt>
      <trkpt lat="45.46416" lon="6.90628">
        <ele>2097.73</ele>
        <time>2011-06-26T11:03:19Z</time>
      </trkpt>
      <trkpt lat="45.46415" lon="6.9063">
        <ele>2102.54</ele>
        <time>2011-06-26T11:03:20Z</time>
      </trkpt>
      <trkpt lat="45.46404" lon="6.9066">
        <ele>2102.06</ele>
        <time>2011-06-26T11:03:31Z</time>
      </trkpt>
      <trkpt lat="45.46398" lon="6.90697">
        <ele>2101.58</ele>
        <time>2011-06-26T11:03:44Z</time>
      </trkpt>
      <trkpt lat="45.46396" lon="6.90707">
        <ele>2098.21</ele>
        <time>2011-06-26T11:03:47Z</time>
      </trkpt>
      <trkpt lat="45.46396" lon="6.9071">
        <ele>2104.94</ele>
        <time>2011-06-26T11:03:48Z</time>
      </trkpt>
      <trkpt lat="45.46396" lon="6.90713">
        <ele>2097.25</ele>
        <time>2011-06-26T11:03:49Z</time>
      </trkpt>
      <trkpt lat="45.46395" lon="6.90716">
        <ele>2101.1</ele>
        <time>2011-06-26T11:03:50Z</time>
      </trkpt>
      <trkpt lat="45.46399" lon="6.90753">
        <ele>2097.73</ele>
        <time>2011-06-26T11:04:01Z</time>
      </trkpt>
      <trkpt lat="45.46411" lon="6.90785">
        <ele>2099.18</ele>
        <time>2011-06-26T11:04:12Z</time>
      </trkpt>
      <trkpt lat="45.4642" lon="6.90816">
        <ele>2096.29</ele>
        <time>2011-06-26T11:04:22Z</time>
      </trkpt>
      <trkpt lat="45.46421" lon="6.90819">
        <ele>2099.66</ele>
        <time>2011-06-26T11:04:23Z</time>
      </trkpt>
      <trkpt lat="45.46433" lon="6.90838">
        <ele>2096.29</ele>
        <time>2011-06-26T11:04:30Z</time>
      </trkpt>
      <trkpt lat="45.46435" lon="6.9084">
        <ele>2096.29</ele>
        <time>2011-06-26T11:04:31Z</time>
      </trkpt>
      <trkpt lat="45.46439" lon="6.90844">
        <ele>2101.58</ele>
        <time>2011-06-26T11:04:33Z</time>
      </trkpt>
      <trkpt lat="45.46441" lon="6.90847">
        <ele>2099.66</ele>
        <time>2011-06-26T11:04:34Z</time>
      </trkpt>
      <trkpt lat="45.46462" lon="6.90878">
        <ele>2100.14</ele>
        <time>2011-06-26T11:04:47Z</time>
      </trkpt>
      <trkpt lat="45.46465" lon="6.90883">
        <ele>2101.1</ele>
        <time>2011-06-26T11:04:49Z</time>
      </trkpt>
      <trkpt lat="45.46484" lon="6.9091">
        <ele>2103.02</ele>
        <time>2011-06-26T11:05:01Z</time>
      </trkpt>
      <trkpt lat="45.46486" lon="6.90911">
        <ele>2102.06</ele>
        <time>2011-06-26T11:05:02Z</time>
      </trkpt>
      <trkpt lat="45.4651" lon="6.90919">
        <ele>2104.46</ele>
        <time>2011-06-26T11:05:13Z</time>
      </trkpt>
      <trkpt lat="45.46521" lon="6.90922">
        <ele>2101.1</ele>
        <time>2011-06-26T11:05:18Z</time>
      </trkpt>
      <trkpt lat="45.46524" lon="6.90922">
        <ele>2106.87</ele>
        <time>2011-06-26T11:05:20Z</time>
      </trkpt>
      <trkpt lat="45.46526" lon="6.90923">
        <ele>2103.02</ele>
        <time>2011-06-26T11:05:21Z</time>
      </trkpt>
      <trkpt lat="45.46531" lon="6.90924">
        <ele>2107.83</ele>
        <time>2011-06-26T11:05:24Z</time>
      </trkpt>
      <trkpt lat="45.46534" lon="6.90925">
        <ele>2105.91</ele>
        <time>2011-06-26T11:05:26Z</time>
      </trkpt>
      <trkpt lat="45.46537" lon="6.90928">
        <ele>2104.46</ele>
        <time>2011-06-26T11:05:29Z</time>
      </trkpt>
      <trkpt lat="45.4654" lon="6.9093">
        <ele>2109.75</ele>
        <time>2011-06-26T11:05:31Z</time>
      </trkpt>
      <trkpt lat="45.46542" lon="6.90931">
        <ele>2112.15</ele>
        <time>2011-06-26T11:05:33Z</time>
      </trkpt>
      <trkpt lat="45.46548" lon="6.90932">
        <ele>2110.23</ele>
        <time>2011-06-26T11:05:37Z</time>
      </trkpt>
      <trkpt lat="45.4655" lon="6.90932">
        <ele>2108.79</ele>
        <time>2011-06-26T11:05:39Z</time>
      </trkpt>
      <trkpt lat="45.46553" lon="6.90933">
        <ele>2108.31</ele>
        <time>2011-06-26T11:05:41Z</time>
      </trkpt>
      <trkpt lat="45.46557" lon="6.90938">
        <ele>2109.27</ele>
        <time>2011-06-26T11:05:46Z</time>
      </trkpt>
      <trkpt lat="45.46557" lon="6.90938">
        <ele>2105.42</ele>
        <time>2011-06-26T11:05:49Z</time>
      </trkpt>
      <trkpt lat="45.46557" lon="6.90938">
        <ele>2106.39</ele>
        <time>2011-06-26T11:05:50Z</time>
      </trkpt>
      <trkpt lat="45.46557" lon="6.90937">
        <ele>2103.98</ele>
        <time>2011-06-26T11:05:52Z</time>
      </trkpt>
      <trkpt lat="45.46559" lon="6.90932">
        <ele>2104.46</ele>
        <time>2011-06-26T11:05:56Z</time>
      </trkpt>
      <trkpt lat="45.46563" lon="6.90929">
        <ele>2107.83</ele>
        <time>2011-06-26T11:05:58Z</time>
      </trkpt>
      <trkpt lat="45.46568" lon="6.90926">
        <ele>2109.75</ele>
        <time>2011-06-26T11:06:00Z</time>
      </trkpt>
      <trkpt lat="45.4657" lon="6.90924">
        <ele>2102.54</ele>
        <time>2011-06-26T11:06:01Z</time>
      </trkpt>
      <trkpt lat="45.46572" lon="6.90922">
        <ele>2107.83</ele>
        <time>2011-06-26T11:06:02Z</time>
      </trkpt>
      <trkpt lat="45.46576" lon="6.90914">
        <ele>2104.46</ele>
        <time>2011-06-26T11:06:05Z</time>
      </trkpt>
      <trkpt lat="45.46577" lon="6.90911">
        <ele>2107.83</ele>
        <time>2011-06-26T11:06:06Z</time>
      </trkpt>
      <trkpt lat="45.46579" lon="6.90908">
        <ele>2106.39</ele>
        <time>2011-06-26T11:06:07Z</time>
      </trkpt>
      <trkpt lat="45.46598" lon="6.90877">
        <ele>2104.46</ele>
        <time>2011-06-26T11:06:18Z</time>
      </trkpt>
      <trkpt lat="45.46613" lon="6.90866">
        <ele>2099.18</ele>
        <time>2011-06-26T11:06:24Z</time>
      </trkpt>
      <trkpt lat="45.46617" lon="6.9086">
        <ele>2102.54</ele>
        <time>2011-06-26T11:06:26Z</time>
      </trkpt>
      <trkpt lat="45.46621" lon="6.90852">
        <ele>2098.7</ele>
        <time>2011-06-26T11:06:28Z</time>
      </trkpt>
      <trkpt lat="45.46626" lon="6.90835">
        <ele>2095.33</ele>
        <time>2011-06-26T11:06:32Z</time>
      </trkpt>
      <trkpt lat="45.4663" lon="6.90818">
        <ele>2098.7</ele>
        <time>2011-06-26T11:06:36Z</time>
      </trkpt>
      <trkpt lat="45.46632" lon="6.9081">
        <ele>2095.33</ele>
        <time>2011-06-26T11:06:38Z</time>
      </trkpt>
      <trkpt lat="45.46642" lon="6.90792">
        <ele>2098.7</ele>
        <time>2011-06-26T11:06:44Z</time>
      </trkpt>
      <trkpt lat="45.46651" lon="6.90783">
        <ele>2095.33</ele>
        <time>2011-06-26T11:06:48Z</time>
      </trkpt>
      <trkpt lat="45.46653" lon="6.9078">
        <ele>2095.33</ele>
        <time>2011-06-26T11:06:49Z</time>
      </trkpt>
      <trkpt lat="45.46673" lon="6.90736">
        <ele>2095.81</ele>
        <time>2011-06-26T11:07:02Z</time>
      </trkpt>
      <trkpt lat="45.46678" lon="6.90723">
        <ele>2096.29</ele>
        <time>2011-06-26T11:07:05Z</time>
      </trkpt>
      <trkpt lat="45.46683" lon="6.90717">
        <ele>2098.7</ele>
        <time>2011-06-26T11:07:07Z</time>
      </trkpt>
      <trkpt lat="45.46685" lon="6.90714">
        <ele>2094.85</ele>
        <time>2011-06-26T11:07:08Z</time>
      </trkpt>
      <trkpt lat="45.46698" lon="6.90712">
        <ele>2096.29</ele>
        <time>2011-06-26T11:07:12Z</time>
      </trkpt>
      <trkpt lat="45.46708" lon="6.90715">
        <ele>2100.62</ele>
        <time>2011-06-26T11:07:15Z</time>
      </trkpt>
      <trkpt lat="45.46718" lon="6.9072">
        <ele>2096.77</ele>
        <time>2011-06-26T11:07:18Z</time>
      </trkpt>
      <trkpt lat="45.46721" lon="6.90722">
        <ele>2100.14</ele>
        <time>2011-06-26T11:07:19Z</time>
      </trkpt>
      <trkpt lat="45.46724" lon="6.90724">
        <ele>2097.25</ele>
        <time>2011-06-26T11:07:20Z</time>
      </trkpt>
      <trkpt lat="45.4673" lon="6.90729">
        <ele>2093.89</ele>
        <time>2011-06-26T11:07:22Z</time>
      </trkpt>
      <trkpt lat="45.46734" lon="6.90731">
        <ele>2098.21</ele>
        <time>2011-06-26T11:07:23Z</time>
      </trkpt>
      <trkpt lat="45.4676" lon="6.90748">
        <ele>2099.66</ele>
        <time>2011-06-26T11:07:32Z</time>
      </trkpt>
      <trkpt lat="45.46788" lon="6.90762">
        <ele>2100.62</ele>
        <time>2011-06-26T11:07:41Z</time>
      </trkpt>
      <trkpt lat="45.46795" lon="6.90756">
        <ele>2094.85</ele>
        <time>2011-06-26T11:07:45Z</time>
      </trkpt>
      <trkpt lat="45.46797" lon="6.90738">
        <ele>2096.77</ele>
        <time>2011-06-26T11:07:50Z</time>
      </trkpt>
      <trkpt lat="45.46796" lon="6.90731">
        <ele>2095.33</ele>
        <time>2011-06-26T11:07:54Z</time>
      </trkpt>
      <trkpt lat="45.46792" lon="6.90733">
        <ele>2095.33</ele>
        <time>2011-06-26T11:08:17Z</time>
      </trkpt>
      <trkpt lat="45.46792" lon="6.90735">
        <ele>2096.29</ele>
        <time>2011-06-26T11:08:22Z</time>
      </trkpt>
      <trkpt lat="45.46792" lon="6.90734">
        <ele>2096.29</ele>
        <time>2011-06-26T11:08:26Z</time>
      </trkpt>
      <trkpt lat="45.46793" lon="6.90731">
        <ele>2097.25</ele>
        <time>2011-06-26T11:08:29Z</time>
      </trkpt>
      <trkpt lat="45.46801" lon="6.90723">
        <ele>2093.41</ele>
        <time>2011-06-26T11:08:36Z</time>
      </trkpt>
      <trkpt lat="45.46802" lon="6.90721">
        <ele>2096.77</ele>
        <time>2011-06-26T11:08:37Z</time>
      </trkpt>
      <trkpt lat="45.46803" lon="6.90719">
        <ele>2098.21</ele>
        <time>2011-06-26T11:08:38Z</time>
      </trkpt>
      <trkpt lat="45.46807" lon="6.90713">
        <ele>2096.77</ele>
        <time>2011-06-26T11:08:42Z</time>
      </trkpt>
      <trkpt lat="45.4681" lon="6.9071">
        <ele>2094.85</ele>
        <time>2011-06-26T11:08:44Z</time>
      </trkpt>
      <trkpt lat="45.4682" lon="6.90699">
        <ele>2098.7</ele>
        <time>2011-06-26T11:08:49Z</time>
      </trkpt>
      <trkpt lat="45.46827" lon="6.90691">
        <ele>2095.33</ele>
        <time>2011-06-26T11:08:52Z</time>
      </trkpt>
      <trkpt lat="45.46829" lon="6.90689">
        <ele>2099.18</ele>
        <time>2011-06-26T11:08:53Z</time>
      </trkpt>
      <trkpt lat="45.46841" lon="6.9068">
        <ele>2098.7</ele>
        <time>2011-06-26T11:08:59Z</time>
      </trkpt>
      <trkpt lat="45.46855" lon="6.90671">
        <ele>2102.54</ele>
        <time>2011-06-26T11:09:07Z</time>
      </trkpt>
      <trkpt lat="45.46858" lon="6.90669">
        <ele>2102.06</ele>
        <time>2011-06-26T11:09:08Z</time>
      </trkpt>
      <trkpt lat="45.4687" lon="6.90659">
        <ele>2097.73</ele>
        <time>2011-06-26T11:09:15Z</time>
      </trkpt>
      <trkpt lat="45.46871" lon="6.90659">
        <ele>2099.18</ele>
        <time>2011-06-26T11:09:16Z</time>
      </trkpt>
      <trkpt lat="45.46873" lon="6.90659">
        <ele>2100.62</ele>
        <time>2011-06-26T11:09:18Z</time>
      </trkpt>
      <trkpt lat="45.46886" lon="6.90656">
        <ele>2102.06</ele>
        <time>2011-06-26T11:09:28Z</time>
      </trkpt>
      <trkpt lat="45.46893" lon="6.90657">
        <ele>2103.5</ele>
        <time>2011-06-26T11:09:33Z</time>
      </trkpt>
      <trkpt lat="45.46895" lon="6.90658">
        <ele>2099.66</ele>
        <time>2011-06-26T11:09:34Z</time>
      </trkpt>
      <trkpt lat="45.46909" lon="6.90658">
        <ele>2103.98</ele>
        <time>2011-06-26T11:09:43Z</time>
      </trkpt>
      <trkpt lat="45.46929" lon="6.90647">
        <ele>2103.02</ele>
        <time>2011-06-26T11:09:56Z</time>
      </trkpt>
      <trkpt lat="45.46934" lon="6.90641">
        <ele>2101.1</ele>
        <time>2011-06-26T11:09:59Z</time>
      </trkpt>
      <trkpt lat="45.4694" lon="6.90631">
        <ele>2103.98</ele>
        <time>2011-06-26T11:10:07Z</time>
      </trkpt>
      <trkpt lat="45.46956" lon="6.90614">
        <ele>2107.35</ele>
        <time>2011-06-26T11:10:23Z</time>
      </trkpt>
      <trkpt lat="45.46957" lon="6.90614">
        <ele>2106.87</ele>
        <time>2011-06-26T11:10:24Z</time>
      </trkpt>
      <trkpt lat="45.4696" lon="6.90613">
        <ele>2102.54</ele>
        <time>2011-06-26T11:10:26Z</time>
      </trkpt>
      <trkpt lat="45.46961" lon="6.90612">
        <ele>2103.5</ele>
        <time>2011-06-26T11:10:27Z</time>
      </trkpt>
      <trkpt lat="45.46962" lon="6.90611">
        <ele>2105.42</ele>
        <time>2011-06-26T11:10:29Z</time>
      </trkpt>
      <trkpt lat="45.46983" lon="6.90607">
        <ele>2108.79</ele>
        <time>2011-06-26T11:10:43Z</time>
      </trkpt>
      <trkpt lat="45.46993" lon="6.90602">
        <ele>2111.67</ele>
        <time>2011-06-26T11:10:55Z</time>
      </trkpt>
      <trkpt lat="45.46994" lon="6.90602">
        <ele>2112.15</ele>
        <time>2011-06-26T11:10:56Z</time>
      </trkpt>
      <trkpt lat="45.47004" lon="6.90602">
        <ele>2114.56</ele>
        <time>2011-06-26T11:11:06Z</time>
      </trkpt>
      <trkpt lat="45.47021" lon="6.90604">
        <ele>2116.96</ele>
        <time>2011-06-26T11:11:20Z</time>
      </trkpt>
      <trkpt lat="45.47044" lon="6.90601">
        <ele>2119.84</ele>
        <time>2011-06-26T11:11:35Z</time>
      </trkpt>
      <trkpt lat="45.47051" lon="6.90599">
        <ele>2119.84</ele>
        <time>2011-06-26T11:11:39Z</time>
      </trkpt>
      <trkpt lat="45.47067" lon="6.90598">
        <ele>2122.25</ele>
        <time>2011-06-26T11:11:48Z</time>
      </trkpt>
      <trkpt lat="45.47085" lon="6.90592">
        <ele>2124.17</ele>
        <time>2011-06-26T11:12:00Z</time>
      </trkpt>
      <trkpt lat="45.47099" lon="6.90584">
        <ele>2126.09</ele>
        <time>2011-06-26T11:12:13Z</time>
      </trkpt>
      <trkpt lat="45.47103" lon="6.90581">
        <ele>2126.57</ele>
        <time>2011-06-26T11:12:17Z</time>
      </trkpt>
      <trkpt lat="45.47111" lon="6.90578">
        <ele>2128.02</ele>
        <time>2011-06-26T11:12:24Z</time>
      </trkpt>
      <trkpt lat="45.47118" lon="6.90571">
        <ele>2128.98</ele>
        <time>2011-06-26T11:12:31Z</time>
      </trkpt>
      <trkpt lat="45.47126" lon="6.90561">
        <ele>2132.34</ele>
        <time>2011-06-26T11:12:40Z</time>
      </trkpt>
      <trkpt lat="45.47139" lon="6.90546">
        <ele>2132.34</ele>
        <time>2011-06-26T11:12:52Z</time>
      </trkpt>
      <trkpt lat="45.47146" lon="6.90525">
        <ele>2136.19</ele>
        <time>2011-06-26T11:13:06Z</time>
      </trkpt>
      <trkpt lat="45.47146" lon="6.90523">
        <ele>2135.71</ele>
        <time>2011-06-26T11:13:07Z</time>
      </trkpt>
      <trkpt lat="45.47151" lon="6.90508">
        <ele>2136.67</ele>
        <time>2011-06-26T11:13:17Z</time>
      </trkpt>
      <trkpt lat="45.47165" lon="6.90496">
        <ele>2139.55</ele>
        <time>2011-06-26T11:13:31Z</time>
      </trkpt>
      <trkpt lat="45.47185" lon="6.90495">
        <ele>2142.92</ele>
        <time>2011-06-26T11:13:45Z</time>
      </trkpt>
      <trkpt lat="45.47186" lon="6.90494">
        <ele>2140.03</ele>
        <time>2011-06-26T11:13:46Z</time>
      </trkpt>
      <trkpt lat="45.4719" lon="6.90493">
        <ele>2142.92</ele>
        <time>2011-06-26T11:13:50Z</time>
      </trkpt>
      <trkpt lat="45.472" lon="6.90493">
        <ele>2143.88</ele>
        <time>2011-06-26T11:13:58Z</time>
      </trkpt>
      <trkpt lat="45.47225" lon="6.90501">
        <ele>2147.24</ele>
        <time>2011-06-26T11:14:15Z</time>
      </trkpt>
      <trkpt lat="45.47241" lon="6.90512">
        <ele>2147.72</ele>
        <time>2011-06-26T11:14:27Z</time>
      </trkpt>
      <trkpt lat="45.47256" lon="6.9053">
        <ele>2150.13</ele>
        <time>2011-06-26T11:14:40Z</time>
      </trkpt>
      <trkpt lat="45.47266" lon="6.90545">
        <ele>2152.05</ele>
        <time>2011-06-26T11:14:50Z</time>
      </trkpt>
      <trkpt lat="45.4727" lon="6.9055">
        <ele>2152.05</ele>
        <time>2011-06-26T11:14:55Z</time>
      </trkpt>
      <trkpt lat="45.47282" lon="6.90564">
        <ele>2156.37</ele>
        <time>2011-06-26T11:15:09Z</time>
      </trkpt>
      <trkpt lat="45.47286" lon="6.90567">
        <ele>2156.37</ele>
        <time>2011-06-26T11:15:12Z</time>
      </trkpt>
      <trkpt lat="45.4729" lon="6.90571">
        <ele>2156.86</ele>
        <time>2011-06-26T11:15:16Z</time>
      </trkpt>
      <trkpt lat="45.47306" lon="6.90582">
        <ele>2158.78</ele>
        <time>2011-06-26T11:15:31Z</time>
      </trkpt>
      <trkpt lat="45.47324" lon="6.90592">
        <ele>2162.14</ele>
        <time>2011-06-26T11:15:47Z</time>
      </trkpt>
      <trkpt lat="45.47333" lon="6.90597">
        <ele>2162.14</ele>
        <time>2011-06-26T11:15:55Z</time>
      </trkpt>
      <trkpt lat="45.47348" lon="6.90611">
        <ele>2165.03</ele>
        <time>2011-06-26T11:16:08Z</time>
      </trkpt>
      <trkpt lat="45.47362" lon="6.90626">
        <ele>2168.39</ele>
        <time>2011-06-26T11:16:22Z</time>
      </trkpt>
      <trkpt lat="45.47386" lon="6.9065">
        <ele>2169.35</ele>
        <time>2011-06-26T11:16:46Z</time>
      </trkpt>
      <trkpt lat="45.47398" lon="6.90664">
        <ele>2172.72</ele>
        <time>2011-06-26T11:16:59Z</time>
      </trkpt>
      <trkpt lat="45.47412" lon="6.90678">
        <ele>2173.68</ele>
        <time>2011-06-26T11:17:10Z</time>
      </trkpt>
      <trkpt lat="45.47429" lon="6.90698">
        <ele>2176.08</ele>
        <time>2011-06-26T11:17:24Z</time>
      </trkpt>
      <trkpt lat="45.47434" lon="6.90704">
        <ele>2177.04</ele>
        <time>2011-06-26T11:17:28Z</time>
      </trkpt>
      <trkpt lat="45.4745" lon="6.9073">
        <ele>2178.48</ele>
        <time>2011-06-26T11:17:43Z</time>
      </trkpt>
      <trkpt lat="45.47458" lon="6.9075">
        <ele>2179.45</ele>
        <time>2011-06-26T11:17:53Z</time>
      </trkpt>
      <trkpt lat="45.47472" lon="6.90772">
        <ele>2181.37</ele>
        <time>2011-06-26T11:18:07Z</time>
      </trkpt>
      <trkpt lat="45.47479" lon="6.90781">
        <ele>2182.33</ele>
        <time>2011-06-26T11:18:14Z</time>
      </trkpt>
      <trkpt lat="45.47481" lon="6.90766">
        <ele>2184.25</ele>
        <time>2011-06-26T11:18:24Z</time>
      </trkpt>
      <trkpt lat="45.47472" lon="6.90744">
        <ele>2185.21</ele>
        <time>2011-06-26T11:18:36Z</time>
      </trkpt>
      <trkpt lat="45.47471" lon="6.90734">
        <ele>2186.18</ele>
        <time>2011-06-26T11:18:41Z</time>
      </trkpt>
      <trkpt lat="45.47473" lon="6.90709">
        <ele>2188.1</ele>
        <time>2011-06-26T11:18:55Z</time>
      </trkpt>
      <trkpt lat="45.47477" lon="6.90698">
        <ele>2189.54</ele>
        <time>2011-06-26T11:19:02Z</time>
      </trkpt>
      <trkpt lat="45.47482" lon="6.90695">
        <ele>2190.98</ele>
        <time>2011-06-26T11:19:06Z</time>
      </trkpt>
      <trkpt lat="45.47498" lon="6.90707">
        <ele>2192.42</ele>
        <time>2011-06-26T11:19:18Z</time>
      </trkpt>
      <trkpt lat="45.47501" lon="6.90711">
        <ele>2194.35</ele>
        <time>2011-06-26T11:19:21Z</time>
      </trkpt>
      <trkpt lat="45.47504" lon="6.90714">
        <ele>2194.35</ele>
        <time>2011-06-26T11:19:23Z</time>
      </trkpt>
      <trkpt lat="45.4751" lon="6.90719">
        <ele>2193.87</ele>
        <time>2011-06-26T11:19:28Z</time>
      </trkpt>
      <trkpt lat="45.47514" lon="6.90725">
        <ele>2195.31</ele>
        <time>2011-06-26T11:19:32Z</time>
      </trkpt>
      <trkpt lat="45.47533" lon="6.90738">
        <ele>2197.71</ele>
        <time>2011-06-26T11:19:48Z</time>
      </trkpt>
      <trkpt lat="45.47533" lon="6.90737">
        <ele>2195.31</ele>
        <time>2011-06-26T11:19:59Z</time>
      </trkpt>
      <trkpt lat="45.47533" lon="6.90737">
        <ele>2197.23</ele>
        <time>2011-06-26T11:20:01Z</time>
      </trkpt>
      <trkpt lat="45.47533" lon="6.90737">
        <ele>2198.19</ele>
        <time>2011-06-26T11:20:13Z</time>
      </trkpt>
      <trkpt lat="45.47535" lon="6.9075">
        <ele>2198.19</ele>
        <time>2011-06-26T11:20:20Z</time>
      </trkpt>
      <trkpt lat="45.47543" lon="6.90766">
        <ele>2201.08</ele>
        <time>2011-06-26T11:20:30Z</time>
      </trkpt>
      <trkpt lat="45.47557" lon="6.90783">
        <ele>2202.52</ele>
        <time>2011-06-26T11:20:43Z</time>
      </trkpt>
      <trkpt lat="45.47572" lon="6.90793">
        <ele>2203.96</ele>
        <time>2011-06-26T11:20:56Z</time>
      </trkpt>
      <trkpt lat="45.47579" lon="6.90802">
        <ele>2204.92</ele>
        <time>2011-06-26T11:21:02Z</time>
      </trkpt>
      <trkpt lat="45.47593" lon="6.90836">
        <ele>2207.32</ele>
        <time>2011-06-26T11:21:21Z</time>
      </trkpt>
      <trkpt lat="45.47606" lon="6.90858">
        <ele>2209.25</ele>
        <time>2011-06-26T11:21:34Z</time>
      </trkpt>
      <trkpt lat="45.47622" lon="6.90879">
        <ele>2210.69</ele>
        <time>2011-06-26T11:21:49Z</time>
      </trkpt>
      <trkpt lat="45.47637" lon="6.90893">
        <ele>2212.61</ele>
        <time>2011-06-26T11:22:03Z</time>
      </trkpt>
      <trkpt lat="45.47647" lon="6.90899">
        <ele>2213.57</ele>
        <time>2011-06-26T11:22:12Z</time>
      </trkpt>
      <trkpt lat="45.47666" lon="6.90892">
        <ele>2216.46</ele>
        <time>2011-06-26T11:22:28Z</time>
      </trkpt>
      <trkpt lat="45.47675" lon="6.90874">
        <ele>2217.9</ele>
        <time>2011-06-26T11:22:39Z</time>
      </trkpt>
      <trkpt lat="45.47683" lon="6.90861">
        <ele>2218.86</ele>
        <time>2011-06-26T11:22:48Z</time>
      </trkpt>
      <trkpt lat="45.47701" lon="6.90853">
        <ele>2223.19</ele>
        <time>2011-06-26T11:23:02Z</time>
      </trkpt>
      <trkpt lat="45.4771" lon="6.90854">
        <ele>2224.15</ele>
        <time>2011-06-26T11:23:09Z</time>
      </trkpt>
      <trkpt lat="45.47721" lon="6.90856">
        <ele>2224.63</ele>
        <time>2011-06-26T11:23:17Z</time>
      </trkpt>
      <trkpt lat="45.47729" lon="6.90859">
        <ele>2226.55</ele>
        <time>2011-06-26T11:23:23Z</time>
      </trkpt>
      <trkpt lat="45.47748" lon="6.90874">
        <ele>2227.51</ele>
        <time>2011-06-26T11:23:35Z</time>
      </trkpt>
      <trkpt lat="45.47762" lon="6.90896">
        <ele>2230.4</ele>
        <time>2011-06-26T11:23:49Z</time>
      </trkpt>
      <trkpt lat="45.47775" lon="6.90916">
        <ele>2231.36</ele>
        <time>2011-06-26T11:24:02Z</time>
      </trkpt>
      <trkpt lat="45.4779" lon="6.90946">
        <ele>2231.36</ele>
        <time>2011-06-26T11:24:14Z</time>
      </trkpt>
      <trkpt lat="45.47807" lon="6.9097">
        <ele>2232.8</ele>
        <time>2011-06-26T11:24:25Z</time>
      </trkpt>
      <trkpt lat="45.47816" lon="6.9098">
        <ele>2232.8</ele>
        <time>2011-06-26T11:24:35Z</time>
      </trkpt>
      <trkpt lat="45.47815" lon="6.9098">
        <ele>2233.28</ele>
        <time>2011-06-26T11:24:39Z</time>
      </trkpt>
      <trkpt lat="45.47827" lon="6.90987">
        <ele>2234.24</ele>
        <time>2011-06-26T11:24:49Z</time>
      </trkpt>
      <trkpt lat="45.47841" lon="6.90981">
        <ele>2234.72</ele>
        <time>2011-06-26T11:25:01Z</time>
      </trkpt>
      <trkpt lat="45.47845" lon="6.90979">
        <ele>2235.68</ele>
        <time>2011-06-26T11:25:04Z</time>
      </trkpt>
      <trkpt lat="45.4786" lon="6.90968">
        <ele>2236.16</ele>
        <time>2011-06-26T11:25:16Z</time>
      </trkpt>
      <trkpt lat="45.47875" lon="6.90967">
        <ele>2235.68</ele>
        <time>2011-06-26T11:25:27Z</time>
      </trkpt>
      <trkpt lat="45.47896" lon="6.90971">
        <ele>2237.13</ele>
        <time>2011-06-26T11:25:39Z</time>
      </trkpt>
      <trkpt lat="45.47915" lon="6.90971">
        <ele>2238.09</ele>
        <time>2011-06-26T11:25:53Z</time>
      </trkpt>
      <trkpt lat="45.47936" lon="6.90974">
        <ele>2239.05</ele>
        <time>2011-06-26T11:26:07Z</time>
      </trkpt>
      <trkpt lat="45.47959" lon="6.9098">
        <ele>2240.01</ele>
        <time>2011-06-26T11:26:21Z</time>
      </trkpt>
      <trkpt lat="45.47977" lon="6.9099">
        <ele>2241.45</ele>
        <time>2011-06-26T11:26:33Z</time>
      </trkpt>
      <trkpt lat="45.47997" lon="6.9101">
        <ele>2243.37</ele>
        <time>2011-06-26T11:26:49Z</time>
      </trkpt>
      <trkpt lat="45.48013" lon="6.91027">
        <ele>2244.33</ele>
        <time>2011-06-26T11:27:03Z</time>
      </trkpt>
      <trkpt lat="45.48018" lon="6.91032">
        <ele>2244.33</ele>
        <time>2011-06-26T11:27:07Z</time>
      </trkpt>
      <trkpt lat="45.48037" lon="6.91044">
        <ele>2246.74</ele>
        <time>2011-06-26T11:27:22Z</time>
      </trkpt>
      <trkpt lat="45.48061" lon="6.91059">
        <ele>2247.7</ele>
        <time>2011-06-26T11:27:38Z</time>
      </trkpt>
      <trkpt lat="45.48063" lon="6.91061">
        <ele>2248.66</ele>
        <time>2011-06-26T11:27:40Z</time>
      </trkpt>
      <trkpt lat="45.48083" lon="6.91072">
        <ele>2252.03</ele>
        <time>2011-06-26T11:27:55Z</time>
      </trkpt>
      <trkpt lat="45.48109" lon="6.91091">
        <ele>2253.47</ele>
        <time>2011-06-26T11:28:15Z</time>
      </trkpt>
      <trkpt lat="45.48128" lon="6.91106">
        <ele>2256.35</ele>
        <time>2011-06-26T11:28:31Z</time>
      </trkpt>
      <trkpt lat="45.48145" lon="6.91136">
        <ele>2255.87</ele>
        <time>2011-06-26T11:28:48Z</time>
      </trkpt>
      <trkpt lat="45.48145" lon="6.91157">
        <ele>2253.95</ele>
        <time>2011-06-26T11:28:58Z</time>
      </trkpt>
      <trkpt lat="45.48145" lon="6.91159">
        <ele>2254.91</ele>
        <time>2011-06-26T11:28:59Z</time>
      </trkpt>
      <trkpt lat="45.48147" lon="6.91168">
        <ele>2254.43</ele>
        <time>2011-06-26T11:29:03Z</time>
      </trkpt>
      <trkpt lat="45.48148" lon="6.9118">
        <ele>2253.47</ele>
        <time>2011-06-26T11:29:09Z</time>
      </trkpt>
      <trkpt lat="45.48149" lon="6.91183">
        <ele>2254.43</ele>
        <time>2011-06-26T11:29:11Z</time>
      </trkpt>
      <trkpt lat="45.48149" lon="6.91193">
        <ele>2255.39</ele>
        <time>2011-06-26T11:29:17Z</time>
      </trkpt>
      <trkpt lat="45.48148" lon="6.91203">
        <ele>2252.99</ele>
        <time>2011-06-26T11:29:22Z</time>
      </trkpt>
      <trkpt lat="45.48146" lon="6.91222">
        <ele>2250.1</ele>
        <time>2011-06-26T11:29:33Z</time>
      </trkpt>
      <trkpt lat="45.48139" lon="6.91252">
        <ele>2247.7</ele>
        <time>2011-06-26T11:29:50Z</time>
      </trkpt>
      <trkpt lat="45.48124" lon="6.91273">
        <ele>2244.82</ele>
        <time>2011-06-26T11:30:04Z</time>
      </trkpt>
      <trkpt lat="45.48119" lon="6.91291">
        <ele>2244.82</ele>
        <time>2011-06-26T11:30:14Z</time>
      </trkpt>
      <trkpt lat="45.4812" lon="6.91305">
        <ele>2241.93</ele>
        <time>2011-06-26T11:30:20Z</time>
      </trkpt>
      <trkpt lat="45.48129" lon="6.91339">
        <ele>2240.49</ele>
        <time>2011-06-26T11:30:33Z</time>
      </trkpt>
      <trkpt lat="45.48137" lon="6.9135">
        <ele>2238.09</ele>
        <time>2011-06-26T11:30:38Z</time>
      </trkpt>
      <trkpt lat="45.48155" lon="6.91376">
        <ele>2235.68</ele>
        <time>2011-06-26T11:30:49Z</time>
      </trkpt>
      <trkpt lat="45.4816" lon="6.91406">
        <ele>2232.8</ele>
        <time>2011-06-26T11:30:59Z</time>
      </trkpt>
      <trkpt lat="45.48159" lon="6.91417">
        <ele>2231.84</ele>
        <time>2011-06-26T11:31:03Z</time>
      </trkpt>
      <trkpt lat="45.48171" lon="6.91441">
        <ele>2229.92</ele>
        <time>2011-06-26T11:31:14Z</time>
      </trkpt>
      <trkpt lat="45.48191" lon="6.91459">
        <ele>2227.99</ele>
        <time>2011-06-26T11:31:25Z</time>
      </trkpt>
      <trkpt lat="45.48205" lon="6.91492">
        <ele>2225.59</ele>
        <time>2011-06-26T11:31:37Z</time>
      </trkpt>
      <trkpt lat="45.48207" lon="6.91532">
        <ele>2222.71</ele>
        <time>2011-06-26T11:31:49Z</time>
      </trkpt>
      <trkpt lat="45.48212" lon="6.91569">
        <ele>2220.3</ele>
        <time>2011-06-26T11:32:01Z</time>
      </trkpt>
      <trkpt lat="45.48216" lon="6.91578">
        <ele>2218.86</ele>
        <time>2011-06-26T11:32:04Z</time>
      </trkpt>
      <trkpt lat="45.48222" lon="6.91593">
        <ele>2217.42</ele>
        <time>2011-06-26T11:32:09Z</time>
      </trkpt>
      <trkpt lat="45.4823" lon="6.91609">
        <ele>2214.05</ele>
        <time>2011-06-26T11:32:15Z</time>
      </trkpt>
      <trkpt lat="45.48237" lon="6.91623">
        <ele>2213.57</ele>
        <time>2011-06-26T11:32:20Z</time>
      </trkpt>
      <trkpt lat="45.48241" lon="6.91636">
        <ele>2212.61</ele>
        <time>2011-06-26T11:32:25Z</time>
      </trkpt>
      <trkpt lat="45.48241" lon="6.9164">
        <ele>2213.09</ele>
        <time>2011-06-26T11:32:35Z</time>
      </trkpt>
      <trkpt lat="45.48255" lon="6.91658">
        <ele>2212.13</ele>
        <time>2011-06-26T11:32:48Z</time>
      </trkpt>
      <trkpt lat="45.48273" lon="6.91673">
        <ele>2210.21</ele>
        <time>2011-06-26T11:32:57Z</time>
      </trkpt>
      <trkpt lat="45.48294" lon="6.91687">
        <ele>2205.4</ele>
        <time>2011-06-26T11:33:07Z</time>
      </trkpt>
      <trkpt lat="45.48308" lon="6.91697">
        <ele>2203.48</ele>
        <time>2011-06-26T11:33:17Z</time>
      </trkpt>
      <trkpt lat="45.48325" lon="6.91709">
        <ele>2201.08</ele>
        <time>2011-06-26T11:33:25Z</time>
      </trkpt>
      <trkpt lat="45.48349" lon="6.91724">
        <ele>2198.19</ele>
        <time>2011-06-26T11:33:37Z</time>
      </trkpt>
      <trkpt lat="45.48372" lon="6.91734">
        <ele>2194.35</ele>
        <time>2011-06-26T11:33:47Z</time>
      </trkpt>
      <trkpt lat="45.48397" lon="6.91751">
        <ele>2192.9</ele>
        <time>2011-06-26T11:33:59Z</time>
      </trkpt>
      <trkpt lat="45.48402" lon="6.91752">
        <ele>2191.46</ele>
        <time>2011-06-26T11:34:01Z</time>
      </trkpt>
      <trkpt lat="45.48419" lon="6.91754">
        <ele>2188.58</ele>
        <time>2011-06-26T11:34:09Z</time>
      </trkpt>
      <trkpt lat="45.48443" lon="6.91755">
        <ele>2186.18</ele>
        <time>2011-06-26T11:34:20Z</time>
      </trkpt>
      <trkpt lat="45.48461" lon="6.91754">
        <ele>2182.81</ele>
        <time>2011-06-26T11:34:27Z</time>
      </trkpt>
      <trkpt lat="45.48489" lon="6.91747">
        <ele>2181.37</ele>
        <time>2011-06-26T11:34:39Z</time>
      </trkpt>
      <trkpt lat="45.48506" lon="6.91745">
        <ele>2178</ele>
        <time>2011-06-26T11:34:45Z</time>
      </trkpt>
      <trkpt lat="45.48508" lon="6.91745">
        <ele>2178.48</ele>
        <time>2011-06-26T11:34:46Z</time>
      </trkpt>
      <trkpt lat="45.48527" lon="6.91733">
        <ele>2177.52</ele>
        <time>2011-06-26T11:34:56Z</time>
      </trkpt>
      <trkpt lat="45.48542" lon="6.91721">
        <ele>2175.12</ele>
        <time>2011-06-26T11:35:03Z</time>
      </trkpt>
      <trkpt lat="45.48547" lon="6.91713">
        <ele>2174.16</ele>
        <time>2011-06-26T11:35:08Z</time>
      </trkpt>
      <trkpt lat="45.4855" lon="6.91705">
        <ele>2174.16</ele>
        <time>2011-06-26T11:35:12Z</time>
      </trkpt>
      <trkpt lat="45.48557" lon="6.9169">
        <ele>2171.76</ele>
        <time>2011-06-26T11:35:19Z</time>
      </trkpt>
      <trkpt lat="45.48564" lon="6.91682">
        <ele>2171.76</ele>
        <time>2011-06-26T11:35:25Z</time>
      </trkpt>
      <trkpt lat="45.48569" lon="6.91677">
        <ele>2170.79</ele>
        <time>2011-06-26T11:35:29Z</time>
      </trkpt>
      <trkpt lat="45.48571" lon="6.91674">
        <ele>2169.83</ele>
        <time>2011-06-26T11:35:31Z</time>
      </trkpt>
      <trkpt lat="45.48581" lon="6.91663">
        <ele>2169.35</ele>
        <time>2011-06-26T11:35:39Z</time>
      </trkpt>
      <trkpt lat="45.48591" lon="6.91658">
        <ele>2168.39</ele>
        <time>2011-06-26T11:35:45Z</time>
      </trkpt>
      <trkpt lat="45.48612" lon="6.9165">
        <ele>2167.43</ele>
        <time>2011-06-26T11:35:59Z</time>
      </trkpt>
      <trkpt lat="45.48615" lon="6.91649">
        <ele>2166.47</ele>
        <time>2011-06-26T11:36:01Z</time>
      </trkpt>
      <trkpt lat="45.48638" lon="6.9163">
        <ele>2164.55</ele>
        <time>2011-06-26T11:36:12Z</time>
      </trkpt>
      <trkpt lat="45.4866" lon="6.91616">
        <ele>2165.51</ele>
        <time>2011-06-26T11:36:24Z</time>
      </trkpt>
      <trkpt lat="45.48671" lon="6.91611">
        <ele>2166.95</ele>
        <time>2011-06-26T11:36:29Z</time>
      </trkpt>
      <trkpt lat="45.48683" lon="6.91608">
        <ele>2164.55</ele>
        <time>2011-06-26T11:36:35Z</time>
      </trkpt>
      <trkpt lat="45.48702" lon="6.91595">
        <ele>2163.1</ele>
        <time>2011-06-26T11:36:44Z</time>
      </trkpt>
      <trkpt lat="45.48721" lon="6.91584">
        <ele>2163.58</ele>
        <time>2011-06-26T11:36:55Z</time>
      </trkpt>
      <trkpt lat="45.48734" lon="6.91572">
        <ele>2165.51</ele>
        <time>2011-06-26T11:37:07Z</time>
      </trkpt>
      <trkpt lat="45.48757" lon="6.91556">
        <ele>2166.95</ele>
        <time>2011-06-26T11:37:26Z</time>
      </trkpt>
      <trkpt lat="45.48759" lon="6.91554">
        <ele>2168.39</ele>
        <time>2011-06-26T11:37:28Z</time>
      </trkpt>
      <trkpt lat="45.48763" lon="6.91541">
        <ele>2167.91</ele>
        <time>2011-06-26T11:37:35Z</time>
      </trkpt>
      <trkpt lat="45.48765" lon="6.91536">
        <ele>2168.39</ele>
        <time>2011-06-26T11:37:38Z</time>
      </trkpt>
      <trkpt lat="45.48768" lon="6.91534">
        <ele>2167.91</ele>
        <time>2011-06-26T11:37:41Z</time>
      </trkpt>
      <trkpt lat="45.4877" lon="6.91531">
        <ele>2166.95</ele>
        <time>2011-06-26T11:37:43Z</time>
      </trkpt>
      <trkpt lat="45.48774" lon="6.91527">
        <ele>2165.99</ele>
        <time>2011-06-26T11:37:46Z</time>
      </trkpt>
      <trkpt lat="45.48779" lon="6.91524">
        <ele>2166.47</ele>
        <time>2011-06-26T11:37:49Z</time>
      </trkpt>
      <trkpt lat="45.48802" lon="6.91518">
        <ele>2167.91</ele>
        <time>2011-06-26T11:38:05Z</time>
      </trkpt>
      <trkpt lat="45.48806" lon="6.91517">
        <ele>2169.35</ele>
        <time>2011-06-26T11:38:08Z</time>
      </trkpt>
      <trkpt lat="45.48815" lon="6.91511">
        <ele>2170.79</ele>
        <time>2011-06-26T11:38:16Z</time>
      </trkpt>
      <trkpt lat="45.48819" lon="6.9151">
        <ele>2171.27</ele>
        <time>2011-06-26T11:38:19Z</time>
      </trkpt>
      <trkpt lat="45.48841" lon="6.91498">
        <ele>2173.68</ele>
        <time>2011-06-26T11:38:36Z</time>
      </trkpt>
      <trkpt lat="45.48862" lon="6.91481">
        <ele>2174.16</ele>
        <time>2011-06-26T11:38:52Z</time>
      </trkpt>
      <trkpt lat="45.48864" lon="6.91479">
        <ele>2174.64</ele>
        <time>2011-06-26T11:38:53Z</time>
      </trkpt>
      <trkpt lat="45.48869" lon="6.91474">
        <ele>2174.16</ele>
        <time>2011-06-26T11:38:57Z</time>
      </trkpt>
      <trkpt lat="45.48873" lon="6.91467">
        <ele>2173.2</ele>
        <time>2011-06-26T11:39:02Z</time>
      </trkpt>
      <trkpt lat="45.48876" lon="6.91462">
        <ele>2171.76</ele>
        <time>2011-06-26T11:39:05Z</time>
      </trkpt>
      <trkpt lat="45.48881" lon="6.91458">
        <ele>2173.68</ele>
        <time>2011-06-26T11:39:08Z</time>
      </trkpt>
      <trkpt lat="45.48885" lon="6.91453">
        <ele>2173.68</ele>
        <time>2011-06-26T11:39:11Z</time>
      </trkpt>
      <trkpt lat="45.48903" lon="6.91432">
        <ele>2175.6</ele>
        <time>2011-06-26T11:39:24Z</time>
      </trkpt>
      <trkpt lat="45.48904" lon="6.91431">
        <ele>2175.6</ele>
        <time>2011-06-26T11:39:25Z</time>
      </trkpt>
      <trkpt lat="45.48916" lon="6.9142">
        <ele>2178.48</ele>
        <time>2011-06-26T11:39:33Z</time>
      </trkpt>
      <trkpt lat="45.48923" lon="6.91414">
        <ele>2177.04</ele>
        <time>2011-06-26T11:39:37Z</time>
      </trkpt>
      <trkpt lat="45.48928" lon="6.9141">
        <ele>2177.52</ele>
        <time>2011-06-26T11:39:40Z</time>
      </trkpt>
      <trkpt lat="45.48935" lon="6.91406">
        <ele>2178</ele>
        <time>2011-06-26T11:39:44Z</time>
      </trkpt>
      <trkpt lat="45.48959" lon="6.91407">
        <ele>2177.52</ele>
        <time>2011-06-26T11:39:54Z</time>
      </trkpt>
      <trkpt lat="45.48987" lon="6.9139">
        <ele>2177.52</ele>
        <time>2011-06-26T11:40:07Z</time>
      </trkpt>
      <trkpt lat="45.48993" lon="6.91387">
        <ele>2178.97</ele>
        <time>2011-06-26T11:40:10Z</time>
      </trkpt>
      <trkpt lat="45.49018" lon="6.9138">
        <ele>2178.97</ele>
        <time>2011-06-26T11:40:23Z</time>
      </trkpt>
      <trkpt lat="45.49044" lon="6.91383">
        <ele>2177.52</ele>
        <time>2011-06-26T11:40:34Z</time>
      </trkpt>
      <trkpt lat="45.49072" lon="6.91394">
        <ele>2177.04</ele>
        <time>2011-06-26T11:40:45Z</time>
      </trkpt>
      <trkpt lat="45.49099" lon="6.91401">
        <ele>2175.6</ele>
        <time>2011-06-26T11:40:57Z</time>
      </trkpt>
      <trkpt lat="45.49126" lon="6.91411">
        <ele>2172.24</ele>
        <time>2011-06-26T11:41:08Z</time>
      </trkpt>
      <trkpt lat="45.49141" lon="6.91421">
        <ele>2170.31</ele>
        <time>2011-06-26T11:41:14Z</time>
      </trkpt>
      <trkpt lat="45.49155" lon="6.9143">
        <ele>2168.39</ele>
        <time>2011-06-26T11:41:20Z</time>
      </trkpt>
      <trkpt lat="45.49166" lon="6.91436">
        <ele>2165.03</ele>
        <time>2011-06-26T11:41:24Z</time>
      </trkpt>
      <trkpt lat="45.49202" lon="6.91463">
        <ele>2163.58</ele>
        <time>2011-06-26T11:41:38Z</time>
      </trkpt>
      <trkpt lat="45.49214" lon="6.91474">
        <ele>2162.14</ele>
        <time>2011-06-26T11:41:43Z</time>
      </trkpt>
      <trkpt lat="45.49237" lon="6.91486">
        <ele>2158.78</ele>
        <time>2011-06-26T11:41:53Z</time>
      </trkpt>
      <trkpt lat="45.4925" lon="6.91495">
        <ele>2156.86</ele>
        <time>2011-06-26T11:41:59Z</time>
      </trkpt>
      <trkpt lat="45.49268" lon="6.91512">
        <ele>2153.49</ele>
        <time>2011-06-26T11:42:08Z</time>
      </trkpt>
      <trkpt lat="45.49271" lon="6.91514">
        <ele>2152.05</ele>
        <time>2011-06-26T11:42:26Z</time>
      </trkpt>
      <trkpt lat="45.49273" lon="6.91517">
        <ele>2152.05</ele>
        <time>2011-06-26T11:42:40Z</time>
      </trkpt>
      <trkpt lat="45.49279" lon="6.91525">
        <ele>2150.13</ele>
        <time>2011-06-26T11:42:44Z</time>
      </trkpt>
      <trkpt lat="45.49281" lon="6.9153">
        <ele>2150.13</ele>
        <time>2011-06-26T11:42:57Z</time>
      </trkpt>
      <trkpt lat="45.49285" lon="6.91539">
        <ele>2147.24</ele>
        <time>2011-06-26T11:43:02Z</time>
      </trkpt>
      <trkpt lat="45.49291" lon="6.91545">
        <ele>2144.84</ele>
        <time>2011-06-26T11:43:08Z</time>
      </trkpt>
      <trkpt lat="45.49298" lon="6.91553">
        <ele>2141.95</ele>
        <time>2011-06-26T11:43:13Z</time>
      </trkpt>
      <trkpt lat="45.493" lon="6.91558">
        <ele>2140.99</ele>
        <time>2011-06-26T11:43:15Z</time>
      </trkpt>
      <trkpt lat="45.49299" lon="6.91572">
        <ele>2137.63</ele>
        <time>2011-06-26T11:43:20Z</time>
      </trkpt>
      <trkpt lat="45.49299" lon="6.91575">
        <ele>2137.63</ele>
        <time>2011-06-26T11:43:21Z</time>
      </trkpt>
      <trkpt lat="45.49304" lon="6.91594">
        <ele>2134.26</ele>
        <time>2011-06-26T11:43:28Z</time>
      </trkpt>
      <trkpt lat="45.49305" lon="6.91596">
        <ele>2134.26</ele>
        <time>2011-06-26T11:43:29Z</time>
      </trkpt>
      <trkpt lat="45.49322" lon="6.91601">
        <ele>2129.94</ele>
        <time>2011-06-26T11:43:37Z</time>
      </trkpt>
      <trkpt lat="45.49325" lon="6.91601">
        <ele>2128.98</ele>
        <time>2011-06-26T11:43:39Z</time>
      </trkpt>
      <trkpt lat="45.49333" lon="6.916">
        <ele>2127.53</ele>
        <time>2011-06-26T11:43:49Z</time>
      </trkpt>
      <trkpt lat="45.49334" lon="6.916">
        <ele>2127.53</ele>
        <time>2011-06-26T11:43:50Z</time>
      </trkpt>
      <trkpt lat="45.49338" lon="6.91598">
        <ele>2126.57</ele>
        <time>2011-06-26T11:43:53Z</time>
      </trkpt>
      <trkpt lat="45.49353" lon="6.91593">
        <ele>2123.21</ele>
        <time>2011-06-26T11:44:01Z</time>
      </trkpt>
      <trkpt lat="45.49355" lon="6.91592">
        <ele>2124.17</ele>
        <time>2011-06-26T11:44:02Z</time>
      </trkpt>
      <trkpt lat="45.49365" lon="6.916">
        <ele>2119.36</ele>
        <time>2011-06-26T11:44:08Z</time>
      </trkpt>
      <trkpt lat="45.49363" lon="6.91628">
        <ele>2115.52</ele>
        <time>2011-06-26T11:44:18Z</time>
      </trkpt>
      <trkpt lat="45.49355" lon="6.9165">
        <ele>2112.63</ele>
        <time>2011-06-26T11:44:28Z</time>
      </trkpt>
      <trkpt lat="45.49354" lon="6.91655">
        <ele>2111.19</ele>
        <time>2011-06-26T11:44:31Z</time>
      </trkpt>
      <trkpt lat="45.49347" lon="6.91671">
        <ele>2107.83</ele>
        <time>2011-06-26T11:44:39Z</time>
      </trkpt>
      <trkpt lat="45.49344" lon="6.9168">
        <ele>2104.94</ele>
        <time>2011-06-26T11:44:42Z</time>
      </trkpt>
      <trkpt lat="45.49336" lon="6.91699">
        <ele>2102.54</ele>
        <time>2011-06-26T11:44:50Z</time>
      </trkpt>
      <trkpt lat="45.49339" lon="6.91718">
        <ele>2097.73</ele>
        <time>2011-06-26T11:44:57Z</time>
      </trkpt>
      <trkpt lat="45.49343" lon="6.91726">
        <ele>2095.33</ele>
        <time>2011-06-26T11:45:01Z</time>
      </trkpt>
      <trkpt lat="45.49342" lon="6.91736">
        <ele>2093.89</ele>
        <time>2011-06-26T11:45:05Z</time>
      </trkpt>
      <trkpt lat="45.49343" lon="6.91745">
        <ele>2091.97</ele>
        <time>2011-06-26T11:45:09Z</time>
      </trkpt>
      <trkpt lat="45.49349" lon="6.91755">
        <ele>2091</ele>
        <time>2011-06-26T11:45:20Z</time>
      </trkpt>
      <trkpt lat="45.4935" lon="6.91758">
        <ele>2091.49</ele>
        <time>2011-06-26T11:45:26Z</time>
      </trkpt>
      <trkpt lat="45.49356" lon="6.91756">
        <ele>2089.08</ele>
        <time>2011-06-26T11:45:32Z</time>
      </trkpt>
      <trkpt lat="45.49359" lon="6.91753">
        <ele>2087.64</ele>
        <time>2011-06-26T11:45:35Z</time>
      </trkpt>
      <trkpt lat="45.49361" lon="6.91752">
        <ele>2086.2</ele>
        <time>2011-06-26T11:45:37Z</time>
      </trkpt>
      <trkpt lat="45.49367" lon="6.91756">
        <ele>2082.83</ele>
        <time>2011-06-26T11:45:41Z</time>
      </trkpt>
      <trkpt lat="45.49372" lon="6.91779">
        <ele>2080.43</ele>
        <time>2011-06-26T11:45:49Z</time>
      </trkpt>
      <trkpt lat="45.49378" lon="6.91783">
        <ele>2078.51</ele>
        <time>2011-06-26T11:45:52Z</time>
      </trkpt>
      <trkpt lat="45.49383" lon="6.91786">
        <ele>2076.59</ele>
        <time>2011-06-26T11:45:55Z</time>
      </trkpt>
      <trkpt lat="45.4939" lon="6.91789">
        <ele>2075.62</ele>
        <time>2011-06-26T11:45:58Z</time>
      </trkpt>
      <trkpt lat="45.49394" lon="6.91788">
        <ele>2074.18</ele>
        <time>2011-06-26T11:46:00Z</time>
      </trkpt>
      <trkpt lat="45.49403" lon="6.91776">
        <ele>2072.74</ele>
        <time>2011-06-26T11:46:05Z</time>
      </trkpt>
      <trkpt lat="45.49411" lon="6.91762">
        <ele>2071.3</ele>
        <time>2011-06-26T11:46:10Z</time>
      </trkpt>
      <trkpt lat="45.4942" lon="6.91746">
        <ele>2068.89</ele>
        <time>2011-06-26T11:46:17Z</time>
      </trkpt>
      <trkpt lat="45.49432" lon="6.91731">
        <ele>2066.49</ele>
        <time>2011-06-26T11:46:25Z</time>
      </trkpt>
      <trkpt lat="45.49434" lon="6.9173">
        <ele>2066.49</ele>
        <time>2011-06-26T11:46:26Z</time>
      </trkpt>
      <trkpt lat="45.49438" lon="6.91726">
        <ele>2064.57</ele>
        <time>2011-06-26T11:46:28Z</time>
      </trkpt>
      <trkpt lat="45.49441" lon="6.91722">
        <ele>2064.57</ele>
        <time>2011-06-26T11:46:30Z</time>
      </trkpt>
      <trkpt lat="45.4945" lon="6.91715">
        <ele>2063.13</ele>
        <time>2011-06-26T11:46:34Z</time>
      </trkpt>
      <trkpt lat="45.49452" lon="6.91713">
        <ele>2062.65</ele>
        <time>2011-06-26T11:46:46Z</time>
      </trkpt>
      <trkpt lat="45.49452" lon="6.91714">
        <ele>2063.13</ele>
        <time>2011-06-26T11:46:48Z</time>
      </trkpt>
      <trkpt lat="45.49455" lon="6.91714">
        <ele>2062.17</ele>
        <time>2011-06-26T11:47:09Z</time>
      </trkpt>
      <trkpt lat="45.49459" lon="6.91711">
        <ele>2064.09</ele>
        <time>2011-06-26T11:47:12Z</time>
      </trkpt>
      <trkpt lat="45.49469" lon="6.91701">
        <ele>2060.24</ele>
        <time>2011-06-26T11:47:20Z</time>
      </trkpt>
      <trkpt lat="45.4947" lon="6.91702">
        <ele>2059.76</ele>
        <time>2011-06-26T11:47:22Z</time>
      </trkpt>
      <trkpt lat="45.4946" lon="6.91718">
        <ele>2061.2</ele>
        <time>2011-06-26T11:47:39Z</time>
      </trkpt>
      <trkpt lat="45.49477" lon="6.917">
        <ele>2060.72</ele>
        <time>2011-06-26T11:47:54Z</time>
      </trkpt>
      <trkpt lat="45.49483" lon="6.91689">
        <ele>2057.36</ele>
        <time>2011-06-26T11:48:01Z</time>
      </trkpt>
      <trkpt lat="45.49493" lon="6.91676">
        <ele>2052.07</ele>
        <time>2011-06-26T11:48:08Z</time>
      </trkpt>
      <trkpt lat="45.49496" lon="6.91674">
        <ele>2055.44</ele>
        <time>2011-06-26T11:48:09Z</time>
      </trkpt>
      <trkpt lat="45.49521" lon="6.9167">
        <ele>2052.07</ele>
        <time>2011-06-26T11:48:19Z</time>
      </trkpt>
      <trkpt lat="45.49536" lon="6.91667">
        <ele>2048.71</ele>
        <time>2011-06-26T11:48:28Z</time>
      </trkpt>
      <trkpt lat="45.49548" lon="6.91665">
        <ele>2047.75</ele>
        <time>2011-06-26T11:48:50Z</time>
      </trkpt>
      <trkpt lat="45.49557" lon="6.91666">
        <ele>2045.82</ele>
        <time>2011-06-26T11:48:58Z</time>
      </trkpt>
      <trkpt lat="45.4958" lon="6.91663">
        <ele>2044.38</ele>
        <time>2011-06-26T11:49:10Z</time>
      </trkpt>
      <trkpt lat="45.49592" lon="6.91661">
        <ele>2043.42</ele>
        <time>2011-06-26T11:49:15Z</time>
      </trkpt>
      <trkpt lat="45.49622" lon="6.91652">
        <ele>2040.05</ele>
        <time>2011-06-26T11:49:27Z</time>
      </trkpt>
      <trkpt lat="45.49648" lon="6.91643">
        <ele>2037.65</ele>
        <time>2011-06-26T11:49:38Z</time>
      </trkpt>
      <trkpt lat="45.49656" lon="6.91641">
        <ele>2036.69</ele>
        <time>2011-06-26T11:49:42Z</time>
      </trkpt>
      <trkpt lat="45.49667" lon="6.91638">
        <ele>2035.25</ele>
        <time>2011-06-26T11:49:48Z</time>
      </trkpt>
      <trkpt lat="45.49679" lon="6.91633">
        <ele>2034.77</ele>
        <time>2011-06-26T11:49:55Z</time>
      </trkpt>
      <trkpt lat="45.49689" lon="6.91628">
        <ele>2033.81</ele>
        <time>2011-06-26T11:50:02Z</time>
      </trkpt>
      <trkpt lat="45.49696" lon="6.91625">
        <ele>2031.88</ele>
        <time>2011-06-26T11:50:06Z</time>
      </trkpt>
      <trkpt lat="45.497" lon="6.91624">
        <ele>2030.92</ele>
        <time>2011-06-26T11:50:09Z</time>
      </trkpt>
      <trkpt lat="45.49706" lon="6.91626">
        <ele>2028.52</ele>
        <time>2011-06-26T11:50:13Z</time>
      </trkpt>
      <trkpt lat="45.49717" lon="6.91625">
        <ele>2025.15</ele>
        <time>2011-06-26T11:50:23Z</time>
      </trkpt>
      <trkpt lat="45.49725" lon="6.91623">
        <ele>2021.79</ele>
        <time>2011-06-26T11:50:29Z</time>
      </trkpt>
      <trkpt lat="45.49727" lon="6.91623">
        <ele>2021.79</ele>
        <time>2011-06-26T11:50:30Z</time>
      </trkpt>
      <trkpt lat="45.49737" lon="6.91622">
        <ele>2017.94</ele>
        <time>2011-06-26T11:50:39Z</time>
      </trkpt>
      <trkpt lat="45.49742" lon="6.91616">
        <ele>2016.02</ele>
        <time>2011-06-26T11:50:44Z</time>
      </trkpt>
      <trkpt lat="45.4975" lon="6.91611">
        <ele>2013.62</ele>
        <time>2011-06-26T11:50:51Z</time>
      </trkpt>
      <trkpt lat="45.49751" lon="6.9161">
        <ele>2011.7</ele>
        <time>2011-06-26T11:50:52Z</time>
      </trkpt>
      <trkpt lat="45.49758" lon="6.91607">
        <ele>2010.73</ele>
        <time>2011-06-26T11:50:56Z</time>
      </trkpt>
      <trkpt lat="45.49763" lon="6.91605">
        <ele>2008.81</ele>
        <time>2011-06-26T11:50:59Z</time>
      </trkpt>
      <trkpt lat="45.49765" lon="6.91604">
        <ele>2008.33</ele>
        <time>2011-06-26T11:51:00Z</time>
      </trkpt>
      <trkpt lat="45.49782" lon="6.91595">
        <ele>2004.49</ele>
        <time>2011-06-26T11:51:11Z</time>
      </trkpt>
      <trkpt lat="45.49785" lon="6.91594">
        <ele>2003.04</ele>
        <time>2011-06-26T11:51:13Z</time>
      </trkpt>
      <trkpt lat="45.49789" lon="6.91593">
        <ele>2001.6</ele>
        <time>2011-06-26T11:51:15Z</time>
      </trkpt>
      <trkpt lat="45.49799" lon="6.91591">
        <ele>1999.68</ele>
        <time>2011-06-26T11:51:22Z</time>
      </trkpt>
      <trkpt lat="45.49808" lon="6.91588">
        <ele>1996.8</ele>
        <time>2011-06-26T11:51:28Z</time>
      </trkpt>
      <trkpt lat="45.49814" lon="6.91589">
        <ele>1995.83</ele>
        <time>2011-06-26T11:51:32Z</time>
      </trkpt>
      <trkpt lat="45.49815" lon="6.91589">
        <ele>1995.83</ele>
        <time>2011-06-26T11:51:33Z</time>
      </trkpt>
      <trkpt lat="45.49818" lon="6.91587">
        <ele>1994.39</ele>
        <time>2011-06-26T11:51:35Z</time>
      </trkpt>
      <trkpt lat="45.49821" lon="6.91584">
        <ele>1993.91</ele>
        <time>2011-06-26T11:51:37Z</time>
      </trkpt>
      <trkpt lat="45.49826" lon="6.91579">
        <ele>1991.51</ele>
        <time>2011-06-26T11:51:41Z</time>
      </trkpt>
      <trkpt lat="45.49831" lon="6.91578">
        <ele>1990.55</ele>
        <time>2011-06-26T11:51:45Z</time>
      </trkpt>
      <trkpt lat="45.49835" lon="6.91574">
        <ele>1988.14</ele>
        <time>2011-06-26T11:51:49Z</time>
      </trkpt>
      <trkpt lat="45.49843" lon="6.91575">
        <ele>1985.74</ele>
        <time>2011-06-26T11:51:56Z</time>
      </trkpt>
      <trkpt lat="45.49848" lon="6.91571">
        <ele>1983.34</ele>
        <time>2011-06-26T11:52:01Z</time>
      </trkpt>
      <trkpt lat="45.49852" lon="6.91567">
        <ele>1980.93</ele>
        <time>2011-06-26T11:52:05Z</time>
      </trkpt>
      <trkpt lat="45.49855" lon="6.91568">
        <ele>1979.97</ele>
        <time>2011-06-26T11:52:08Z</time>
      </trkpt>
      <trkpt lat="45.49862" lon="6.91567">
        <ele>1978.05</ele>
        <time>2011-06-26T11:52:13Z</time>
      </trkpt>
      <trkpt lat="45.49865" lon="6.91565">
        <ele>1976.13</ele>
        <time>2011-06-26T11:52:16Z</time>
      </trkpt>
      <trkpt lat="45.49867" lon="6.91563">
        <ele>1974.69</ele>
        <time>2011-06-26T11:52:18Z</time>
      </trkpt>
      <trkpt lat="45.49874" lon="6.91563">
        <ele>1971.32</ele>
        <time>2011-06-26T11:52:24Z</time>
      </trkpt>
      <trkpt lat="45.49878" lon="6.91561">
        <ele>1970.36</ele>
        <time>2011-06-26T11:52:27Z</time>
      </trkpt>
      <trkpt lat="45.49889" lon="6.91558">
        <ele>1966.51</ele>
        <time>2011-06-26T11:52:36Z</time>
      </trkpt>
      <trkpt lat="45.49892" lon="6.91557">
        <ele>1965.55</ele>
        <time>2011-06-26T11:52:38Z</time>
      </trkpt>
      <trkpt lat="45.49895" lon="6.91555">
        <ele>1964.11</ele>
        <time>2011-06-26T11:52:42Z</time>
      </trkpt>
      <trkpt lat="45.49901" lon="6.91562">
        <ele>1961.71</ele>
        <time>2011-06-26T11:52:48Z</time>
      </trkpt>
      <trkpt lat="45.49906" lon="6.91563">
        <ele>1958.82</ele>
        <time>2011-06-26T11:52:53Z</time>
      </trkpt>
      <trkpt lat="45.49909" lon="6.91563">
        <ele>1958.34</ele>
        <time>2011-06-26T11:52:57Z</time>
      </trkpt>
      <trkpt lat="45.49912" lon="6.91562">
        <ele>1954.98</ele>
        <time>2011-06-26T11:53:03Z</time>
      </trkpt>
      <trkpt lat="45.49921" lon="6.91566">
        <ele>1950.17</ele>
        <time>2011-06-26T11:53:13Z</time>
      </trkpt>
      <trkpt lat="45.49922" lon="6.91567">
        <ele>1950.65</ele>
        <time>2011-06-26T11:53:14Z</time>
      </trkpt>
      <trkpt lat="45.49926" lon="6.91569">
        <ele>1947.77</ele>
        <time>2011-06-26T11:53:20Z</time>
      </trkpt>
      <trkpt lat="45.49929" lon="6.91571">
        <ele>1946.33</ele>
        <time>2011-06-26T11:53:23Z</time>
      </trkpt>
      <trkpt lat="45.49931" lon="6.91573">
        <ele>1946.33</ele>
        <time>2011-06-26T11:53:26Z</time>
      </trkpt>
      <trkpt lat="45.49933" lon="6.91572">
        <ele>1944.4</ele>
        <time>2011-06-26T11:53:30Z</time>
      </trkpt>
      <trkpt lat="45.49937" lon="6.91576">
        <ele>1939.6</ele>
        <time>2011-06-26T11:53:37Z</time>
      </trkpt>
      <trkpt lat="45.49941" lon="6.91578">
        <ele>1939.12</ele>
        <time>2011-06-26T11:53:41Z</time>
      </trkpt>
      <trkpt lat="45.49944" lon="6.91581">
        <ele>1937.67</ele>
        <time>2011-06-26T11:53:45Z</time>
      </trkpt>
      <trkpt lat="45.49952" lon="6.91583">
        <ele>1933.83</ele>
        <time>2011-06-26T11:53:54Z</time>
      </trkpt>
      <trkpt lat="45.49956" lon="6.91588">
        <ele>1932.87</ele>
        <time>2011-06-26T11:53:58Z</time>
      </trkpt>
      <trkpt lat="45.49959" lon="6.9159">
        <ele>1930.95</ele>
        <time>2011-06-26T11:54:01Z</time>
      </trkpt>
      <trkpt lat="45.4996" lon="6.91588">
        <ele>1928.54</ele>
        <time>2011-06-26T11:54:18Z</time>
      </trkpt>
      <trkpt lat="45.4996" lon="6.91588">
        <ele>1929.5</ele>
        <time>2011-06-26T11:54:20Z</time>
      </trkpt>
      <trkpt lat="45.49964" lon="6.9159">
        <ele>1927.1</ele>
        <time>2011-06-26T11:54:29Z</time>
      </trkpt>
      <trkpt lat="45.49967" lon="6.91592">
        <ele>1926.14</ele>
        <time>2011-06-26T11:54:32Z</time>
      </trkpt>
      <trkpt lat="45.49974" lon="6.91599">
        <ele>1922.29</ele>
        <time>2011-06-26T11:54:44Z</time>
      </trkpt>
      <trkpt lat="45.49977" lon="6.91598">
        <ele>1919.41</ele>
        <time>2011-06-26T11:54:53Z</time>
      </trkpt>
      <trkpt lat="45.49979" lon="6.91597">
        <ele>1918.93</ele>
        <time>2011-06-26T11:54:56Z</time>
      </trkpt>
      <trkpt lat="45.49985" lon="6.91602">
        <ele>1915.56</ele>
        <time>2011-06-26T11:55:04Z</time>
      </trkpt>
      <trkpt lat="45.49991" lon="6.91602">
        <ele>1912.68</ele>
        <time>2011-06-26T11:55:10Z</time>
      </trkpt>
      <trkpt lat="45.49999" lon="6.91602">
        <ele>1908.35</ele>
        <time>2011-06-26T11:55:16Z</time>
      </trkpt>
      <trkpt lat="45.50005" lon="6.91604">
        <ele>1907.39</ele>
        <time>2011-06-26T11:55:20Z</time>
      </trkpt>
      <trkpt lat="45.50008" lon="6.91606">
        <ele>1905.47</ele>
        <time>2011-06-26T11:55:23Z</time>
      </trkpt>
      <trkpt lat="45.50014" lon="6.91605">
        <ele>1902.59</ele>
        <time>2011-06-26T11:55:28Z</time>
      </trkpt>
      <trkpt lat="45.50021" lon="6.91609">
        <ele>1898.26</ele>
        <time>2011-06-26T11:55:36Z</time>
      </trkpt>
      <trkpt lat="45.50023" lon="6.9161">
        <ele>1898.74</ele>
        <time>2011-06-26T11:55:38Z</time>
      </trkpt>
      <trkpt lat="45.50025" lon="6.91611">
        <ele>1897.3</ele>
        <time>2011-06-26T11:55:41Z</time>
      </trkpt>
      <trkpt lat="45.50031" lon="6.91608">
        <ele>1892.97</ele>
        <time>2011-06-26T11:55:50Z</time>
      </trkpt>
      <trkpt lat="45.50034" lon="6.91608">
        <ele>1891.53</ele>
        <time>2011-06-26T11:55:56Z</time>
      </trkpt>
      <trkpt lat="45.50041" lon="6.91604">
        <ele>1887.21</ele>
        <time>2011-06-26T11:56:05Z</time>
      </trkpt>
      <trkpt lat="45.50047" lon="6.91602">
        <ele>1885.76</ele>
        <time>2011-06-26T11:56:10Z</time>
      </trkpt>
      <trkpt lat="45.50053" lon="6.91598">
        <ele>1882.4</ele>
        <time>2011-06-26T11:56:15Z</time>
      </trkpt>
      <trkpt lat="45.50056" lon="6.91596">
        <ele>1880.48</ele>
        <time>2011-06-26T11:56:17Z</time>
      </trkpt>
      <trkpt lat="45.50066" lon="6.91593">
        <ele>1879.03</ele>
        <time>2011-06-26T11:56:23Z</time>
      </trkpt>
      <trkpt lat="45.50081" lon="6.9158">
        <ele>1876.15</ele>
        <time>2011-06-26T11:56:32Z</time>
      </trkpt>
      <trkpt lat="45.50093" lon="6.91567">
        <ele>1872.3</ele>
        <time>2011-06-26T11:56:41Z</time>
      </trkpt>
      <trkpt lat="45.50104" lon="6.91561">
        <ele>1870.38</ele>
        <time>2011-06-26T11:56:47Z</time>
      </trkpt>
      <trkpt lat="45.50112" lon="6.91556">
        <ele>1868.46</ele>
        <time>2011-06-26T11:56:52Z</time>
      </trkpt>
      <trkpt lat="45.50121" lon="6.91552">
        <ele>1866.54</ele>
        <time>2011-06-26T11:56:57Z</time>
      </trkpt>
      <trkpt lat="45.50128" lon="6.91549">
        <ele>1865.09</ele>
        <time>2011-06-26T11:57:00Z</time>
      </trkpt>
      <trkpt lat="45.5014" lon="6.9154">
        <ele>1863.17</ele>
        <time>2011-06-26T11:57:07Z</time>
      </trkpt>
      <trkpt lat="45.50154" lon="6.91532">
        <ele>1860.29</ele>
        <time>2011-06-26T11:57:15Z</time>
      </trkpt>
      <trkpt lat="45.50156" lon="6.91533">
        <ele>1860.29</ele>
        <time>2011-06-26T11:57:16Z</time>
      </trkpt>
      <trkpt lat="45.5016" lon="6.91535">
        <ele>1859.81</ele>
        <time>2011-06-26T11:57:18Z</time>
      </trkpt>
      <trkpt lat="45.50167" lon="6.91534">
        <ele>1855.48</ele>
        <time>2011-06-26T11:57:23Z</time>
      </trkpt>
      <trkpt lat="45.50168" lon="6.91533">
        <ele>1856.44</ele>
        <time>2011-06-26T11:57:24Z</time>
      </trkpt>
      <trkpt lat="45.50173" lon="6.9153">
        <ele>1853.56</ele>
        <time>2011-06-26T11:57:28Z</time>
      </trkpt>
      <trkpt lat="45.50176" lon="6.91529">
        <ele>1853.56</ele>
        <time>2011-06-26T11:57:30Z</time>
      </trkpt>
      <trkpt lat="45.5018" lon="6.91529">
        <ele>1851.64</ele>
        <time>2011-06-26T11:57:34Z</time>
      </trkpt>
      <trkpt lat="45.50188" lon="6.91528">
        <ele>1847.79</ele>
        <time>2011-06-26T11:57:39Z</time>
      </trkpt>
      <trkpt lat="45.50194" lon="6.91528">
        <ele>1846.83</ele>
        <time>2011-06-26T11:57:43Z</time>
      </trkpt>
      <trkpt lat="45.50198" lon="6.91527">
        <ele>1844.91</ele>
        <time>2011-06-26T11:57:46Z</time>
      </trkpt>
      <trkpt lat="45.50202" lon="6.91527">
        <ele>1842.5</ele>
        <time>2011-06-26T11:57:49Z</time>
      </trkpt>
      <trkpt lat="45.50207" lon="6.91528">
        <ele>1841.06</ele>
        <time>2011-06-26T11:57:52Z</time>
      </trkpt>
      <trkpt lat="45.50215" lon="6.9153">
        <ele>1839.62</ele>
        <time>2011-06-26T11:57:56Z</time>
      </trkpt>
      <trkpt lat="45.50216" lon="6.91531">
        <ele>1838.18</ele>
        <time>2011-06-26T11:57:57Z</time>
      </trkpt>
      <trkpt lat="45.50221" lon="6.91534">
        <ele>1836.74</ele>
        <time>2011-06-26T11:58:00Z</time>
      </trkpt>
      <trkpt lat="45.50234" lon="6.91544">
        <ele>1832.41</ele>
        <time>2011-06-26T11:58:07Z</time>
      </trkpt>
      <trkpt lat="45.50236" lon="6.91545">
        <ele>1832.89</ele>
        <time>2011-06-26T11:58:08Z</time>
      </trkpt>
      <trkpt lat="45.50239" lon="6.91546">
        <ele>1832.41</ele>
        <time>2011-06-26T11:58:10Z</time>
      </trkpt>
      <trkpt lat="45.50244" lon="6.91547">
        <ele>1829.53</ele>
        <time>2011-06-26T11:58:15Z</time>
      </trkpt>
      <trkpt lat="45.50252" lon="6.91549">
        <ele>1826.64</ele>
        <time>2011-06-26T11:58:19Z</time>
      </trkpt>
      <trkpt lat="45.50256" lon="6.91551">
        <ele>1824.72</ele>
        <time>2011-06-26T11:58:21Z</time>
      </trkpt>
      <trkpt lat="45.50261" lon="6.91551">
        <ele>1824.24</ele>
        <time>2011-06-26T11:58:24Z</time>
      </trkpt>
      <trkpt lat="45.50267" lon="6.91552">
        <ele>1822.32</ele>
        <time>2011-06-26T11:58:28Z</time>
      </trkpt>
      <trkpt lat="45.50275" lon="6.91553">
        <ele>1819.91</ele>
        <time>2011-06-26T11:58:34Z</time>
      </trkpt>
      <trkpt lat="45.5028" lon="6.91555">
        <ele>1818.47</ele>
        <time>2011-06-26T11:58:38Z</time>
      </trkpt>
      <trkpt lat="45.50293" lon="6.91551">
        <ele>1814.15</ele>
        <time>2011-06-26T11:58:49Z</time>
      </trkpt>
      <trkpt lat="45.50296" lon="6.91549">
        <ele>1814.15</ele>
        <time>2011-06-26T11:58:52Z</time>
      </trkpt>
      <trkpt lat="45.50304" lon="6.91543">
        <ele>1811.74</ele>
        <time>2011-06-26T11:59:05Z</time>
      </trkpt>
      <trkpt lat="45.50306" lon="6.9154">
        <ele>1809.82</ele>
        <time>2011-06-26T11:59:08Z</time>
      </trkpt>
      <trkpt lat="45.50307" lon="6.91538">
        <ele>1808.86</ele>
        <time>2011-06-26T11:59:10Z</time>
      </trkpt>
      <trkpt lat="45.50308" lon="6.91536">
        <ele>1808.38</ele>
        <time>2011-06-26T11:59:12Z</time>
      </trkpt>
      <trkpt lat="45.50312" lon="6.91533">
        <ele>1806.94</ele>
        <time>2011-06-26T11:59:15Z</time>
      </trkpt>
      <trkpt lat="45.5032" lon="6.9153">
        <ele>1803.57</ele>
        <time>2011-06-26T11:59:21Z</time>
      </trkpt>
      <trkpt lat="45.50327" lon="6.9154">
        <ele>1801.17</ele>
        <time>2011-06-26T11:59:30Z</time>
      </trkpt>
      <trkpt lat="45.50328" lon="6.9155">
        <ele>1799.73</ele>
        <time>2011-06-26T11:59:36Z</time>
      </trkpt>
      <trkpt lat="45.50329" lon="6.91556">
        <ele>1798.28</ele>
        <time>2011-06-26T11:59:44Z</time>
      </trkpt>
      <trkpt lat="45.50331" lon="6.91554">
        <ele>1796.84</ele>
        <time>2011-06-26T11:59:46Z</time>
      </trkpt>
      <trkpt lat="45.50332" lon="6.91556">
        <ele>1794.92</ele>
        <time>2011-06-26T11:59:51Z</time>
      </trkpt>
      <trkpt lat="45.50328" lon="6.91566">
        <ele>1791.07</ele>
        <time>2011-06-26T12:00:00Z</time>
      </trkpt>
      <trkpt lat="45.50335" lon="6.91562">
        <ele>1789.63</ele>
        <time>2011-06-26T12:00:04Z</time>
      </trkpt>
      <trkpt lat="45.50339" lon="6.91561">
        <ele>1789.15</ele>
        <time>2011-06-26T12:00:06Z</time>
      </trkpt>
      <trkpt lat="45.5034" lon="6.91566">
        <ele>1787.71</ele>
        <time>2011-06-26T12:00:10Z</time>
      </trkpt>
      <trkpt lat="45.50336" lon="6.91594">
        <ele>1781.46</ele>
        <time>2011-06-26T12:00:19Z</time>
      </trkpt>
      <trkpt lat="45.50335" lon="6.91597">
        <ele>1781.46</ele>
        <time>2011-06-26T12:00:20Z</time>
      </trkpt>
      <trkpt lat="45.50331" lon="6.91608">
        <ele>1778.1</ele>
        <time>2011-06-26T12:00:25Z</time>
      </trkpt>
      <trkpt lat="45.5033" lon="6.9161">
        <ele>1777.61</ele>
        <time>2011-06-26T12:00:26Z</time>
      </trkpt>
      <trkpt lat="45.50325" lon="6.9162">
        <ele>1776.17</ele>
        <time>2011-06-26T12:00:30Z</time>
      </trkpt>
      <trkpt lat="45.5032" lon="6.91626">
        <ele>1774.25</ele>
        <time>2011-06-26T12:00:34Z</time>
      </trkpt>
      <trkpt lat="45.50314" lon="6.91633">
        <ele>1771.37</ele>
        <time>2011-06-26T12:00:39Z</time>
      </trkpt>
      <trkpt lat="45.50313" lon="6.91635">
        <ele>1771.85</ele>
        <time>2011-06-26T12:00:40Z</time>
      </trkpt>
      <trkpt lat="45.50307" lon="6.91643">
        <ele>1768.96</ele>
        <time>2011-06-26T12:00:45Z</time>
      </trkpt>
      <trkpt lat="45.50305" lon="6.91647">
        <ele>1768</ele>
        <time>2011-06-26T12:00:47Z</time>
      </trkpt>
      <trkpt lat="45.50303" lon="6.91652">
        <ele>1766.08</ele>
        <time>2011-06-26T12:00:49Z</time>
      </trkpt>
      <trkpt lat="45.50303" lon="6.91657">
        <ele>1763.68</ele>
        <time>2011-06-26T12:01:01Z</time>
      </trkpt>
      <trkpt lat="45.50311" lon="6.91657">
        <ele>1763.2</ele>
        <time>2011-06-26T12:01:05Z</time>
      </trkpt>
      <trkpt lat="45.5032" lon="6.91653">
        <ele>1762.23</ele>
        <time>2011-06-26T12:01:09Z</time>
      </trkpt>
      <trkpt lat="45.50328" lon="6.91645">
        <ele>1760.31</ele>
        <time>2011-06-26T12:01:17Z</time>
      </trkpt>
      <trkpt lat="45.50346" lon="6.91642">
        <ele>1755.99</ele>
        <time>2011-06-26T12:01:28Z</time>
      </trkpt>
      <trkpt lat="45.50349" lon="6.9164">
        <ele>1755.99</ele>
        <time>2011-06-26T12:01:30Z</time>
      </trkpt>
      <trkpt lat="45.50356" lon="6.91636">
        <ele>1754.06</ele>
        <time>2011-06-26T12:01:33Z</time>
      </trkpt>
      <trkpt lat="45.50358" lon="6.91635">
        <ele>1754.06</ele>
        <time>2011-06-26T12:01:34Z</time>
      </trkpt>
      <trkpt lat="45.50364" lon="6.91631">
        <ele>1752.14</ele>
        <time>2011-06-26T12:01:37Z</time>
      </trkpt>
      <trkpt lat="45.50369" lon="6.91623">
        <ele>1750.7</ele>
        <time>2011-06-26T12:01:41Z</time>
      </trkpt>
      <trkpt lat="45.50374" lon="6.91616">
        <ele>1748.78</ele>
        <time>2011-06-26T12:01:45Z</time>
      </trkpt>
      <trkpt lat="45.50378" lon="6.91608">
        <ele>1745.41</ele>
        <time>2011-06-26T12:01:49Z</time>
      </trkpt>
      <trkpt lat="45.50379" lon="6.91607">
        <ele>1745.41</ele>
        <time>2011-06-26T12:01:51Z</time>
      </trkpt>
      <trkpt lat="45.50383" lon="6.91627">
        <ele>1741.57</ele>
        <time>2011-06-26T12:01:59Z</time>
      </trkpt>
      <trkpt lat="45.50386" lon="6.9164">
        <ele>1738.2</ele>
        <time>2011-06-26T12:02:04Z</time>
      </trkpt>
      <trkpt lat="45.50386" lon="6.91642">
        <ele>1738.2</ele>
        <time>2011-06-26T12:02:05Z</time>
      </trkpt>
      <trkpt lat="45.50389" lon="6.91655">
        <ele>1735.32</ele>
        <time>2011-06-26T12:02:10Z</time>
      </trkpt>
      <trkpt lat="45.50389" lon="6.91662">
        <ele>1734.36</ele>
        <time>2011-06-26T12:02:13Z</time>
      </trkpt>
      <trkpt lat="45.50386" lon="6.9167">
        <ele>1730.99</ele>
        <time>2011-06-26T12:02:17Z</time>
      </trkpt>
      <trkpt lat="45.50378" lon="6.91685">
        <ele>1727.15</ele>
        <time>2011-06-26T12:02:23Z</time>
      </trkpt>
      <trkpt lat="45.50361" lon="6.91714">
        <ele>1722.82</ele>
        <time>2011-06-26T12:02:33Z</time>
      </trkpt>
      <trkpt lat="45.50359" lon="6.91716">
        <ele>1722.82</ele>
        <time>2011-06-26T12:02:34Z</time>
      </trkpt>
      <trkpt lat="45.5034" lon="6.91728">
        <ele>1719.46</ele>
        <time>2011-06-26T12:02:42Z</time>
      </trkpt>
      <trkpt lat="45.50339" lon="6.91729">
        <ele>1719.46</ele>
        <time>2011-06-26T12:02:43Z</time>
      </trkpt>
      <trkpt lat="45.50326" lon="6.91742">
        <ele>1716.09</ele>
        <time>2011-06-26T12:02:50Z</time>
      </trkpt>
      <trkpt lat="45.5032" lon="6.9174">
        <ele>1715.61</ele>
        <time>2011-06-26T12:02:59Z</time>
      </trkpt>
      <trkpt lat="45.50321" lon="6.91739">
        <ele>1715.61</ele>
        <time>2011-06-26T12:03:06Z</time>
      </trkpt>
      <trkpt lat="45.50318" lon="6.91738">
        <ele>1714.65</ele>
        <time>2011-06-26T12:03:17Z</time>
      </trkpt>
      <trkpt lat="45.50316" lon="6.9174">
        <ele>1715.13</ele>
        <time>2011-06-26T12:03:19Z</time>
      </trkpt>
      <trkpt lat="45.50316" lon="6.91747">
        <ele>1713.69</ele>
        <time>2011-06-26T12:03:23Z</time>
      </trkpt>
      <trkpt lat="45.50321" lon="6.91751">
        <ele>1711.76</ele>
        <time>2011-06-26T12:03:27Z</time>
      </trkpt>
      <trkpt lat="45.50325" lon="6.91753">
        <ele>1710.8</ele>
        <time>2011-06-26T12:03:29Z</time>
      </trkpt>
      <trkpt lat="45.50335" lon="6.91758">
        <ele>1707.44</ele>
        <time>2011-06-26T12:03:34Z</time>
      </trkpt>
      <trkpt lat="45.5034" lon="6.91768">
        <ele>1706.48</ele>
        <time>2011-06-26T12:03:39Z</time>
      </trkpt>
      <trkpt lat="45.50331" lon="6.91782">
        <ele>1703.11</ele>
        <time>2011-06-26T12:03:46Z</time>
      </trkpt>
      <trkpt lat="45.50328" lon="6.91791">
        <ele>1701.67</ele>
        <time>2011-06-26T12:03:50Z</time>
      </trkpt>
      <trkpt lat="45.50326" lon="6.91798">
        <ele>1700.23</ele>
        <time>2011-06-26T12:03:53Z</time>
      </trkpt>
      <trkpt lat="45.50324" lon="6.91803">
        <ele>1698.31</ele>
        <time>2011-06-26T12:03:55Z</time>
      </trkpt>
      <trkpt lat="45.50315" lon="6.91826">
        <ele>1695.9</ele>
        <time>2011-06-26T12:04:04Z</time>
      </trkpt>
      <trkpt lat="45.50319" lon="6.91822">
        <ele>1695.9</ele>
        <time>2011-06-26T12:04:08Z</time>
      </trkpt>
      <trkpt lat="45.50333" lon="6.91809">
        <ele>1693.02</ele>
        <time>2011-06-26T12:04:17Z</time>
      </trkpt>
      <trkpt lat="45.50343" lon="6.91808">
        <ele>1690.62</ele>
        <time>2011-06-26T12:04:23Z</time>
      </trkpt>
      <trkpt lat="45.50347" lon="6.91806">
        <ele>1689.65</ele>
        <time>2011-06-26T12:04:25Z</time>
      </trkpt>
      <trkpt lat="45.50358" lon="6.91809">
        <ele>1685.33</ele>
        <time>2011-06-26T12:04:32Z</time>
      </trkpt>
      <trkpt lat="45.50359" lon="6.9181">
        <ele>1685.33</ele>
        <time>2011-06-26T12:04:33Z</time>
      </trkpt>
      <trkpt lat="45.50364" lon="6.91812">
        <ele>1683.41</ele>
        <time>2011-06-26T12:04:36Z</time>
      </trkpt>
      <trkpt lat="45.50369" lon="6.91812">
        <ele>1680.52</ele>
        <time>2011-06-26T12:04:39Z</time>
      </trkpt>
      <trkpt lat="45.50373" lon="6.91812">
        <ele>1679.56</ele>
        <time>2011-06-26T12:04:41Z</time>
      </trkpt>
      <trkpt lat="45.50375" lon="6.91811">
        <ele>1679.56</ele>
        <time>2011-06-26T12:04:42Z</time>
      </trkpt>
      <trkpt lat="45.50384" lon="6.91807">
        <ele>1676.68</ele>
        <time>2011-06-26T12:04:47Z</time>
      </trkpt>
      <trkpt lat="45.50395" lon="6.918">
        <ele>1675.23</ele>
        <time>2011-06-26T12:04:52Z</time>
      </trkpt>
      <trkpt lat="45.50407" lon="6.91788">
        <ele>1671.39</ele>
        <time>2011-06-26T12:04:59Z</time>
      </trkpt>
      <trkpt lat="45.5041" lon="6.91786">
        <ele>1670.91</ele>
        <time>2011-06-26T12:05:01Z</time>
      </trkpt>
      <trkpt lat="45.50419" lon="6.91781">
        <ele>1668.02</ele>
        <time>2011-06-26T12:05:07Z</time>
      </trkpt>
      <trkpt lat="45.50425" lon="6.91776">
        <ele>1666.58</ele>
        <time>2011-06-26T12:05:15Z</time>
      </trkpt>
      <trkpt lat="45.50428" lon="6.91769">
        <ele>1664.18</ele>
        <time>2011-06-26T12:05:20Z</time>
      </trkpt>
      <trkpt lat="45.50429" lon="6.91765">
        <ele>1662.26</ele>
        <time>2011-06-26T12:05:23Z</time>
      </trkpt>
      <trkpt lat="45.50433" lon="6.9177">
        <ele>1660.81</ele>
        <time>2011-06-26T12:05:29Z</time>
      </trkpt>
      <trkpt lat="45.50438" lon="6.91784">
        <ele>1658.41</ele>
        <time>2011-06-26T12:05:35Z</time>
      </trkpt>
      <trkpt lat="45.50439" lon="6.91777">
        <ele>1656.97</ele>
        <time>2011-06-26T12:05:40Z</time>
      </trkpt>
      <trkpt lat="45.5044" lon="6.91772">
        <ele>1656.01</ele>
        <time>2011-06-26T12:05:42Z</time>
      </trkpt>
      <trkpt lat="45.50442" lon="6.91775">
        <ele>1652.64</ele>
        <time>2011-06-26T12:05:48Z</time>
      </trkpt>
      <trkpt lat="45.50443" lon="6.9178">
        <ele>1653.6</ele>
        <time>2011-06-26T12:05:50Z</time>
      </trkpt>
      <trkpt lat="45.50448" lon="6.91791">
        <ele>1650.24</ele>
        <time>2011-06-26T12:05:55Z</time>
      </trkpt>
      <trkpt lat="45.50449" lon="6.91792">
        <ele>1648.8</ele>
        <time>2011-06-26T12:05:56Z</time>
      </trkpt>
      <trkpt lat="45.5045" lon="6.9179">
        <ele>1649.28</ele>
        <time>2011-06-26T12:05:58Z</time>
      </trkpt>
      <trkpt lat="45.50452" lon="6.91783">
        <ele>1645.91</ele>
        <time>2011-06-26T12:06:02Z</time>
      </trkpt>
      <trkpt lat="45.50453" lon="6.91778">
        <ele>1646.4</ele>
        <time>2011-06-26T12:06:05Z</time>
      </trkpt>
      <trkpt lat="45.50454" lon="6.91775">
        <ele>1644.95</ele>
        <time>2011-06-26T12:06:08Z</time>
      </trkpt>
      <trkpt lat="45.5046" lon="6.91787">
        <ele>1642.07</ele>
        <time>2011-06-26T12:06:15Z</time>
      </trkpt>
      <trkpt lat="45.50464" lon="6.91794">
        <ele>1640.15</ele>
        <time>2011-06-26T12:06:20Z</time>
      </trkpt>
      <trkpt lat="45.50466" lon="6.91791">
        <ele>1639.19</ele>
        <time>2011-06-26T12:06:22Z</time>
      </trkpt>
      <trkpt lat="45.50466" lon="6.91789">
        <ele>1638.7</ele>
        <time>2011-06-26T12:06:23Z</time>
      </trkpt>
      <trkpt lat="45.50467" lon="6.91786">
        <ele>1638.22</ele>
        <time>2011-06-26T12:06:25Z</time>
      </trkpt>
      <trkpt lat="45.50472" lon="6.91791">
        <ele>1634.86</ele>
        <time>2011-06-26T12:06:31Z</time>
      </trkpt>
      <trkpt lat="45.50476" lon="6.91796">
        <ele>1632.46</ele>
        <time>2011-06-26T12:06:36Z</time>
      </trkpt>
      <trkpt lat="45.50485" lon="6.91803">
        <ele>1629.09</ele>
        <time>2011-06-26T12:06:43Z</time>
      </trkpt>
      <trkpt lat="45.50487" lon="6.91806">
        <ele>1628.13</ele>
        <time>2011-06-26T12:06:45Z</time>
      </trkpt>
      <trkpt lat="45.50494" lon="6.91824">
        <ele>1627.17</ele>
        <time>2011-06-26T12:06:52Z</time>
      </trkpt>
      <trkpt lat="45.50499" lon="6.91831">
        <ele>1625.25</ele>
        <time>2011-06-26T12:06:56Z</time>
      </trkpt>
      <trkpt lat="45.50505" lon="6.91839">
        <ele>1621.88</ele>
        <time>2011-06-26T12:07:01Z</time>
      </trkpt>
      <trkpt lat="45.50512" lon="6.9185">
        <ele>1619.48</ele>
        <time>2011-06-26T12:07:07Z</time>
      </trkpt>
      <trkpt lat="45.50517" lon="6.91854">
        <ele>1618.04</ele>
        <time>2011-06-26T12:07:11Z</time>
      </trkpt>
      <trkpt lat="45.50519" lon="6.91858">
        <ele>1616.59</ele>
        <time>2011-06-26T12:07:13Z</time>
      </trkpt>
      <trkpt lat="45.50522" lon="6.91866">
        <ele>1615.15</ele>
        <time>2011-06-26T12:07:17Z</time>
      </trkpt>
      <trkpt lat="45.50532" lon="6.91888">
        <ele>1610.83</ele>
        <time>2011-06-26T12:07:26Z</time>
      </trkpt>
      <trkpt lat="45.50533" lon="6.9189">
        <ele>1610.83</ele>
        <time>2011-06-26T12:07:27Z</time>
      </trkpt>
      <trkpt lat="45.50535" lon="6.91894">
        <ele>1609.38</ele>
        <time>2011-06-26T12:07:29Z</time>
      </trkpt>
      <trkpt lat="45.50541" lon="6.91907">
        <ele>1605.54</ele>
        <time>2011-06-26T12:07:36Z</time>
      </trkpt>
      <trkpt lat="45.50542" lon="6.91909">
        <ele>1605.06</ele>
        <time>2011-06-26T12:07:37Z</time>
      </trkpt>
      <trkpt lat="45.50543" lon="6.91912">
        <ele>1604.58</ele>
        <time>2011-06-26T12:07:39Z</time>
      </trkpt>
      <trkpt lat="45.50547" lon="6.91911">
        <ele>1603.14</ele>
        <time>2011-06-26T12:07:42Z</time>
      </trkpt>
      <trkpt lat="45.50553" lon="6.91915">
        <ele>1601.21</ele>
        <time>2011-06-26T12:07:47Z</time>
      </trkpt>
      <trkpt lat="45.50556" lon="6.91955">
        <ele>1599.29</ele>
        <time>2011-06-26T12:08:00Z</time>
      </trkpt>
      <trkpt lat="45.5056" lon="6.91994">
        <ele>1596.41</ele>
        <time>2011-06-26T12:08:13Z</time>
      </trkpt>
      <trkpt lat="45.50574" lon="6.92024">
        <ele>1594.48</ele>
        <time>2011-06-26T12:08:26Z</time>
      </trkpt>
      <trkpt lat="45.5059" lon="6.92043">
        <ele>1594</ele>
        <time>2011-06-26T12:08:36Z</time>
      </trkpt>
      <trkpt lat="45.50614" lon="6.92051">
        <ele>1592.08</ele>
        <time>2011-06-26T12:08:47Z</time>
      </trkpt>
      <trkpt lat="45.50621" lon="6.92054">
        <ele>1592.08</ele>
        <time>2011-06-26T12:08:50Z</time>
      </trkpt>
      <trkpt lat="45.50635" lon="6.92054">
        <ele>1591.12</ele>
        <time>2011-06-26T12:08:56Z</time>
      </trkpt>
      <trkpt lat="45.50658" lon="6.92053">
        <ele>1592.08</ele>
        <time>2011-06-26T12:09:06Z</time>
      </trkpt>
      <trkpt lat="45.50687" lon="6.92059">
        <ele>1590.64</ele>
        <time>2011-06-26T12:09:19Z</time>
      </trkpt>
    </trkseg>
  </trk>
</gpx>